﻿<?xml version="1.0" encoding="utf-8"?><gpx creator="Garmin Desktop App" version="1.1" xsi:schemaLocation="http://www.topografix.com/GPX/1/1 http://www.topografix.com/GPX/1/1/gpx.xsd http://www.garmin.com/xmlschemas/WaypointExtension/v1 http://www8.garmin.com/xmlschemas/WaypointExtensionv1.xsd http://www.garmin.com/xmlschemas/TrackPointExtension/v1 http://www.garmin.com/xmlschemas/TrackPointExtensionv1.xsd http://www.garmin.com/xmlschemas/GpxExtensions/v3 http://www8.garmin.com/xmlschemas/GpxExtensionsv3.xsd http://www.garmin.com/xmlschemas/ActivityExtension/v1 http://www8.garmin.com/xmlschemas/ActivityExtensionv1.xsd http://www.garmin.com/xmlschemas/AdventuresExtensions/v1 http://www8.garmin.com/xmlschemas/AdventuresExtensionv1.xsd http://www.garmin.com/xmlschemas/PressureExtension/v1 http://www.garmin.com/xmlschemas/PressureExtensionv1.xsd http://www.garmin.com/xmlschemas/TripExtensions/v1 http://www.garmin.com/xmlschemas/TripExtensionsv1.xsd http://www.garmin.com/xmlschemas/TripMetaDataExtensions/v1 http://www.garmin.com/xmlschemas/TripMetaDataExtensionsv1.xsd http://www.garmin.com/xmlschemas/ViaPointTransportationModeExtensions/v1 http://www.garmin.com/xmlschemas/ViaPointTransportationModeExtensionsv1.xsd http://www.garmin.com/xmlschemas/CreationTimeExtension/v1 http://www.garmin.com/xmlschemas/CreationTimeExtensionsv1.xsd http://www.garmin.com/xmlschemas/AccelerationExtension/v1 http://www.garmin.com/xmlschemas/AccelerationExtensionv1.xsd http://www.garmin.com/xmlschemas/PowerExtension/v1 http://www.garmin.com/xmlschemas/PowerExtensionv1.xsd http://www.garmin.com/xmlschemas/VideoExtension/v1 http://www.garmin.com/xmlschemas/VideoExtensionv1.xsd" xmlns="http://www.topografix.com/GPX/1/1" xmlns:xsi="http://www.w3.org/2001/XMLSchema-instance" xmlns:wptx1="http://www.garmin.com/xmlschemas/WaypointExtension/v1" xmlns:gpxtrx="http://www.garmin.com/xmlschemas/GpxExtensions/v3" xmlns:gpxtpx="http://www.garmin.com/xmlschemas/TrackPointExtension/v1" xmlns:gpxx="http://www.garmin.com/xmlschemas/GpxExtensions/v3" xmlns:trp="http://www.garmin.com/xmlschemas/TripExtensions/v1" xmlns:adv="http://www.garmin.com/xmlschemas/AdventuresExtensions/v1" xmlns:prs="http://www.garmin.com/xmlschemas/PressureExtension/v1" xmlns:tmd="http://www.garmin.com/xmlschemas/TripMetaDataExtensions/v1" xmlns:vptm="http://www.garmin.com/xmlschemas/ViaPointTransportationModeExtensions/v1" xmlns:ctx="http://www.garmin.com/xmlschemas/CreationTimeExtension/v1" xmlns:gpxacc="http://www.garmin.com/xmlschemas/AccelerationExtension/v1" xmlns:gpxpx="http://www.garmin.com/xmlschemas/PowerExtension/v1" xmlns:vidx1="http://www.garmin.com/xmlschemas/VideoExtension/v1">

  <metadata>
    <link href="http://www.garmin.com">
      <text>Garmin International</text>
    </link>
    <time>2021-10-03T16:07:43Z</time>
    <bounds maxlat="50.329451160505414" maxlon="6.529388073831797" minlat="50.285627469420433" minlon="6.389217087998986" />
  </metadata>

  <trk>
    <name>bie reter isi hof 21 km deze</name>
    <extensions>
      <gpxx:TrackExtension>
        <gpxx:DisplayColor>Red</gpxx:DisplayColor>
      </gpxx:TrackExtension>
    </extensions>
    <trkseg>
      <trkpt lat="50.307656619697809" lon="6.389217087998986">
        <ele>590.96000000000004</ele>
        <time>2017-06-06T16:31:47Z</time>
      </trkpt>
      <trkpt lat="50.307633904740214" lon="6.389299985021353">
        <ele>591.61000000000001</ele>
        <time>2017-06-06T16:31:42Z</time>
      </trkpt>
      <trkpt lat="50.307629210874438" lon="6.389318676665425">
        <ele>592.37</ele>
        <time>2017-06-06T16:31:41Z</time>
      </trkpt>
      <trkpt lat="50.307622337713838" lon="6.389338877052069">
        <ele>592.21000000000004</ele>
        <time>2017-06-06T16:31:40Z</time>
      </trkpt>
      <trkpt lat="50.307616889476776" lon="6.389357233420014">
        <ele>591.60000000000002</ele>
        <time>2017-06-06T16:31:39Z</time>
      </trkpt>
      <trkpt lat="50.307540195062757" lon="6.389614725485444">
        <ele>591.64999999999998</ele>
        <time>2017-06-06T16:31:24Z</time>
      </trkpt>
      <trkpt lat="50.307480180636048" lon="6.389890154823661">
        <ele>592.52999999999997</ele>
        <time>2017-06-06T16:31:09Z</time>
      </trkpt>
      <trkpt lat="50.307421423494816" lon="6.390089895576239">
        <ele>593.29999999999995</ele>
        <time>2017-06-06T16:30:58Z</time>
      </trkpt>
      <trkpt lat="50.307397451251745" lon="6.390393823385239">
        <ele>593.16999999999996</ele>
        <time>2017-06-06T16:30:42Z</time>
      </trkpt>
      <trkpt lat="50.307394601404667" lon="6.390416622161865">
        <ele>593.13</ele>
        <time>2017-06-06T16:30:41Z</time>
      </trkpt>
      <trkpt lat="50.307391248643398" lon="6.390667073428631">
        <ele>592.75999999999999</ele>
        <time>2017-06-06T16:30:28Z</time>
      </trkpt>
      <trkpt lat="50.307390326634049" lon="6.390965888276696">
        <ele>593.61000000000001</ele>
        <time>2017-06-06T16:30:14Z</time>
      </trkpt>
      <trkpt lat="50.307380938902497" lon="6.391272414475679">
        <ele>592.55999999999995</ele>
        <time>2017-06-06T16:30:00Z</time>
      </trkpt>
      <trkpt lat="50.307365097105503" lon="6.391409039497376">
        <ele>592.46000000000004</ele>
        <time>2017-06-06T16:29:53Z</time>
      </trkpt>
      <trkpt lat="50.307342130690813" lon="6.391644570976496">
        <ele>592.25999999999999</ele>
        <time>2017-06-06T16:29:41Z</time>
      </trkpt>
      <trkpt lat="50.307327127084136" lon="6.392000298947096">
        <ele>592.00999999999999</ele>
        <time>2017-06-06T16:29:23Z</time>
      </trkpt>
      <trkpt lat="50.307327210903168" lon="6.392242955043912">
        <ele>592.36000000000001</ele>
        <time>2017-06-06T16:29:11Z</time>
      </trkpt>
      <trkpt lat="50.307322181761265" lon="6.39244956895709">
        <ele>592.23000000000002</ele>
        <time>2017-06-06T16:28:58Z</time>
      </trkpt>
      <trkpt lat="50.307321846485138" lon="6.3924680929631">
        <ele>592.19000000000005</ele>
        <time>2017-06-06T16:28:57Z</time>
      </trkpt>
      <trkpt lat="50.307321427389979" lon="6.392486868426204">
        <ele>592.42999999999995</ele>
        <time>2017-06-06T16:28:56Z</time>
      </trkpt>
      <trkpt lat="50.307341543957591" lon="6.392525257542729">
        <ele>593.12</ele>
        <time>2017-06-06T16:28:53Z</time>
      </trkpt>
      <trkpt lat="50.307311369106174" lon="6.392534896731377">
        <ele>593.09000000000003</ele>
        <time>2017-06-06T16:28:52Z</time>
      </trkpt>
      <trkpt lat="50.307294521480799" lon="6.392719466239214">
        <ele>593.08000000000004</ele>
        <time>2017-06-06T16:28:51Z</time>
      </trkpt>
      <trkpt lat="50.307305082678795" lon="6.392824659124017">
        <ele>593.22000000000003</ele>
        <time>2017-06-06T16:28:46Z</time>
      </trkpt>
      <trkpt lat="50.307374317198992" lon="6.392779564484954">
        <ele>593.13</ele>
        <time>2017-06-06T16:28:42Z</time>
      </trkpt>
      <trkpt lat="50.307525442913175" lon="6.392770679667592">
        <ele>591.59000000000003</ele>
        <time>2017-06-06T16:28:26Z</time>
      </trkpt>
      <trkpt lat="50.307840937748551" lon="6.392712090164423">
        <ele>589.34000000000003</ele>
        <time>2017-06-06T16:28:11Z</time>
      </trkpt>
      <trkpt lat="50.308199850842357" lon="6.392790796235204">
        <ele>586.50999999999999</ele>
        <time>2017-06-06T16:27:58Z</time>
      </trkpt>
      <trkpt lat="50.308594219386578" lon="6.393311731517315">
        <ele>584.99000000000001</ele>
        <time>2017-06-06T16:27:41Z</time>
      </trkpt>
      <trkpt lat="50.308894542977214" lon="6.393716912716627">
        <ele>585.39999999999998</ele>
        <time>2017-06-06T16:27:27Z</time>
      </trkpt>
      <trkpt lat="50.309104509651661" lon="6.394024528563023">
        <ele>586.95000000000005</ele>
        <time>2017-06-06T16:27:11Z</time>
      </trkpt>
      <trkpt lat="50.309245996177197" lon="6.394283110275865">
        <ele>587.63</ele>
        <time>2017-06-06T16:26:53Z</time>
      </trkpt>
      <trkpt lat="50.309359906241298" lon="6.394602376967669">
        <ele>586.80999999999995</ele>
        <time>2017-06-06T16:26:35Z</time>
      </trkpt>
      <trkpt lat="50.309454957023263" lon="6.394910663366318">
        <ele>590.5</ele>
        <time>2017-06-06T16:26:18Z</time>
      </trkpt>
      <trkpt lat="50.309484042227268" lon="6.394995907321572">
        <ele>589.53999999999996</ele>
        <time>2017-06-06T16:26:13Z</time>
      </trkpt>
      <trkpt lat="50.309585966169834" lon="6.395310228690505">
        <ele>591.05999999999995</ele>
        <time>2017-06-06T16:25:54Z</time>
      </trkpt>
      <trkpt lat="50.309726195409894" lon="6.395493373274803">
        <ele>592.88999999999999</ele>
        <time>2017-06-06T16:25:38Z</time>
      </trkpt>
      <trkpt lat="50.309737510979176" lon="6.395494714379311">
        <ele>592.89999999999998</ele>
        <time>2017-06-06T16:25:37Z</time>
      </trkpt>
      <trkpt lat="50.309748239815235" lon="6.395491948351264">
        <ele>592.54999999999995</ele>
        <time>2017-06-06T16:25:36Z</time>
      </trkpt>
      <trkpt lat="50.309964241459966" lon="6.395417349413037">
        <ele>594.13</ele>
        <time>2017-06-06T16:25:17Z</time>
      </trkpt>
      <trkpt lat="50.310224667191505" lon="6.395260775461793">
        <ele>593.28999999999996</ele>
        <time>2017-06-06T16:24:55Z</time>
      </trkpt>
      <trkpt lat="50.310461707413197" lon="6.395142758265138">
        <ele>593.66999999999996</ele>
        <time>2017-06-06T16:24:35Z</time>
      </trkpt>
      <trkpt lat="50.31064610928297" lon="6.395049467682838">
        <ele>595.20000000000005</ele>
        <time>2017-06-06T16:24:19Z</time>
      </trkpt>
      <trkpt lat="50.310789439827204" lon="6.394974114373326">
        <ele>594.02999999999997</ele>
        <time>2017-06-06T16:24:07Z</time>
      </trkpt>
      <trkpt lat="50.310815088450909" lon="6.39495961368084">
        <ele>592.42999999999995</ele>
        <time>2017-06-06T16:24:05Z</time>
      </trkpt>
      <trkpt lat="50.310945007950068" lon="6.394907729700208">
        <ele>593.62</ele>
        <time>2017-06-06T16:23:55Z</time>
      </trkpt>
      <trkpt lat="50.31096613034606" lon="6.394896162673831">
        <ele>593.36000000000001</ele>
        <time>2017-06-06T16:23:54Z</time>
      </trkpt>
      <trkpt lat="50.311100324615836" lon="6.394848804920912">
        <ele>589.49000000000001</ele>
        <time>2017-06-06T16:23:49Z</time>
      </trkpt>
      <trkpt lat="50.311547499150038" lon="6.394643280655146">
        <ele>587.72000000000003</ele>
        <time>2017-06-06T16:23:33Z</time>
      </trkpt>
      <trkpt lat="50.311909597367048" lon="6.394452173262835">
        <ele>585.71000000000004</ele>
        <time>2017-06-06T16:23:20Z</time>
      </trkpt>
      <trkpt lat="50.312209082767367" lon="6.394300209358335">
        <ele>583.80999999999995</ele>
        <time>2017-06-06T16:23:09Z</time>
      </trkpt>
      <trkpt lat="50.312426760792732" lon="6.394184958189726">
        <ele>582.22000000000003</ele>
        <time>2017-06-06T16:22:51Z</time>
      </trkpt>
      <trkpt lat="50.312606301158667" lon="6.394093343988061">
        <ele>581.38999999999999</ele>
        <time>2017-06-06T16:22:35Z</time>
      </trkpt>
      <trkpt lat="50.312762623652816" lon="6.393978344276547">
        <ele>579.01999999999998</ele>
        <time>2017-06-06T16:22:19Z</time>
      </trkpt>
      <trkpt lat="50.312882484868169" lon="6.393679697066546">
        <ele>576.24000000000001</ele>
        <time>2017-06-06T16:22:00Z</time>
      </trkpt>
      <trkpt lat="50.312955072149634" lon="6.39335204847157">
        <ele>576.47000000000003</ele>
        <time>2017-06-06T16:21:43Z</time>
      </trkpt>
      <trkpt lat="50.313032437115908" lon="6.393084665760398">
        <ele>578.16999999999996</ele>
        <time>2017-06-06T16:21:28Z</time>
      </trkpt>
      <trkpt lat="50.313159842044115" lon="6.39258342795074">
        <ele>580.14999999999998</ele>
        <time>2017-06-06T16:21:01Z</time>
      </trkpt>
      <trkpt lat="50.313286827877164" lon="6.392054362222552">
        <ele>582.65999999999997</ele>
        <time>2017-06-06T16:20:32Z</time>
      </trkpt>
      <trkpt lat="50.313290599733591" lon="6.392037346959114">
        <ele>582.47000000000003</ele>
        <time>2017-06-06T16:20:31Z</time>
      </trkpt>
      <trkpt lat="50.313295209780335" lon="6.392021421343088">
        <ele>582.62</ele>
        <time>2017-06-06T16:20:30Z</time>
      </trkpt>
      <trkpt lat="50.313299652189016" lon="6.392005579546094">
        <ele>582.67999999999995</ele>
        <time>2017-06-06T16:20:29Z</time>
      </trkpt>
      <trkpt lat="50.313302921131253" lon="6.391989821568131">
        <ele>582.65999999999997</ele>
        <time>2017-06-06T16:20:28Z</time>
      </trkpt>
      <trkpt lat="50.313306860625744" lon="6.391973979771137">
        <ele>582.62</ele>
        <time>2017-06-06T16:20:27Z</time>
      </trkpt>
      <trkpt lat="50.313312560319901" lon="6.391934668645263">
        <ele>582.76999999999998</ele>
        <time>2017-06-06T16:20:20Z</time>
      </trkpt>
      <trkpt lat="50.313364695757627" lon="6.391742136329413">
        <ele>583.41999999999996</ele>
        <time>2017-06-06T16:20:02Z</time>
      </trkpt>
      <trkpt lat="50.313466535881162" lon="6.391338631510735">
        <ele>586.44000000000005</ele>
        <time>2017-06-06T16:19:39Z</time>
      </trkpt>
      <trkpt lat="50.313471648842096" lon="6.391320107504726">
        <ele>586.66999999999996</ele>
        <time>2017-06-06T16:19:38Z</time>
      </trkpt>
      <trkpt lat="50.313475923612714" lon="6.391300829127431">
        <ele>586.88999999999999</ele>
        <time>2017-06-06T16:19:37Z</time>
      </trkpt>
      <trkpt lat="50.313479779288173" lon="6.391280377283692">
        <ele>587.32000000000005</ele>
        <time>2017-06-06T16:19:36Z</time>
      </trkpt>
      <trkpt lat="50.313485227525234" lon="6.391261937096715">
        <ele>587.34000000000003</ele>
        <time>2017-06-06T16:19:35Z</time>
      </trkpt>
      <trkpt lat="50.313493357971311" lon="6.391245340928435">
        <ele>587.55999999999995</ele>
        <time>2017-06-06T16:19:34Z</time>
      </trkpt>
      <trkpt lat="50.313572231680155" lon="6.390936886891723">
        <ele>587.20000000000005</ele>
        <time>2017-06-06T16:19:15Z</time>
      </trkpt>
      <trkpt lat="50.313577344641089" lon="6.390922050923109">
        <ele>586.80999999999995</ele>
        <time>2017-06-06T16:19:14Z</time>
      </trkpt>
      <trkpt lat="50.313598467037082" lon="6.39084979891777">
        <ele>586.73000000000002</ele>
        <time>2017-06-06T16:19:08Z</time>
      </trkpt>
      <trkpt lat="50.313602490350604" lon="6.390833789482713">
        <ele>586.24000000000001</ele>
        <time>2017-06-06T16:19:07Z</time>
      </trkpt>
      <trkpt lat="50.313607016578317" lon="6.390818366780877">
        <ele>586.5</ele>
        <time>2017-06-06T16:19:06Z</time>
      </trkpt>
      <trkpt lat="50.313645489513874" lon="6.390749048441649">
        <ele>586.26999999999998</ele>
        <time>2017-06-06T16:19:00Z</time>
      </trkpt>
      <trkpt lat="50.313740791752934" lon="6.390677969902754">
        <ele>586.39999999999998</ele>
        <time>2017-06-06T16:18:49Z</time>
      </trkpt>
      <trkpt lat="50.31379871070385" lon="6.390650728717446">
        <ele>584.92999999999995</ele>
        <time>2017-06-06T16:18:43Z</time>
      </trkpt>
      <trkpt lat="50.31393307261169" lon="6.390573363751173">
        <ele>583.42999999999995</ele>
        <time>2017-06-06T16:18:28Z</time>
      </trkpt>
      <trkpt lat="50.31403080560267" lon="6.390532627701759">
        <ele>581.40999999999997</ele>
        <time>2017-06-06T16:18:17Z</time>
      </trkpt>
      <trkpt lat="50.314048826694489" lon="6.390523826703429">
        <ele>581.74000000000001</ele>
        <time>2017-06-06T16:18:15Z</time>
      </trkpt>
      <trkpt lat="50.314075732603669" lon="6.39050186611712">
        <ele>580.07000000000005</ele>
        <time>2017-06-06T16:18:12Z</time>
      </trkpt>
      <trkpt lat="50.314094172790647" lon="6.390492478385568">
        <ele>579</ele>
        <time>2017-06-06T16:18:10Z</time>
      </trkpt>
      <trkpt lat="50.314160473644733" lon="6.390477642416954">
        <ele>578.21000000000004</ele>
        <time>2017-06-06T16:18:02Z</time>
      </trkpt>
      <trkpt lat="50.314168855547905" lon="6.390474373474717">
        <ele>578</ele>
        <time>2017-06-06T16:18:01Z</time>
      </trkpt>
      <trkpt lat="50.314178075641394" lon="6.390470433980227">
        <ele>577.14999999999998</ele>
        <time>2017-06-06T16:18:00Z</time>
      </trkpt>
      <trkpt lat="50.314282681792974" lon="6.390426009893417">
        <ele>573.88</ele>
        <time>2017-06-06T16:17:46Z</time>
      </trkpt>
      <trkpt lat="50.31432350166142" lon="6.390411593019962">
        <ele>572.75</ele>
        <time>2017-06-06T16:17:41Z</time>
      </trkpt>
      <trkpt lat="50.314358286559582" lon="6.390393991023302">
        <ele>571.87</ele>
        <time>2017-06-06T16:17:37Z</time>
      </trkpt>
      <trkpt lat="50.314367422834039" lon="6.39038803987205">
        <ele>571.33000000000004</ele>
        <time>2017-06-06T16:17:36Z</time>
      </trkpt>
      <trkpt lat="50.314410673454404" lon="6.390365576371551">
        <ele>569.99000000000001</ele>
        <time>2017-06-06T16:17:31Z</time>
      </trkpt>
      <trkpt lat="50.314439842477441" lon="6.390344705432653">
        <ele>569.19000000000005</ele>
        <time>2017-06-06T16:17:28Z</time>
      </trkpt>
      <trkpt lat="50.3144505713135" lon="6.390342945232987">
        <ele>568.97000000000003</ele>
        <time>2017-06-06T16:17:27Z</time>
      </trkpt>
      <trkpt lat="50.31457370147109" lon="6.390281254425645">
        <ele>567.33000000000004</ele>
        <time>2017-06-06T16:17:14Z</time>
      </trkpt>
      <trkpt lat="50.314673697575927" lon="6.390222916379571">
        <ele>565.72000000000003</ele>
        <time>2017-06-06T16:17:04Z</time>
      </trkpt>
      <trkpt lat="50.314736226573586" lon="6.390193998813629">
        <ele>564.22000000000003</ele>
        <time>2017-06-06T16:16:58Z</time>
      </trkpt>
      <trkpt lat="50.314863128587604" lon="6.3901212438941">
        <ele>561.20000000000005</ele>
        <time>2017-06-06T16:16:45Z</time>
      </trkpt>
      <trkpt lat="50.314953736960888" lon="6.390080004930496">
        <ele>559.86000000000001</ele>
        <time>2017-06-06T16:16:35Z</time>
      </trkpt>
      <trkpt lat="50.315012075006962" lon="6.390037257224321">
        <ele>557.49000000000001</ele>
        <time>2017-06-06T16:16:28Z</time>
      </trkpt>
      <trkpt lat="50.315079549327493" lon="6.389999287202954">
        <ele>555.79999999999995</ele>
        <time>2017-06-06T16:16:11Z</time>
      </trkpt>
      <trkpt lat="50.315152890980244" lon="6.390039185062051">
        <ele>554.16999999999996</ele>
        <time>2017-06-06T16:15:56Z</time>
      </trkpt>
      <trkpt lat="50.31525774858892" lon="6.390415281057358">
        <ele>554.37</ele>
        <time>2017-06-06T16:15:34Z</time>
      </trkpt>
      <trkpt lat="50.315382136031985" lon="6.390886092558503">
        <ele>556.35000000000002</ele>
        <time>2017-06-06T16:15:07Z</time>
      </trkpt>
      <trkpt lat="50.315511636435986" lon="6.39135698787868">
        <ele>558.50999999999999</ele>
        <time>2017-06-06T16:14:41Z</time>
      </trkpt>
      <trkpt lat="50.315595706924796" lon="6.391671225428581">
        <ele>558.83000000000004</ele>
        <time>2017-06-06T16:14:24Z</time>
      </trkpt>
      <trkpt lat="50.315686818212271" lon="6.391953863203526">
        <ele>557.86000000000001</ele>
        <time>2017-06-06T16:14:07Z</time>
      </trkpt>
      <trkpt lat="50.315716154873371" lon="6.392081351950765">
        <ele>560.84000000000003</ele>
        <time>2017-06-06T16:14:00Z</time>
      </trkpt>
      <trkpt lat="50.315794609487057" lon="6.392369186505675">
        <ele>558.63</ele>
        <time>2017-06-06T16:13:45Z</time>
      </trkpt>
      <trkpt lat="50.315845822915435" lon="6.392547888681293">
        <ele>560.83000000000004</ele>
        <time>2017-06-06T16:13:35Z</time>
      </trkpt>
      <trkpt lat="50.315941963344812" lon="6.392892049625516">
        <ele>560.38999999999999</ele>
        <time>2017-06-06T16:13:16Z</time>
      </trkpt>
      <trkpt lat="50.316055454313755" lon="6.393334781751037">
        <ele>560.27999999999997</ele>
        <time>2017-06-06T16:12:51Z</time>
      </trkpt>
      <trkpt lat="50.316112283617258" lon="6.393534690141678">
        <ele>558.62</ele>
        <time>2017-06-06T16:12:39Z</time>
      </trkpt>
      <trkpt lat="50.316119324415922" lon="6.39355187304318">
        <ele>559.72000000000003</ele>
        <time>2017-06-06T16:12:36Z</time>
      </trkpt>
      <trkpt lat="50.316113457083702" lon="6.393562015146017">
        <ele>559.77999999999997</ele>
        <time>2017-06-06T16:12:15Z</time>
      </trkpt>
      <trkpt lat="50.316221583634615" lon="6.393883628770709">
        <ele>557.58000000000004</ele>
        <time>2017-06-06T16:11:52Z</time>
      </trkpt>
      <trkpt lat="50.316390814259648" lon="6.394301718100905">
        <ele>555.82000000000005</ele>
        <time>2017-06-06T16:11:27Z</time>
      </trkpt>
      <trkpt lat="50.316398274153471" lon="6.394319068640471">
        <ele>555.49000000000001</ele>
        <time>2017-06-06T16:11:26Z</time>
      </trkpt>
      <trkpt lat="50.316406236961484" lon="6.394335748627782">
        <ele>555.42999999999995</ele>
        <time>2017-06-06T16:11:25Z</time>
      </trkpt>
      <trkpt lat="50.316415037959814" lon="6.39435326680541">
        <ele>555.27999999999997</ele>
        <time>2017-06-06T16:11:24Z</time>
      </trkpt>
      <trkpt lat="50.316422330215573" lon="6.394372042268515">
        <ele>554.98000000000002</ele>
        <time>2017-06-06T16:11:23Z</time>
      </trkpt>
      <trkpt lat="50.31643046066165" lon="6.394390985369682">
        <ele>555.48000000000002</ele>
        <time>2017-06-06T16:11:22Z</time>
      </trkpt>
      <trkpt lat="50.31643926165998" lon="6.394408671185374">
        <ele>555.98000000000002</ele>
        <time>2017-06-06T16:11:21Z</time>
      </trkpt>
      <trkpt lat="50.316458875313401" lon="6.394447311758995">
        <ele>555.23000000000002</ele>
        <time>2017-06-06T16:11:18Z</time>
      </trkpt>
      <trkpt lat="50.31652576290071" lon="6.394581841304898">
        <ele>553.88999999999999</ele>
        <time>2017-06-06T16:11:10Z</time>
      </trkpt>
      <trkpt lat="50.316658951342106" lon="6.394882248714566">
        <ele>553.28999999999996</ele>
        <time>2017-06-06T16:10:53Z</time>
      </trkpt>
      <trkpt lat="50.316665405407548" lon="6.394899599254131">
        <ele>553.13</ele>
        <time>2017-06-06T16:10:52Z</time>
      </trkpt>
      <trkpt lat="50.316671608015895" lon="6.394916279241443">
        <ele>553.28999999999996</ele>
        <time>2017-06-06T16:10:51Z</time>
      </trkpt>
      <trkpt lat="50.316683426499367" lon="6.394978724420071">
        <ele>552.47000000000003</ele>
        <time>2017-06-06T16:10:45Z</time>
      </trkpt>
      <trkpt lat="50.316708236932755" lon="6.395042845979333">
        <ele>551.13</ele>
        <time>2017-06-06T16:10:33Z</time>
      </trkpt>
      <trkpt lat="50.316720809787512" lon="6.395057933405042">
        <ele>551.03999999999996</ele>
        <time>2017-06-06T16:10:32Z</time>
      </trkpt>
      <trkpt lat="50.316754505038261" lon="6.395086599513888">
        <ele>550.52999999999997</ele>
        <time>2017-06-06T16:10:29Z</time>
      </trkpt>
      <trkpt lat="50.316765569150448" lon="6.395089700818062">
        <ele>550.44000000000005</ele>
        <time>2017-06-06T16:10:28Z</time>
      </trkpt>
      <trkpt lat="50.316845281049609" lon="6.395179973915219">
        <ele>551.25999999999999</ele>
        <time>2017-06-06T16:10:16Z</time>
      </trkpt>
      <trkpt lat="50.316947624087334" lon="6.395355323329568">
        <ele>552.92999999999995</ele>
        <time>2017-06-06T16:10:03Z</time>
      </trkpt>
      <trkpt lat="50.316956425085664" lon="6.395370410755277">
        <ele>553.09000000000003</ele>
        <time>2017-06-06T16:10:02Z</time>
      </trkpt>
      <trkpt lat="50.316965142264962" lon="6.395382815971971">
        <ele>553.35000000000002</ele>
        <time>2017-06-06T16:10:01Z</time>
      </trkpt>
      <trkpt lat="50.316979140043259" lon="6.395400250330567">
        <ele>553.29999999999995</ele>
        <time>2017-06-06T16:09:59Z</time>
      </trkpt>
      <trkpt lat="50.317001352086663" lon="6.39544433914125">
        <ele>553.76999999999998</ele>
        <time>2017-06-06T16:09:56Z</time>
      </trkpt>
      <trkpt lat="50.317009817808867" lon="6.395462946966291">
        <ele>554.01999999999998</ele>
        <time>2017-06-06T16:09:55Z</time>
      </trkpt>
      <trkpt lat="50.317019456997514" lon="6.395481638610363">
        <ele>554.38</ele>
        <time>2017-06-06T16:09:54Z</time>
      </trkpt>
      <trkpt lat="50.317029431462288" lon="6.395494546741247">
        <ele>554.71000000000004</ele>
        <time>2017-06-06T16:09:53Z</time>
      </trkpt>
      <trkpt lat="50.317038735374808" lon="6.395503850653768">
        <ele>554.88</ele>
        <time>2017-06-06T16:09:52Z</time>
      </trkpt>
      <trkpt lat="50.317062959074974" lon="6.395582808181644">
        <ele>554.88999999999999</ele>
        <time>2017-06-06T16:09:44Z</time>
      </trkpt>
      <trkpt lat="50.317145017907023" lon="6.395812723785639">
        <ele>557.21000000000004</ele>
        <time>2017-06-06T16:09:29Z</time>
      </trkpt>
      <trkpt lat="50.317153315991163" lon="6.395834432914853">
        <ele>556.83000000000004</ele>
        <time>2017-06-06T16:09:28Z</time>
      </trkpt>
      <trkpt lat="50.317162703722715" lon="6.395855052396655">
        <ele>556.88999999999999</ele>
        <time>2017-06-06T16:09:27Z</time>
      </trkpt>
      <trkpt lat="50.317172259092331" lon="6.395872151479125">
        <ele>557.05999999999995</ele>
        <time>2017-06-06T16:09:26Z</time>
      </trkpt>
      <trkpt lat="50.317182904109359" lon="6.395890172570944">
        <ele>557.49000000000001</ele>
        <time>2017-06-06T16:09:25Z</time>
      </trkpt>
      <trkpt lat="50.317193884402514" lon="6.395914563909173">
        <ele>557.74000000000001</ele>
        <time>2017-06-06T16:09:24Z</time>
      </trkpt>
      <trkpt lat="50.317201428115368" lon="6.395938619971275">
        <ele>557.86000000000001</ele>
        <time>2017-06-06T16:09:23Z</time>
      </trkpt>
      <trkpt lat="50.317203104496002" lon="6.395961083471775">
        <ele>558.13999999999999</ele>
        <time>2017-06-06T16:09:22Z</time>
      </trkpt>
      <trkpt lat="50.317206373438239" lon="6.395982205867767">
        <ele>557.75999999999999</ele>
        <time>2017-06-06T16:09:21Z</time>
      </trkpt>
      <trkpt lat="50.317211989313364" lon="6.395998885855079">
        <ele>557.32000000000005</ele>
        <time>2017-06-06T16:09:20Z</time>
      </trkpt>
      <trkpt lat="50.317214839160442" lon="6.396018918603659">
        <ele>557.95000000000005</ele>
        <time>2017-06-06T16:09:19Z</time>
      </trkpt>
      <trkpt lat="50.317214587703347" lon="6.396040208637714">
        <ele>558.63999999999999</ele>
        <time>2017-06-06T16:09:18Z</time>
      </trkpt>
      <trkpt lat="50.317283067852259" lon="6.396243637427688">
        <ele>558.49000000000001</ele>
        <time>2017-06-06T16:09:07Z</time>
      </trkpt>
      <trkpt lat="50.31739060766995" lon="6.396511858329177">
        <ele>559.61000000000001</ele>
        <time>2017-06-06T16:08:52Z</time>
      </trkpt>
      <trkpt lat="50.317399660125375" lon="6.396526778116822">
        <ele>558.95000000000005</ele>
        <time>2017-06-06T16:08:51Z</time>
      </trkpt>
      <trkpt lat="50.317406952381134" lon="6.396540272980928">
        <ele>559.70000000000005</ele>
        <time>2017-06-06T16:08:50Z</time>
      </trkpt>
      <trkpt lat="50.317425644025207" lon="6.396603221073747">
        <ele>559.10000000000002</ele>
        <time>2017-06-06T16:08:40Z</time>
      </trkpt>
      <trkpt lat="50.317457662895322" lon="6.396673126146197">
        <ele>560.50999999999999</ele>
        <time>2017-06-06T16:08:27Z</time>
      </trkpt>
      <trkpt lat="50.31755137257278" lon="6.396942771971226">
        <ele>560.63</ele>
        <time>2017-06-06T16:08:11Z</time>
      </trkpt>
      <trkpt lat="50.317679196596146" lon="6.397305708378553">
        <ele>562.49000000000001</ele>
        <time>2017-06-06T16:07:51Z</time>
      </trkpt>
      <trkpt lat="50.317827137187123" lon="6.39771499671042">
        <ele>563.67999999999995</ele>
        <time>2017-06-06T16:07:27Z</time>
      </trkpt>
      <trkpt lat="50.317955212667584" lon="6.398041304200888">
        <ele>564.23000000000002</ele>
        <time>2017-06-06T16:07:08Z</time>
      </trkpt>
      <trkpt lat="50.318055879324675" lon="6.39838102273643">
        <ele>565.03999999999996</ele>
        <time>2017-06-06T16:06:49Z</time>
      </trkpt>
      <trkpt lat="50.318201137706637" lon="6.398619152605534">
        <ele>566.38</ele>
        <time>2017-06-06T16:06:32Z</time>
      </trkpt>
      <trkpt lat="50.318397106602788" lon="6.398806907236576">
        <ele>567.75</ele>
        <time>2017-06-06T16:06:14Z</time>
      </trkpt>
      <trkpt lat="50.318590058013797" lon="6.398933306336403">
        <ele>569.75</ele>
        <time>2017-06-06T16:05:57Z</time>
      </trkpt>
      <trkpt lat="50.318774543702602" lon="6.399137070402503">
        <ele>571.85000000000002</ele>
        <time>2017-06-06T16:05:39Z</time>
      </trkpt>
      <trkpt lat="50.318970596417785" lon="6.399326585233212">
        <ele>573.33000000000004</ele>
        <time>2017-06-06T16:05:20Z</time>
      </trkpt>
      <trkpt lat="50.319178719073534" lon="6.399482823908329">
        <ele>574.94000000000005</ele>
        <time>2017-06-06T16:05:01Z</time>
      </trkpt>
      <trkpt lat="50.319357253611088" lon="6.399610564112663">
        <ele>575.59000000000003</ele>
        <time>2017-06-06T16:04:45Z</time>
      </trkpt>
      <trkpt lat="50.319530423730612" lon="6.39973453246057">
        <ele>577.63</ele>
        <time>2017-06-06T16:04:28Z</time>
      </trkpt>
      <trkpt lat="50.319711808115244" lon="6.399874677881599">
        <ele>579.75</ele>
        <time>2017-06-06T16:04:12Z</time>
      </trkpt>
      <trkpt lat="50.319977849721909" lon="6.40008389018476">
        <ele>581.19000000000005</ele>
        <time>2017-06-06T16:03:49Z</time>
      </trkpt>
      <trkpt lat="50.320137273520231" lon="6.400203080847859">
        <ele>581.72000000000003</ele>
        <time>2017-06-06T16:03:34Z</time>
      </trkpt>
      <trkpt lat="50.320270545780659" lon="6.400298718363047">
        <ele>583.41999999999996</ele>
        <time>2017-06-06T16:03:21Z</time>
      </trkpt>
      <trkpt lat="50.320395017042756" lon="6.400470212101936">
        <ele>585.23000000000002</ele>
        <time>2017-06-06T16:03:08Z</time>
      </trkpt>
      <trkpt lat="50.320492163300514" lon="6.400672718882561">
        <ele>588.38999999999999</ele>
        <time>2017-06-06T16:02:56Z</time>
      </trkpt>
      <trkpt lat="50.320503227412701" lon="6.400699289515615">
        <ele>586.95000000000005</ele>
        <time>2017-06-06T16:02:54Z</time>
      </trkpt>
      <trkpt lat="50.320611353963614" lon="6.40091260895133">
        <ele>587.79999999999995</ele>
        <time>2017-06-06T16:02:40Z</time>
      </trkpt>
      <trkpt lat="50.320751583203673" lon="6.401242353022099">
        <ele>589.98000000000002</ele>
        <time>2017-06-06T16:02:25Z</time>
      </trkpt>
      <trkpt lat="50.320786284282804" lon="6.401523314416409">
        <ele>591.24000000000001</ele>
        <time>2017-06-06T16:02:11Z</time>
      </trkpt>
      <trkpt lat="50.320787625387311" lon="6.401543850079179">
        <ele>591.38</ele>
        <time>2017-06-06T16:02:10Z</time>
      </trkpt>
      <trkpt lat="50.320789469406009" lon="6.401565223932266">
        <ele>591.61000000000001</ele>
        <time>2017-06-06T16:02:09Z</time>
      </trkpt>
      <trkpt lat="50.320791229605675" lon="6.401586933061481">
        <ele>592.13</ele>
        <time>2017-06-06T16:02:08Z</time>
      </trkpt>
      <trkpt lat="50.320792654529214" lon="6.401607552543283">
        <ele>592.46000000000004</ele>
        <time>2017-06-06T16:02:07Z</time>
      </trkpt>
      <trkpt lat="50.320794666185975" lon="6.40162599273026">
        <ele>592.80999999999995</ele>
        <time>2017-06-06T16:02:06Z</time>
      </trkpt>
      <trkpt lat="50.320797599852085" lon="6.401645774021745">
        <ele>592.73000000000002</ele>
        <time>2017-06-06T16:02:05Z</time>
      </trkpt>
      <trkpt lat="50.320799443870783" lon="6.401666812598705">
        <ele>592.78999999999996</ele>
        <time>2017-06-06T16:02:04Z</time>
      </trkpt>
      <trkpt lat="50.320797599852085" lon="6.401756079867482">
        <ele>592.83000000000004</ele>
        <time>2017-06-06T16:02:00Z</time>
      </trkpt>
      <trkpt lat="50.320799443870783" lon="6.401846772059798">
        <ele>593.88</ele>
        <time>2017-06-06T16:01:56Z</time>
      </trkpt>
      <trkpt lat="50.320800449699163" lon="6.401904942467809">
        <ele>595.24000000000001</ele>
        <time>2017-06-06T16:01:53Z</time>
      </trkpt>
      <trkpt lat="50.32080271281302" lon="6.401927657425404">
        <ele>594.98000000000002</ele>
        <time>2017-06-06T16:01:52Z</time>
      </trkpt>
      <trkpt lat="50.320805814117193" lon="6.401949282735586">
        <ele>595.25</ele>
        <time>2017-06-06T16:01:51Z</time>
      </trkpt>
      <trkpt lat="50.320805562660098" lon="6.401966800913215">
        <ele>595.25</ele>
        <time>2017-06-06T16:01:50Z</time>
      </trkpt>
      <trkpt lat="50.320804975926876" lon="6.401989348232746">
        <ele>594.84000000000003</ele>
        <time>2017-06-06T16:01:49Z</time>
      </trkpt>
      <trkpt lat="50.320807322859764" lon="6.402013320475817">
        <ele>595.25</ele>
        <time>2017-06-06T16:01:48Z</time>
      </trkpt>
      <trkpt lat="50.320810256525874" lon="6.402031928300858">
        <ele>595.59000000000003</ele>
        <time>2017-06-06T16:01:47Z</time>
      </trkpt>
      <trkpt lat="50.320815956220031" lon="6.402049781754613">
        <ele>595.91999999999996</ele>
        <time>2017-06-06T16:01:46Z</time>
      </trkpt>
      <trkpt lat="50.320819979533553" lon="6.402066713199019">
        <ele>596.25</ele>
        <time>2017-06-06T16:01:45Z</time>
      </trkpt>
      <trkpt lat="50.320822410285473" lon="6.402088673785329">
        <ele>595.74000000000001</ele>
        <time>2017-06-06T16:01:44Z</time>
      </trkpt>
      <trkpt lat="50.320822913199663" lon="6.402110885828733">
        <ele>594.98000000000002</ele>
        <time>2017-06-06T16:01:43Z</time>
      </trkpt>
      <trkpt lat="50.32082567922771" lon="6.402132762596011">
        <ele>595.61000000000001</ele>
        <time>2017-06-06T16:01:42Z</time>
      </trkpt>
      <trkpt lat="50.32082861289382" lon="6.402155142277479">
        <ele>596.13</ele>
        <time>2017-06-06T16:01:41Z</time>
      </trkpt>
      <trkpt lat="50.320829367265105" lon="6.402175761759281">
        <ele>596.13</ele>
        <time>2017-06-06T16:01:40Z</time>
      </trkpt>
      <trkpt lat="50.320831295102835" lon="6.402195040136576">
        <ele>595.89999999999998</ele>
        <time>2017-06-06T16:01:39Z</time>
      </trkpt>
      <trkpt lat="50.320837497711182" lon="6.402265951037407">
        <ele>596.71000000000004</ele>
        <time>2017-06-06T16:01:33Z</time>
      </trkpt>
      <trkpt lat="50.320855434983969" lon="6.402513133361936">
        <ele>597.63999999999999</ele>
        <time>2017-06-06T16:01:17Z</time>
      </trkpt>
      <trkpt lat="50.320860045030713" lon="6.402592929080129">
        <ele>595.69000000000005</ele>
        <time>2017-06-06T16:01:13Z</time>
      </trkpt>
      <trkpt lat="50.320860967040062" lon="6.40261254273355">
        <ele>595.48000000000002</ele>
        <time>2017-06-06T16:01:12Z</time>
      </trkpt>
      <trkpt lat="50.320864152163267" lon="6.402667192742229">
        <ele>598.52999999999997</ele>
        <time>2017-06-06T16:01:09Z</time>
      </trkpt>
      <trkpt lat="50.320899104699492" lon="6.403049239888787">
        <ele>599.47000000000003</ele>
        <time>2017-06-06T16:00:48Z</time>
      </trkpt>
      <trkpt lat="50.320910252630711" lon="6.403441512957215">
        <ele>598.22000000000003</ele>
        <time>2017-06-06T16:00:27Z</time>
      </trkpt>
      <trkpt lat="50.320913102477789" lon="6.403710823506117">
        <ele>599.62</ele>
        <time>2017-06-06T16:00:13Z</time>
      </trkpt>
      <trkpt lat="50.32091754488647" lon="6.403786931186914">
        <ele>601.71000000000004</ele>
        <time>2017-06-06T16:00:09Z</time>
      </trkpt>
      <trkpt lat="50.320930033922195" lon="6.404057834297419">
        <ele>599.88</ele>
        <time>2017-06-06T15:59:55Z</time>
      </trkpt>
      <trkpt lat="50.320946546271443" lon="6.404399732127786">
        <ele>601.38999999999999</ele>
        <time>2017-06-06T15:59:38Z</time>
      </trkpt>
      <trkpt lat="50.320950821042061" lon="6.404499812051654">
        <ele>602.13999999999999</ele>
        <time>2017-06-06T15:59:33Z</time>
      </trkpt>
      <trkpt lat="50.320962471887469" lon="6.404989985749126">
        <ele>600.73000000000002</ele>
        <time>2017-06-06T15:59:09Z</time>
      </trkpt>
      <trkpt lat="50.320956017822027" lon="6.405051676556468">
        <ele>602.19000000000005</ele>
        <time>2017-06-06T15:59:06Z</time>
      </trkpt>
      <trkpt lat="50.320952162146568" lon="6.405068356543779">
        <ele>602.34000000000003</ele>
        <time>2017-06-06T15:59:05Z</time>
      </trkpt>
      <trkpt lat="50.320945624262094" lon="6.4050810970366">
        <ele>602.49000000000001</ele>
        <time>2017-06-06T15:59:04Z</time>
      </trkpt>
      <trkpt lat="50.320936655625701" lon="6.405090652406216">
        <ele>602.67999999999995</ele>
        <time>2017-06-06T15:59:03Z</time>
      </trkpt>
      <trkpt lat="50.320654269307852" lon="6.405042121186853">
        <ele>602.88999999999999</ele>
        <time>2017-06-06T15:58:40Z</time>
      </trkpt>
      <trkpt lat="50.32060188241303" lon="6.405028877779841">
        <ele>604.73000000000002</ele>
        <time>2017-06-06T15:58:36Z</time>
      </trkpt>
      <trkpt lat="50.320560727268457" lon="6.405021082609892">
        <ele>603.08000000000004</ele>
        <time>2017-06-06T15:58:33Z</time>
      </trkpt>
      <trkpt lat="50.320242969319224" lon="6.404949752613902">
        <ele>603.34000000000003</ele>
        <time>2017-06-06T15:58:08Z</time>
      </trkpt>
      <trkpt lat="50.32006099820137" lon="6.405050251632929">
        <ele>603.55999999999995</ele>
        <time>2017-06-06T15:57:52Z</time>
      </trkpt>
      <trkpt lat="50.320023614913225" lon="6.405229289084673">
        <ele>603.02999999999997</ele>
        <time>2017-06-06T15:57:42Z</time>
      </trkpt>
      <trkpt lat="50.320018334314227" lon="6.4055560156703">
        <ele>604.11000000000001</ele>
        <time>2017-06-06T15:57:25Z</time>
      </trkpt>
      <trkpt lat="50.320036187767982" lon="6.405891124159098">
        <ele>603.63</ele>
        <time>2017-06-06T15:57:07Z</time>
      </trkpt>
      <trkpt lat="50.320049431174994" lon="6.406177617609501">
        <ele>602.55999999999995</ele>
        <time>2017-06-06T15:56:52Z</time>
      </trkpt>
      <trkpt lat="50.320075331255794" lon="6.406499817967415">
        <ele>602.21000000000004</ele>
        <time>2017-06-06T15:56:36Z</time>
      </trkpt>
      <trkpt lat="50.320105170831084" lon="6.406795280054212">
        <ele>599.74000000000001</ele>
        <time>2017-06-06T15:56:22Z</time>
      </trkpt>
      <trkpt lat="50.320129813626409" lon="6.407143212854862">
        <ele>598.78999999999996</ele>
        <time>2017-06-06T15:56:03Z</time>
      </trkpt>
      <trkpt lat="50.320157054811716" lon="6.407502293586731">
        <ele>597.67999999999995</ele>
        <time>2017-06-06T15:55:44Z</time>
      </trkpt>
      <trkpt lat="50.320181949064136" lon="6.40785014256835">
        <ele>596.76999999999998</ele>
        <time>2017-06-06T15:55:27Z</time>
      </trkpt>
      <trkpt lat="50.320203909650445" lon="6.408252054825425">
        <ele>595.24000000000001</ele>
        <time>2017-06-06T15:55:07Z</time>
      </trkpt>
      <trkpt lat="50.320210531353951" lon="6.408646926283836">
        <ele>592.71000000000004</ele>
        <time>2017-06-06T15:54:48Z</time>
      </trkpt>
      <trkpt lat="50.320233162492514" lon="6.408996535465121">
        <ele>594.08000000000004</ele>
        <time>2017-06-06T15:54:31Z</time>
      </trkpt>
      <trkpt lat="50.320234755054116" lon="6.409015394747257">
        <ele>593.92999999999995</ele>
        <time>2017-06-06T15:54:30Z</time>
      </trkpt>
      <trkpt lat="50.320241460576653" lon="6.409423425793648">
        <ele>592.59000000000003</ele>
        <time>2017-06-06T15:54:18Z</time>
      </trkpt>
      <trkpt lat="50.320336930453777" lon="6.410150891169906">
        <ele>592.42999999999995</ele>
        <time>2017-06-06T15:54:04Z</time>
      </trkpt>
      <trkpt lat="50.320416055619717" lon="6.410766122862697">
        <ele>591.29999999999995</ele>
        <time>2017-06-06T15:53:51Z</time>
      </trkpt>
      <trkpt lat="50.320505741983652" lon="6.411524349823594">
        <ele>592.77999999999997</ele>
        <time>2017-06-06T15:53:36Z</time>
      </trkpt>
      <trkpt lat="50.3206189814955" lon="6.412357427179813">
        <ele>592.15999999999997</ele>
        <time>2017-06-06T15:53:20Z</time>
      </trkpt>
      <trkpt lat="50.320701627060771" lon="6.412732936441898">
        <ele>593.21000000000004</ele>
        <time>2017-06-06T15:53:07Z</time>
      </trkpt>
      <trkpt lat="50.320764994248748" lon="6.413070391863585">
        <ele>594.61000000000001</ele>
        <time>2017-06-06T15:52:49Z</time>
      </trkpt>
      <trkpt lat="50.320813693106174" lon="6.413465347141028">
        <ele>592.60000000000002</ele>
        <time>2017-06-06T15:52:29Z</time>
      </trkpt>
      <trkpt lat="50.320854261517525" lon="6.413792073726654">
        <ele>593.19000000000005</ele>
        <time>2017-06-06T15:52:13Z</time>
      </trkpt>
      <trkpt lat="50.320859542116523" lon="6.413832893595099">
        <ele>591.71000000000004</ele>
        <time>2017-06-06T15:52:11Z</time>
      </trkpt>
      <trkpt lat="50.320861553773284" lon="6.413854267448187">
        <ele>591.72000000000003</ele>
        <time>2017-06-06T15:52:10Z</time>
      </trkpt>
      <trkpt lat="50.320873623713851" lon="6.413977229967713">
        <ele>595.11000000000001</ele>
        <time>2017-06-06T15:52:04Z</time>
      </trkpt>
      <trkpt lat="50.320879071950912" lon="6.414015032351017">
        <ele>593.92999999999995</ele>
        <time>2017-06-06T15:52:02Z</time>
      </trkpt>
      <trkpt lat="50.320885106921196" lon="6.414057109504938">
        <ele>595.25999999999999</ele>
        <time>2017-06-06T15:52:00Z</time>
      </trkpt>
      <trkpt lat="50.320890387520194" lon="6.414098180830479">
        <ele>593.62</ele>
        <time>2017-06-06T15:51:58Z</time>
      </trkpt>
      <trkpt lat="50.320935901254416" lon="6.414543930441141">
        <ele>594.11000000000001</ele>
        <time>2017-06-06T15:51:36Z</time>
      </trkpt>
      <trkpt lat="50.320974960923195" lon="6.414869567379355">
        <ele>594.75999999999999</ele>
        <time>2017-06-06T15:51:20Z</time>
      </trkpt>
      <trkpt lat="50.321002956479788" lon="6.415163101628423">
        <ele>595.61000000000001</ele>
        <time>2017-06-06T15:51:05Z</time>
      </trkpt>
      <trkpt lat="50.321051487699151" lon="6.415481362491846">
        <ele>594.42999999999995</ele>
        <time>2017-06-06T15:50:49Z</time>
      </trkpt>
      <trkpt lat="50.32109540887177" lon="6.415851004421711">
        <ele>594.35000000000002</ele>
        <time>2017-06-06T15:50:30Z</time>
      </trkpt>
      <trkpt lat="50.321149304509163" lon="6.416310835629702">
        <ele>593.53999999999996</ele>
        <time>2017-06-06T15:50:07Z</time>
      </trkpt>
      <trkpt lat="50.321207726374269" lon="6.416778964921832">
        <ele>593.90999999999997</ele>
        <time>2017-06-06T15:49:43Z</time>
      </trkpt>
      <trkpt lat="50.321212336421013" lon="6.416799668222666">
        <ele>594.10000000000002</ele>
        <time>2017-06-06T15:49:42Z</time>
      </trkpt>
      <trkpt lat="50.321243433281779" lon="6.417020112276077">
        <ele>591.05999999999995</ele>
        <time>2017-06-06T15:49:31Z</time>
      </trkpt>
      <trkpt lat="50.321247791871428" lon="6.417058920487762">
        <ele>591.91999999999996</ele>
        <time>2017-06-06T15:49:29Z</time>
      </trkpt>
      <trkpt lat="50.321282157674432" lon="6.417356478050351">
        <ele>590.49000000000001</ele>
        <time>2017-06-06T15:49:13Z</time>
      </trkpt>
      <trkpt lat="50.321333119645715" lon="6.41776442527771">
        <ele>590.74000000000001</ele>
        <time>2017-06-06T15:48:52Z</time>
      </trkpt>
      <trkpt lat="50.32135684043169" lon="6.417995681986213">
        <ele>589.09000000000003</ele>
        <time>2017-06-06T15:48:40Z</time>
      </trkpt>
      <trkpt lat="50.32137000001967" lon="6.418115124106407">
        <ele>587.34000000000003</ele>
        <time>2017-06-06T15:48:34Z</time>
      </trkpt>
      <trkpt lat="50.321367066353559" lon="6.418478144332767">
        <ele>587.48000000000002</ele>
        <time>2017-06-06T15:48:15Z</time>
      </trkpt>
      <trkpt lat="50.321302022784948" lon="6.418729685246944">
        <ele>586.63</ele>
        <time>2017-06-06T15:48:02Z</time>
      </trkpt>
      <trkpt lat="50.321225915104151" lon="6.418984076008201">
        <ele>584.92999999999995</ele>
        <time>2017-06-06T15:47:48Z</time>
      </trkpt>
      <trkpt lat="50.321130277588964" lon="6.419293200597167">
        <ele>582.63999999999999</ele>
        <time>2017-06-06T15:47:30Z</time>
      </trkpt>
      <trkpt lat="50.321027347818017" lon="6.419638870283961">
        <ele>581.08000000000004</ele>
        <time>2017-06-06T15:47:11Z</time>
      </trkpt>
      <trkpt lat="50.320938248187304" lon="6.41994321718812">
        <ele>578.49000000000001</ele>
        <time>2017-06-06T15:46:54Z</time>
      </trkpt>
      <trkpt lat="50.32086281105876" lon="6.42020707949996">
        <ele>576.70000000000005</ele>
        <time>2017-06-06T15:46:39Z</time>
      </trkpt>
      <trkpt lat="50.320764156058431" lon="6.420568339526653">
        <ele>576.78999999999996</ele>
        <time>2017-06-06T15:46:19Z</time>
      </trkpt>
      <trkpt lat="50.320724509656429" lon="6.420715944841504">
        <ele>573.88</ele>
        <time>2017-06-06T15:46:11Z</time>
      </trkpt>
      <trkpt lat="50.32062484882772" lon="6.421152809634805">
        <ele>572.88</ele>
        <time>2017-06-06T15:45:48Z</time>
      </trkpt>
      <trkpt lat="50.320563325658441" lon="6.421421365812421">
        <ele>571.41999999999996</ele>
        <time>2017-06-06T15:45:34Z</time>
      </trkpt>
      <trkpt lat="50.320487637072802" lon="6.421838197857142">
        <ele>568.15999999999997</ele>
        <time>2017-06-06T15:45:13Z</time>
      </trkpt>
      <trkpt lat="50.320494761690497" lon="6.422308422625065">
        <ele>565.72000000000003</ele>
        <time>2017-06-06T15:44:50Z</time>
      </trkpt>
      <trkpt lat="50.320705566555262" lon="6.422766577452421">
        <ele>565.34000000000003</ele>
        <time>2017-06-06T15:44:24Z</time>
      </trkpt>
      <trkpt lat="50.320748146623373" lon="6.422831872478128">
        <ele>562.42999999999995</ele>
        <time>2017-06-06T15:44:20Z</time>
      </trkpt>
      <trkpt lat="50.320767676457763" lon="6.42286716029048">
        <ele>563.42999999999995</ele>
        <time>2017-06-06T15:44:18Z</time>
      </trkpt>
      <trkpt lat="50.320979654788971" lon="6.423214841634035">
        <ele>562.75</ele>
        <time>2017-06-06T15:43:55Z</time>
      </trkpt>
      <trkpt lat="50.321189621463418" lon="6.423572162166238">
        <ele>561.79999999999995</ele>
        <time>2017-06-06T15:43:31Z</time>
      </trkpt>
      <trkpt lat="50.321198925375938" lon="6.423585657030344">
        <ele>561.76999999999998</ele>
        <time>2017-06-06T15:43:30Z</time>
      </trkpt>
      <trkpt lat="50.321287857368588" lon="6.423726640641689">
        <ele>558.21000000000004</ele>
        <time>2017-06-06T15:43:20Z</time>
      </trkpt>
      <trkpt lat="50.321562364697456" lon="6.424135928973556">
        <ele>556.47000000000003</ele>
        <time>2017-06-06T15:42:50Z</time>
      </trkpt>
      <trkpt lat="50.321679459884763" lon="6.424307757988572">
        <ele>554.77999999999997</ele>
        <time>2017-06-06T15:42:37Z</time>
      </trkpt>
      <trkpt lat="50.321845673024654" lon="6.424555359408259">
        <ele>551.75999999999999</ele>
        <time>2017-06-06T15:42:19Z</time>
      </trkpt>
      <trkpt lat="50.322113391011953" lon="6.424964396283031">
        <ele>549.82000000000005</ele>
        <time>2017-06-06T15:41:50Z</time>
      </trkpt>
      <trkpt lat="50.322282453998923" lon="6.425145696848631">
        <ele>547.53999999999996</ele>
        <time>2017-06-06T15:41:35Z</time>
      </trkpt>
      <trkpt lat="50.322295445948839" lon="6.42515349201858">
        <ele>547.26999999999998</ele>
        <time>2017-06-06T15:41:34Z</time>
      </trkpt>
      <trkpt lat="50.322307348251343" lon="6.425159946084023">
        <ele>547.53999999999996</ele>
        <time>2017-06-06T15:41:33Z</time>
      </trkpt>
      <trkpt lat="50.322318244725466" lon="6.425166483968496">
        <ele>548.08000000000004</ele>
        <time>2017-06-06T15:41:32Z</time>
      </trkpt>
      <trkpt lat="50.322331488132477" lon="6.425171680748463">
        <ele>548.16999999999996</ele>
        <time>2017-06-06T15:41:31Z</time>
      </trkpt>
      <trkpt lat="50.322344563901424" lon="6.425177967175841">
        <ele>548.12</ele>
        <time>2017-06-06T15:41:30Z</time>
      </trkpt>
      <trkpt lat="50.322356298565865" lon="6.425186432898045">
        <ele>548.22000000000003</ele>
        <time>2017-06-06T15:41:29Z</time>
      </trkpt>
      <trkpt lat="50.322438692674041" lon="6.425205543637276">
        <ele>548.20000000000005</ele>
        <time>2017-06-06T15:41:22Z</time>
      </trkpt>
      <trkpt lat="50.322601636871696" lon="6.4252301864326">
        <ele>547.46000000000004</ele>
        <time>2017-06-06T15:41:11Z</time>
      </trkpt>
      <trkpt lat="50.322783440351486" lon="6.425297912210226">
        <ele>547.71000000000004</ele>
        <time>2017-06-06T15:40:55Z</time>
      </trkpt>
      <trkpt lat="50.322794755920768" lon="6.425303863361478">
        <ele>547.95000000000005</ele>
        <time>2017-06-06T15:40:54Z</time>
      </trkpt>
      <trkpt lat="50.322805987671018" lon="6.425312245264649">
        <ele>547.88999999999999</ele>
        <time>2017-06-06T15:40:53Z</time>
      </trkpt>
      <trkpt lat="50.322846723720431" lon="6.425381395965815">
        <ele>546.79999999999995</ele>
        <time>2017-06-06T15:40:48Z</time>
      </trkpt>
      <trkpt lat="50.322854854166508" lon="6.425419114530087">
        <ele>547.29999999999995</ele>
        <time>2017-06-06T15:40:41Z</time>
      </trkpt>
      <trkpt lat="50.322858123108745" lon="6.42544174566865">
        <ele>546.05999999999995</ele>
        <time>2017-06-06T15:40:37Z</time>
      </trkpt>
      <trkpt lat="50.322954598814249" lon="6.425743661820889">
        <ele>546.44000000000005</ele>
        <time>2017-06-06T15:40:19Z</time>
      </trkpt>
      <trkpt lat="50.322950910776854" lon="6.425877856090665">
        <ele>545.88999999999999</ele>
        <time>2017-06-06T15:40:02Z</time>
      </trkpt>
      <trkpt lat="50.322954850271344" lon="6.425962094217539">
        <ele>546.33000000000004</ele>
        <time>2017-06-06T15:40:01Z</time>
      </trkpt>
      <trkpt lat="50.322960130870342" lon="6.426081787794828">
        <ele>544.25999999999999</ele>
        <time>2017-06-06T15:39:59Z</time>
      </trkpt>
      <trkpt lat="50.323067083954811" lon="6.426139874383807">
        <ele>544.79999999999995</ele>
        <time>2017-06-06T15:39:54Z</time>
      </trkpt>
      <trkpt lat="50.323118967935443" lon="6.426149597391486">
        <ele>544.78999999999996</ele>
        <time>2017-06-06T15:39:50Z</time>
      </trkpt>
      <trkpt lat="50.323318876326084" lon="6.426005093380809">
        <ele>545.90999999999997</ele>
        <time>2017-06-06T15:39:33Z</time>
      </trkpt>
      <trkpt lat="50.323475282639265" lon="6.425775177776814">
        <ele>546.97000000000003</ele>
        <time>2017-06-06T15:39:19Z</time>
      </trkpt>
      <trkpt lat="50.323636131361127" lon="6.425566133111715">
        <ele>548.13</ele>
        <time>2017-06-06T15:39:03Z</time>
      </trkpt>
      <trkpt lat="50.323651637881994" lon="6.425561523064971">
        <ele>548.38</ele>
        <time>2017-06-06T15:39:02Z</time>
      </trkpt>
      <trkpt lat="50.323700839653611" lon="6.425595972687006">
        <ele>549.04999999999995</ele>
        <time>2017-06-06T15:38:58Z</time>
      </trkpt>
      <trkpt lat="50.323863364756107" lon="6.425748439505696">
        <ele>551.27999999999997</ele>
        <time>2017-06-06T15:38:46Z</time>
      </trkpt>
      <trkpt lat="50.323965540155768" lon="6.425828570500016">
        <ele>552.63999999999999</ele>
        <time>2017-06-06T15:38:31Z</time>
      </trkpt>
      <trkpt lat="50.324057657271624" lon="6.425892943516374">
        <ele>553.76999999999998</ele>
        <time>2017-06-06T15:38:21Z</time>
      </trkpt>
      <trkpt lat="50.324189504608512" lon="6.425970895215869">
        <ele>555.64999999999998</ele>
        <time>2017-06-06T15:38:14Z</time>
      </trkpt>
      <trkpt lat="50.324233174324036" lon="6.425998387858272">
        <ele>556.88</ele>
        <time>2017-06-06T15:38:11Z</time>
      </trkpt>
      <trkpt lat="50.32424951903522" lon="6.42601054161787">
        <ele>557.15999999999997</ele>
        <time>2017-06-06T15:38:10Z</time>
      </trkpt>
      <trkpt lat="50.324267204850912" lon="6.426026131957769">
        <ele>557.26999999999998</ele>
        <time>2017-06-06T15:38:09Z</time>
      </trkpt>
      <trkpt lat="50.32428371720016" lon="6.426040716469288">
        <ele>557.32000000000005</ele>
        <time>2017-06-06T15:38:08Z</time>
      </trkpt>
      <trkpt lat="50.324297547340393" lon="6.426049768924713">
        <ele>557.5</ele>
        <time>2017-06-06T15:38:07Z</time>
      </trkpt>
      <trkpt lat="50.324318083003163" lon="6.426070304587483">
        <ele>558.02999999999997</ele>
        <time>2017-06-06T15:38:05Z</time>
      </trkpt>
      <trkpt lat="50.324414810165763" lon="6.426146999001503">
        <ele>561.05999999999995</ele>
        <time>2017-06-06T15:37:53Z</time>
      </trkpt>
      <trkpt lat="50.324540371075273" lon="6.426243055611849">
        <ele>562.80999999999995</ele>
        <time>2017-06-06T15:37:41Z</time>
      </trkpt>
      <trkpt lat="50.324552860110998" lon="6.426252946257591">
        <ele>562.34000000000003</ele>
        <time>2017-06-06T15:37:40Z</time>
      </trkpt>
      <trkpt lat="50.324564846232533" lon="6.426261747255921">
        <ele>562.36000000000001</ele>
        <time>2017-06-06T15:37:39Z</time>
      </trkpt>
      <trkpt lat="50.324586136266589" lon="6.426275493577123">
        <ele>564.16999999999996</ele>
        <time>2017-06-06T15:37:35Z</time>
      </trkpt>
      <trkpt lat="50.324594266712666" lon="6.426292676478624">
        <ele>564.70000000000005</ele>
        <time>2017-06-06T15:37:34Z</time>
      </trkpt>
      <trkpt lat="50.324606839567423" lon="6.426306674256921">
        <ele>565.07000000000005</ele>
        <time>2017-06-06T15:37:33Z</time>
      </trkpt>
      <trkpt lat="50.324618322774768" lon="6.426315391436219">
        <ele>564.95000000000005</ele>
        <time>2017-06-06T15:37:32Z</time>
      </trkpt>
      <trkpt lat="50.324629470705986" lon="6.426321174949408">
        <ele>565.55999999999995</ele>
        <time>2017-06-06T15:37:31Z</time>
      </trkpt>
      <trkpt lat="50.32466190867126" lon="6.42635059542954">
        <ele>566.02999999999997</ele>
        <time>2017-06-06T15:37:27Z</time>
      </trkpt>
      <trkpt lat="50.324771711602807" lon="6.426466852426529">
        <ele>568.08000000000004</ele>
        <time>2017-06-06T15:37:13Z</time>
      </trkpt>
      <trkpt lat="50.324778836220503" lon="6.426478000357747">
        <ele>568.49000000000001</ele>
        <time>2017-06-06T15:37:12Z</time>
      </trkpt>
      <trkpt lat="50.324788391590118" lon="6.426486633718014">
        <ele>568.84000000000003</ele>
        <time>2017-06-06T15:37:11Z</time>
      </trkpt>
      <trkpt lat="50.324863577261567" lon="6.426698109135032">
        <ele>571.69000000000005</ele>
        <time>2017-06-06T15:36:59Z</time>
      </trkpt>
      <trkpt lat="50.324965249747038" lon="6.426945040002465">
        <ele>573.57000000000005</ele>
        <time>2017-06-06T15:36:43Z</time>
      </trkpt>
      <trkpt lat="50.325031047686934" lon="6.427096836268902">
        <ele>577.13</ele>
        <time>2017-06-06T15:36:34Z</time>
      </trkpt>
      <trkpt lat="50.325154177844524" lon="6.427334882318974">
        <ele>579.61000000000001</ele>
        <time>2017-06-06T15:36:16Z</time>
      </trkpt>
      <trkpt lat="50.325260041281581" lon="6.427573096007109">
        <ele>580.86000000000001</ele>
        <time>2017-06-06T15:36:01Z</time>
      </trkpt>
      <trkpt lat="50.325266411527991" lon="6.427590614184737">
        <ele>581.53999999999996</ele>
        <time>2017-06-06T15:36:00Z</time>
      </trkpt>
      <trkpt lat="50.325304800644517" lon="6.427656328305602">
        <ele>582.80999999999995</ele>
        <time>2017-06-06T15:35:55Z</time>
      </trkpt>
      <trkpt lat="50.325317457318306" lon="6.427686167880893">
        <ele>582.65999999999997</ele>
        <time>2017-06-06T15:35:53Z</time>
      </trkpt>
      <trkpt lat="50.325437989085913" lon="6.427915580570698">
        <ele>582.61000000000001</ele>
        <time>2017-06-06T15:35:35Z</time>
      </trkpt>
      <trkpt lat="50.325478976592422" lon="6.428009374067187">
        <ele>584.91999999999996</ele>
        <time>2017-06-06T15:35:29Z</time>
      </trkpt>
      <trkpt lat="50.3256078902632" lon="6.42830709926784">
        <ele>584.84000000000003</ele>
        <time>2017-06-06T15:35:11Z</time>
      </trkpt>
      <trkpt lat="50.325621385127306" lon="6.428337944671512">
        <ele>583.25999999999999</ele>
        <time>2017-06-06T15:35:09Z</time>
      </trkpt>
      <trkpt lat="50.32562842592597" lon="6.428354540839791">
        <ele>583.51999999999998</ele>
        <time>2017-06-06T15:35:08Z</time>
      </trkpt>
      <trkpt lat="50.325755244120955" lon="6.428641537204385">
        <ele>587.24000000000001</ele>
        <time>2017-06-06T15:34:51Z</time>
      </trkpt>
      <trkpt lat="50.325769912451506" lon="6.428672131150961">
        <ele>586.11000000000001</ele>
        <time>2017-06-06T15:34:49Z</time>
      </trkpt>
      <trkpt lat="50.325776785612106" lon="6.428687302395701">
        <ele>585.72000000000003</ele>
        <time>2017-06-06T15:34:48Z</time>
      </trkpt>
      <trkpt lat="50.325782066211104" lon="6.428702725097537">
        <ele>587.08000000000004</ele>
        <time>2017-06-06T15:34:47Z</time>
      </trkpt>
      <trkpt lat="50.325789023190737" lon="6.428718063980341">
        <ele>587.40999999999997</ele>
        <time>2017-06-06T15:34:46Z</time>
      </trkpt>
      <trkpt lat="50.325796399265528" lon="6.42873365432024">
        <ele>587</ele>
        <time>2017-06-06T15:34:45Z</time>
      </trkpt>
      <trkpt lat="50.325803020969033" lon="6.428749999031425">
        <ele>586.48000000000002</ele>
        <time>2017-06-06T15:34:44Z</time>
      </trkpt>
      <trkpt lat="50.325896143913269" lon="6.42893104813993">
        <ele>585.77999999999997</ele>
        <time>2017-06-06T15:34:32Z</time>
      </trkpt>
      <trkpt lat="50.326049281284213" lon="6.429252326488495">
        <ele>586.15999999999997</ele>
        <time>2017-06-06T15:34:12Z</time>
      </trkpt>
      <trkpt lat="50.326167130842805" lon="6.429596990346909">
        <ele>583.99000000000001</ele>
        <time>2017-06-06T15:33:52Z</time>
      </trkpt>
      <trkpt lat="50.326297469437122" lon="6.429953807964921">
        <ele>583.13</ele>
        <time>2017-06-06T15:33:31Z</time>
      </trkpt>
      <trkpt lat="50.32632471062243" lon="6.430335268378258">
        <ele>581.96000000000004</ele>
        <time>2017-06-06T15:33:11Z</time>
      </trkpt>
      <trkpt lat="50.326328733935952" lon="6.430456805974245">
        <ele>580.70000000000005</ele>
        <time>2017-06-06T15:33:05Z</time>
      </trkpt>
      <trkpt lat="50.326348515227437" lon="6.430817730724812">
        <ele>578.61000000000001</ele>
        <time>2017-06-06T15:32:46Z</time>
      </trkpt>
      <trkpt lat="50.326350526884198" lon="6.431142278015614">
        <ele>576.98000000000002</ele>
        <time>2017-06-06T15:32:28Z</time>
      </trkpt>
      <trkpt lat="50.326348096132278" lon="6.43146900460124">
        <ele>574.04999999999995</ele>
        <time>2017-06-06T15:32:10Z</time>
      </trkpt>
      <trkpt lat="50.326351029798388" lon="6.431825822219253">
        <ele>572.33000000000004</ele>
        <time>2017-06-06T15:31:51Z</time>
      </trkpt>
      <trkpt lat="50.326358070597053" lon="6.431999746710062">
        <ele>568.94000000000005</ele>
        <time>2017-06-06T15:31:42Z</time>
      </trkpt>
      <trkpt lat="50.326364105567336" lon="6.432356480509043">
        <ele>568.58000000000004</ele>
        <time>2017-06-06T15:31:22Z</time>
      </trkpt>
      <trkpt lat="50.326373325660825" lon="6.432535015046597">
        <ele>567.26999999999998</ele>
        <time>2017-06-06T15:31:12Z</time>
      </trkpt>
      <trkpt lat="50.326377768069506" lon="6.432619672268629">
        <ele>565.73000000000002</ele>
        <time>2017-06-06T15:31:07Z</time>
      </trkpt>
      <trkpt lat="50.326386736705899" lon="6.43294857814908">
        <ele>562.99000000000001</ele>
        <time>2017-06-06T15:30:49Z</time>
      </trkpt>
      <trkpt lat="50.326387155801058" lon="6.433314699679613">
        <ele>559.88999999999999</ele>
        <time>2017-06-06T15:30:30Z</time>
      </trkpt>
      <trkpt lat="50.326393861323595" lon="6.433691047132015">
        <ele>558.59000000000003</ele>
        <time>2017-06-06T15:30:10Z</time>
      </trkpt>
      <trkpt lat="50.326394448056817" lon="6.433708732947707">
        <ele>558.54999999999995</ele>
        <time>2017-06-06T15:30:09Z</time>
      </trkpt>
      <trkpt lat="50.326405093073845" lon="6.434025736525655">
        <ele>555.12</ele>
        <time>2017-06-06T15:29:51Z</time>
      </trkpt>
      <trkpt lat="50.326410792768002" lon="6.434373082593083">
        <ele>552.20000000000005</ele>
        <time>2017-06-06T15:29:30Z</time>
      </trkpt>
      <trkpt lat="50.326402243226767" lon="6.434414573013783">
        <ele>551.01999999999998</ele>
        <time>2017-06-06T15:29:19Z</time>
      </trkpt>
      <trkpt lat="50.326397800818086" lon="6.434427481144667">
        <ele>550.59000000000003</ele>
        <time>2017-06-06T15:29:03Z</time>
      </trkpt>
      <trkpt lat="50.326402159407735" lon="6.434455811977387">
        <ele>551.17999999999995</ele>
        <time>2017-06-06T15:28:40Z</time>
      </trkpt>
      <trkpt lat="50.326418420299888" lon="6.434500906616449">
        <ele>550.47000000000003</ele>
        <time>2017-06-06T15:28:26Z</time>
      </trkpt>
      <trkpt lat="50.326423868536949" lon="6.434514569118619">
        <ele>550.62</ele>
        <time>2017-06-06T15:28:25Z</time>
      </trkpt>
      <trkpt lat="50.326658729463816" lon="6.434521358460188">
        <ele>548.10000000000002</ele>
        <time>2017-06-06T15:28:04Z</time>
      </trkpt>
      <trkpt lat="50.326737770810723" lon="6.434517418965697">
        <ele>547.60000000000002</ele>
        <time>2017-06-06T15:27:57Z</time>
      </trkpt>
      <trkpt lat="50.3267493378371" lon="6.43451314419508">
        <ele>547.61000000000001</ele>
        <time>2017-06-06T15:27:56Z</time>
      </trkpt>
      <trkpt lat="50.32676056958735" lon="6.434507695958018">
        <ele>547.74000000000001</ele>
        <time>2017-06-06T15:27:55Z</time>
      </trkpt>
      <trkpt lat="50.326771549880505" lon="6.434503002092242">
        <ele>548.02999999999997</ele>
        <time>2017-06-06T15:27:54Z</time>
      </trkpt>
      <trkpt lat="50.326782111078501" lon="6.434498056769371">
        <ele>548.02999999999997</ele>
        <time>2017-06-06T15:27:53Z</time>
      </trkpt>
      <trkpt lat="50.326858134940267" lon="6.434484645724297">
        <ele>545.58000000000004</ele>
        <time>2017-06-06T15:27:46Z</time>
      </trkpt>
      <trkpt lat="50.326869366690516" lon="6.434483304619789">
        <ele>545.5</ele>
        <time>2017-06-06T15:27:45Z</time>
      </trkpt>
      <trkpt lat="50.32688076607883" lon="6.434480790048838">
        <ele>545.41999999999996</ele>
        <time>2017-06-06T15:27:44Z</time>
      </trkpt>
      <trkpt lat="50.326902642846107" lon="6.43447257578373">
        <ele>545.63999999999999</ele>
        <time>2017-06-06T15:27:42Z</time>
      </trkpt>
      <trkpt lat="50.326955448836088" lon="6.434452040120959">
        <ele>545.35000000000002</ele>
        <time>2017-06-06T15:27:33Z</time>
      </trkpt>
      <trkpt lat="50.326966932043433" lon="6.434448603540659">
        <ele>545.19000000000005</ele>
        <time>2017-06-06T15:27:32Z</time>
      </trkpt>
      <trkpt lat="50.326978666707873" lon="6.434445669874549">
        <ele>545.21000000000004</ele>
        <time>2017-06-06T15:27:31Z</time>
      </trkpt>
      <trkpt lat="50.326990149915218" lon="6.434444664046168">
        <ele>545.28999999999996</ele>
        <time>2017-06-06T15:27:30Z</time>
      </trkpt>
      <trkpt lat="50.327001297846437" lon="6.434444915503264">
        <ele>545.33000000000004</ele>
        <time>2017-06-06T15:27:29Z</time>
      </trkpt>
      <trkpt lat="50.327014457434416" lon="6.434443993493915">
        <ele>545.05999999999995</ele>
        <time>2017-06-06T15:27:28Z</time>
      </trkpt>
      <trkpt lat="50.327048823237419" lon="6.43443351611495">
        <ele>545.24000000000001</ele>
        <time>2017-06-06T15:27:25Z</time>
      </trkpt>
      <trkpt lat="50.327210007235408" lon="6.434664269909263">
        <ele>545.59000000000003</ele>
        <time>2017-06-06T15:27:07Z</time>
      </trkpt>
      <trkpt lat="50.327213359996676" lon="6.43499443307519">
        <ele>544.87</ele>
        <time>2017-06-06T15:26:51Z</time>
      </trkpt>
      <trkpt lat="50.327195171266794" lon="6.435288889333606">
        <ele>544.46000000000004</ele>
        <time>2017-06-06T15:26:36Z</time>
      </trkpt>
      <trkpt lat="50.327164074406028" lon="6.435638079419732">
        <ele>546.46000000000004</ele>
        <time>2017-06-06T15:26:17Z</time>
      </trkpt>
      <trkpt lat="50.327163236215711" lon="6.435655932873488">
        <ele>546.37</ele>
        <time>2017-06-06T15:26:16Z</time>
      </trkpt>
      <trkpt lat="50.327163822948933" lon="6.43572592176497">
        <ele>545.75</ele>
        <time>2017-06-06T15:26:09Z</time>
      </trkpt>
      <trkpt lat="50.327178658917546" lon="6.435880651697516">
        <ele>545.75999999999999</ele>
        <time>2017-06-06T15:25:52Z</time>
      </trkpt>
      <trkpt lat="50.327180419117212" lon="6.43589892424643">
        <ele>546.05999999999995</ele>
        <time>2017-06-06T15:25:51Z</time>
      </trkpt>
      <trkpt lat="50.327182179316878" lon="6.435916526243091">
        <ele>546.62</ele>
        <time>2017-06-06T15:25:50Z</time>
      </trkpt>
      <trkpt lat="50.327198691666126" lon="6.436044601723552">
        <ele>545.50999999999999</ele>
        <time>2017-06-06T15:25:41Z</time>
      </trkpt>
      <trkpt lat="50.327201290056109" lon="6.436063125729561">
        <ele>545.48000000000002</ele>
        <time>2017-06-06T15:25:40Z</time>
      </trkpt>
      <trkpt lat="50.327206822112203" lon="6.436099419370294">
        <ele>545.53999999999996</ele>
        <time>2017-06-06T15:25:38Z</time>
      </trkpt>
      <trkpt lat="50.327212354168296" lon="6.436134455725551">
        <ele>545.98000000000002</ele>
        <time>2017-06-06T15:25:35Z</time>
      </trkpt>
      <trkpt lat="50.327217299491167" lon="6.436165971681476">
        <ele>546.05999999999995</ele>
        <time>2017-06-06T15:25:22Z</time>
      </trkpt>
      <trkpt lat="50.327271781861782" lon="6.436528991907835">
        <ele>545.22000000000003</ele>
        <time>2017-06-06T15:25:04Z</time>
      </trkpt>
      <trkpt lat="50.327295754104853" lon="6.436676848679781">
        <ele>541.95000000000005</ele>
        <time>2017-06-06T15:24:57Z</time>
      </trkpt>
      <trkpt lat="50.327349314466119" lon="6.436998546123505">
        <ele>545.88</ele>
        <time>2017-06-06T15:24:41Z</time>
      </trkpt>
      <trkpt lat="50.327379237860441" lon="6.437189150601625">
        <ele>542.46000000000004</ele>
        <time>2017-06-06T15:24:32Z</time>
      </trkpt>
      <trkpt lat="50.327449310570955" lon="6.437411606311798">
        <ele>545.51999999999998</ele>
        <time>2017-06-06T15:24:21Z</time>
      </trkpt>
      <trkpt lat="50.327567076310515" lon="6.437682844698429">
        <ele>545.58000000000004</ele>
        <time>2017-06-06T15:24:05Z</time>
      </trkpt>
      <trkpt lat="50.327642932534218" lon="6.437791977077723">
        <ele>542.69000000000005</ele>
        <time>2017-06-06T15:23:58Z</time>
      </trkpt>
      <trkpt lat="50.327768996357918" lon="6.438039997592568">
        <ele>545.97000000000003</ele>
        <time>2017-06-06T15:23:43Z</time>
      </trkpt>
      <trkpt lat="50.327865555882454" lon="6.438274271786213">
        <ele>544.50999999999999</ele>
        <time>2017-06-06T15:23:31Z</time>
      </trkpt>
      <trkpt lat="50.328058926388621" lon="6.438366556540132">
        <ele>543.74000000000001</ele>
        <time>2017-06-06T15:23:29Z</time>
      </trkpt>
      <trkpt lat="50.328555554151535" lon="6.438709292560816">
        <ele>544.21000000000004</ele>
        <time>2017-06-06T15:23:13Z</time>
      </trkpt>
      <trkpt lat="50.328880017623305" lon="6.438895119354129">
        <ele>544.75999999999999</ele>
        <time>2017-06-06T15:22:56Z</time>
      </trkpt>
      <trkpt lat="50.329068778082728" lon="6.439020177349448">
        <ele>543.20000000000005</ele>
        <time>2017-06-06T15:22:39Z</time>
      </trkpt>
      <trkpt lat="50.32925552688539" lon="6.439166022464633">
        <ele>541.88999999999999</ele>
        <time>2017-06-06T15:22:21Z</time>
      </trkpt>
      <trkpt lat="50.329265417531133" lon="6.439170800149441">
        <ele>542.11000000000001</ele>
        <time>2017-06-06T15:22:20Z</time>
      </trkpt>
      <trkpt lat="50.329365832731128" lon="6.439247662201524">
        <ele>541.13</ele>
        <time>2017-06-06T15:22:11Z</time>
      </trkpt>
      <trkpt lat="50.329379243776202" lon="6.439254954457283">
        <ele>540.75999999999999</ele>
        <time>2017-06-06T15:22:10Z</time>
      </trkpt>
      <trkpt lat="50.329390810802579" lon="6.439263336360455">
        <ele>539.09000000000003</ele>
        <time>2017-06-06T15:22:09Z</time>
      </trkpt>
      <trkpt lat="50.329401288181543" lon="6.439272472634912">
        <ele>539.11000000000001</ele>
        <time>2017-06-06T15:22:08Z</time>
      </trkpt>
      <trkpt lat="50.32941285520792" lon="6.439281776547432">
        <ele>538.75999999999999</ele>
        <time>2017-06-06T15:22:07Z</time>
      </trkpt>
      <trkpt lat="50.329422913491726" lon="6.439294014126062">
        <ele>538.61000000000001</ele>
        <time>2017-06-06T15:22:06Z</time>
      </trkpt>
      <trkpt lat="50.329431379213929" lon="6.439308430999517">
        <ele>538.37</ele>
        <time>2017-06-06T15:22:05Z</time>
      </trkpt>
      <trkpt lat="50.329451160505414" lon="6.439403146505356">
        <ele>538.25</ele>
        <time>2017-06-06T15:21:59Z</time>
      </trkpt>
      <trkpt lat="50.329249994829297" lon="6.440582647919655">
        <ele>529.57000000000005</ele>
        <time>2017-06-06T15:20:49Z</time>
      </trkpt>
      <trkpt lat="50.329160140827298" lon="6.44119025208056">
        <ele>524.22000000000003</ele>
        <time>2017-06-06T15:20:14Z</time>
      </trkpt>
      <trkpt lat="50.329147819429636" lon="6.441295947879553">
        <ele>523.84000000000003</ele>
        <time>2017-06-06T15:20:13Z</time>
      </trkpt>
      <trkpt lat="50.329099204391241" lon="6.441902713850141">
        <ele>522.63</ele>
        <time>2017-06-06T15:19:44Z</time>
      </trkpt>
      <trkpt lat="50.32913432456553" lon="6.442236732691526">
        <ele>521.32000000000005</ele>
        <time>2017-06-06T15:19:26Z</time>
      </trkpt>
      <trkpt lat="50.329140862450004" lon="6.442321809008718">
        <ele>521.58000000000004</ele>
        <time>2017-06-06T15:19:25Z</time>
      </trkpt>
      <trkpt lat="50.329235242679715" lon="6.442659683525562">
        <ele>520.69000000000005</ele>
        <time>2017-06-06T15:19:07Z</time>
      </trkpt>
      <trkpt lat="50.329108005389571" lon="6.442910134792328">
        <ele>520.14999999999998</ele>
        <time>2017-06-06T15:18:51Z</time>
      </trkpt>
      <trkpt lat="50.328934583812952" lon="6.443152958527207">
        <ele>520.11000000000001</ele>
        <time>2017-06-06T15:18:32Z</time>
      </trkpt>
      <trkpt lat="50.328892841935158" lon="6.443219343200326">
        <ele>522.14999999999998</ele>
        <time>2017-06-06T15:18:29Z</time>
      </trkpt>
      <trkpt lat="50.328720342367887" lon="6.443232502788305">
        <ele>519.13</ele>
        <time>2017-06-06T15:18:15Z</time>
      </trkpt>
      <trkpt lat="50.328709026798606" lon="6.443231580778956">
        <ele>519.19000000000005</ele>
        <time>2017-06-06T15:18:14Z</time>
      </trkpt>
      <trkpt lat="50.328698549419641" lon="6.443227976560593">
        <ele>519.05999999999995</ele>
        <time>2017-06-06T15:18:13Z</time>
      </trkpt>
      <trkpt lat="50.328627303242683" lon="6.44322395324707">
        <ele>519.17999999999995</ele>
        <time>2017-06-06T15:18:07Z</time>
      </trkpt>
      <trkpt lat="50.328346090391278" lon="6.443194532766938">
        <ele>520.57000000000005</ele>
        <time>2017-06-06T15:17:46Z</time>
      </trkpt>
      <trkpt lat="50.328107876703143" lon="6.443178774788976">
        <ele>522.34000000000003</ele>
        <time>2017-06-06T15:17:28Z</time>
      </trkpt>
      <trkpt lat="50.327917188405991" lon="6.443109791725874">
        <ele>523.65999999999997</ele>
        <time>2017-06-06T15:17:14Z</time>
      </trkpt>
      <trkpt lat="50.327764134854078" lon="6.442936453968287">
        <ele>525.13999999999999</ele>
        <time>2017-06-06T15:16:57Z</time>
      </trkpt>
      <trkpt lat="50.327565735206008" lon="6.442716596648097">
        <ele>527.05999999999995</ele>
        <time>2017-06-06T15:16:38Z</time>
      </trkpt>
      <trkpt lat="50.327411675825715" lon="6.442558346316218">
        <ele>528.08000000000004</ele>
        <time>2017-06-06T15:16:22Z</time>
      </trkpt>
      <trkpt lat="50.327401701360941" lon="6.442551389336586">
        <ele>528.33000000000004</ele>
        <time>2017-06-06T15:16:21Z</time>
      </trkpt>
      <trkpt lat="50.327391643077135" lon="6.442548288032413">
        <ele>528.46000000000004</ele>
        <time>2017-06-06T15:16:20Z</time>
      </trkpt>
      <trkpt lat="50.327355433255434" lon="6.442519119009376">
        <ele>528.58000000000004</ele>
        <time>2017-06-06T15:16:19Z</time>
      </trkpt>
      <trkpt lat="50.327289048582315" lon="6.442477544769645">
        <ele>528.84000000000003</ele>
        <time>2017-06-06T15:16:18Z</time>
      </trkpt>
      <trkpt lat="50.32733766362071" lon="6.442601345479488">
        <ele>529.09000000000003</ele>
        <time>2017-06-06T15:16:17Z</time>
      </trkpt>
      <trkpt lat="50.32734059728682" lon="6.442812150344253">
        <ele>531.44000000000005</ele>
        <time>2017-06-06T15:15:46Z</time>
      </trkpt>
      <trkpt lat="50.327249066904187" lon="6.443174332380295">
        <ele>529.94000000000005</ele>
        <time>2017-06-06T15:15:41Z</time>
      </trkpt>
      <trkpt lat="50.327174467965961" lon="6.443439535796642">
        <ele>529.11000000000001</ele>
        <time>2017-06-06T15:15:26Z</time>
      </trkpt>
      <trkpt lat="50.327169271185994" lon="6.443458814173937">
        <ele>528.91999999999996</ele>
        <time>2017-06-06T15:15:25Z</time>
      </trkpt>
      <trkpt lat="50.327164409682155" lon="6.4434780087322">
        <ele>528.67999999999995</ele>
        <time>2017-06-06T15:15:24Z</time>
      </trkpt>
      <trkpt lat="50.327157871797681" lon="6.443496281281114">
        <ele>528.58000000000004</ele>
        <time>2017-06-06T15:15:23Z</time>
      </trkpt>
      <trkpt lat="50.32715292647481" lon="6.443513799458742">
        <ele>528.25</ele>
        <time>2017-06-06T15:15:22Z</time>
      </trkpt>
      <trkpt lat="50.327133229002357" lon="6.443560989573598">
        <ele>528.01999999999998</ele>
        <time>2017-06-06T15:15:19Z</time>
      </trkpt>
      <trkpt lat="50.327125685289502" lon="6.443575406447053">
        <ele>528.30999999999995</ele>
        <time>2017-06-06T15:15:18Z</time>
      </trkpt>
      <trkpt lat="50.327118560671806" lon="6.443590661510825">
        <ele>528.60000000000002</ele>
        <time>2017-06-06T15:15:17Z</time>
      </trkpt>
      <trkpt lat="50.327113280072808" lon="6.443608347326517">
        <ele>528.72000000000003</ele>
        <time>2017-06-06T15:15:16Z</time>
      </trkpt>
      <trkpt lat="50.327108167111874" lon="6.443626033142209">
        <ele>528.99000000000001</ele>
        <time>2017-06-06T15:15:15Z</time>
      </trkpt>
      <trkpt lat="50.327102383598685" lon="6.443644221872091">
        <ele>528.91999999999996</ele>
        <time>2017-06-06T15:15:14Z</time>
      </trkpt>
      <trkpt lat="50.327097605913877" lon="6.443662662059069">
        <ele>528.54999999999995</ele>
        <time>2017-06-06T15:15:13Z</time>
      </trkpt>
      <trkpt lat="50.327089224010706" lon="6.443696776404977">
        <ele>528.52999999999997</ele>
        <time>2017-06-06T15:15:11Z</time>
      </trkpt>
      <trkpt lat="50.327075058594346" lon="6.443781685084105">
        <ele>527.80999999999995</ele>
        <time>2017-06-06T15:15:06Z</time>
      </trkpt>
      <trkpt lat="50.327073885127902" lon="6.443799873813987">
        <ele>527.33000000000004</ele>
        <time>2017-06-06T15:15:05Z</time>
      </trkpt>
      <trkpt lat="50.327072376385331" lon="6.443819487467408">
        <ele>527.67999999999995</ele>
        <time>2017-06-06T15:15:04Z</time>
      </trkpt>
      <trkpt lat="50.327123757451773" lon="6.44428183324635">
        <ele>527.90999999999997</ele>
        <time>2017-06-06T15:14:39Z</time>
      </trkpt>
      <trkpt lat="50.327180251479149" lon="6.444537900388241">
        <ele>525.94000000000005</ele>
        <time>2017-06-06T15:14:25Z</time>
      </trkpt>
      <trkpt lat="50.32719592563808" lon="6.444579139351845">
        <ele>525.15999999999997</ele>
        <time>2017-06-06T15:14:18Z</time>
      </trkpt>
      <trkpt lat="50.32719156704843" lon="6.444573104381561">
        <ele>526.16999999999996</ele>
        <time>2017-06-06T15:13:50Z</time>
      </trkpt>
      <trkpt lat="50.327186957001686" lon="6.44458718597889">
        <ele>525.86000000000001</ele>
        <time>2017-06-06T15:13:29Z</time>
      </trkpt>
      <trkpt lat="50.327194165438414" lon="6.444606129080057">
        <ele>526.40999999999997</ele>
        <time>2017-06-06T15:13:12Z</time>
      </trkpt>
      <trkpt lat="50.32718569971621" lon="6.444592466577888">
        <ele>526.34000000000003</ele>
        <time>2017-06-06T15:12:54Z</time>
      </trkpt>
      <trkpt lat="50.327181927859783" lon="6.444630017504096">
        <ele>524.94000000000005</ele>
        <time>2017-06-06T15:12:42Z</time>
      </trkpt>
      <trkpt lat="50.32717882655561" lon="6.444646781310439">
        <ele>525.24000000000001</ele>
        <time>2017-06-06T15:12:41Z</time>
      </trkpt>
      <trkpt lat="50.32723163254559" lon="6.444901172071695">
        <ele>524.79999999999995</ele>
        <time>2017-06-06T15:12:28Z</time>
      </trkpt>
      <trkpt lat="50.327275721356273" lon="6.4451789483428">
        <ele>527.91999999999996</ele>
        <time>2017-06-06T15:12:14Z</time>
      </trkpt>
      <trkpt lat="50.327279325574636" lon="6.445199567824602">
        <ele>528.29999999999995</ele>
        <time>2017-06-06T15:12:13Z</time>
      </trkpt>
      <trkpt lat="50.327283851802349" lon="6.445217588916421">
        <ele>528.32000000000005</ele>
        <time>2017-06-06T15:12:12Z</time>
      </trkpt>
      <trkpt lat="50.327287623658776" lon="6.445234771817923">
        <ele>528.19000000000005</ele>
        <time>2017-06-06T15:12:11Z</time>
      </trkpt>
      <trkpt lat="50.327287707477808" lon="6.445256229490042">
        <ele>528.62</ele>
        <time>2017-06-06T15:12:10Z</time>
      </trkpt>
      <trkpt lat="50.327324504032731" lon="6.445509027689695">
        <ele>530.50999999999999</ele>
        <time>2017-06-06T15:11:58Z</time>
      </trkpt>
      <trkpt lat="50.327393068000674" lon="6.445696111768484">
        <ele>530.73000000000002</ele>
        <time>2017-06-06T15:11:46Z</time>
      </trkpt>
      <trkpt lat="50.327406311407685" lon="6.445771716535091">
        <ele>531.77999999999997</ele>
        <time>2017-06-06T15:11:42Z</time>
      </trkpt>
      <trkpt lat="50.327406143769622" lon="6.445890488103032">
        <ele>532.61000000000001</ele>
        <time>2017-06-06T15:11:36Z</time>
      </trkpt>
      <trkpt lat="50.327419303357601" lon="6.446001967415214">
        <ele>535.86000000000001</ele>
        <time>2017-06-06T15:11:30Z</time>
      </trkpt>
      <trkpt lat="50.327415866777301" lon="6.446022251620889">
        <ele>534.80999999999995</ele>
        <time>2017-06-06T15:11:29Z</time>
      </trkpt>
      <trkpt lat="50.327413436025381" lon="6.446043374016881">
        <ele>533</ele>
        <time>2017-06-06T15:11:28Z</time>
      </trkpt>
      <trkpt lat="50.327411340549588" lon="6.446285527199507">
        <ele>537.10000000000002</ele>
        <time>2017-06-06T15:11:15Z</time>
      </trkpt>
      <trkpt lat="50.327409580349922" lon="6.446306314319372">
        <ele>537.52999999999997</ele>
        <time>2017-06-06T15:11:14Z</time>
      </trkpt>
      <trkpt lat="50.327408574521542" lon="6.446370184421539">
        <ele>538.08000000000004</ele>
        <time>2017-06-06T15:11:11Z</time>
      </trkpt>
      <trkpt lat="50.327405389398336" lon="6.44641469232738">
        <ele>537.23000000000002</ele>
        <time>2017-06-06T15:11:09Z</time>
      </trkpt>
      <trkpt lat="50.32740505412221" lon="6.446523405611515">
        <ele>536.82000000000005</ele>
        <time>2017-06-06T15:11:02Z</time>
      </trkpt>
      <trkpt lat="50.327406981959939" lon="6.446542181074619">
        <ele>536.97000000000003</ele>
        <time>2017-06-06T15:11:01Z</time>
      </trkpt>
      <trkpt lat="50.327407401055098" lon="6.446564728394151">
        <ele>537.59000000000003</ele>
        <time>2017-06-06T15:11:00Z</time>
      </trkpt>
      <trkpt lat="50.327408406883478" lon="6.446585431694984">
        <ele>537.71000000000004</ele>
        <time>2017-06-06T15:10:59Z</time>
      </trkpt>
      <trkpt lat="50.327412514016032" lon="6.446711663156748">
        <ele>538.66999999999996</ele>
        <time>2017-06-06T15:10:52Z</time>
      </trkpt>
      <trkpt lat="50.327414022758603" lon="6.446852898225188">
        <ele>538.48000000000002</ele>
        <time>2017-06-06T15:10:44Z</time>
      </trkpt>
      <trkpt lat="50.32740262337029" lon="6.446975860744715">
        <ele>539.88</ele>
        <time>2017-06-06T15:10:38Z</time>
      </trkpt>
      <trkpt lat="50.327405305579305" lon="6.447288757190108">
        <ele>540.47000000000003</ele>
        <time>2017-06-06T15:10:22Z</time>
      </trkpt>
      <trkpt lat="50.32739088870585" lon="6.447643646970391">
        <ele>543.60000000000002</ele>
        <time>2017-06-06T15:10:06Z</time>
      </trkpt>
      <trkpt lat="50.327387703582644" lon="6.447666194289923">
        <ele>543.21000000000004</ele>
        <time>2017-06-06T15:10:05Z</time>
      </trkpt>
      <trkpt lat="50.327384769916534" lon="6.44768656231463">
        <ele>543.25999999999999</ele>
        <time>2017-06-06T15:10:04Z</time>
      </trkpt>
      <trkpt lat="50.327383680269122" lon="6.447707265615463">
        <ele>543.37</ele>
        <time>2017-06-06T15:10:03Z</time>
      </trkpt>
      <trkpt lat="50.327382339164615" lon="6.447726963087916">
        <ele>543.37</ele>
        <time>2017-06-06T15:10:02Z</time>
      </trkpt>
      <trkpt lat="50.327371442690492" lon="6.447871215641499">
        <ele>544.24000000000001</ele>
        <time>2017-06-06T15:09:55Z</time>
      </trkpt>
      <trkpt lat="50.327354008331895" lon="6.448141196742654">
        <ele>544.72000000000003</ele>
        <time>2017-06-06T15:09:42Z</time>
      </trkpt>
      <trkpt lat="50.327352751046419" lon="6.448336075991392">
        <ele>548.13999999999999</ele>
        <time>2017-06-06T15:09:31Z</time>
      </trkpt>
      <trkpt lat="50.327353086322546" lon="6.44847865216434">
        <ele>548.5</ele>
        <time>2017-06-06T15:09:24Z</time>
      </trkpt>
      <trkpt lat="50.327348727732897" lon="6.448659282177687">
        <ele>549.72000000000003</ele>
        <time>2017-06-06T15:09:15Z</time>
      </trkpt>
      <trkpt lat="50.327334897592664" lon="6.448890203610063">
        <ele>552.30999999999995</ele>
        <time>2017-06-06T15:09:03Z</time>
      </trkpt>
      <trkpt lat="50.327330203726888" lon="6.449025236070156">
        <ele>552.76999999999998</ele>
        <time>2017-06-06T15:08:56Z</time>
      </trkpt>
      <trkpt lat="50.32732198946178" lon="6.449262611567974">
        <ele>556.11000000000001</ele>
        <time>2017-06-06T15:08:43Z</time>
      </trkpt>
      <trkpt lat="50.327315116301179" lon="6.449595876038075">
        <ele>559.20000000000005</ele>
        <time>2017-06-06T15:08:26Z</time>
      </trkpt>
      <trkpt lat="50.327317463234067" lon="6.449633007869124">
        <ele>560.67999999999995</ele>
        <time>2017-06-06T15:08:24Z</time>
      </trkpt>
      <trkpt lat="50.3273347299546" lon="6.450005248188973">
        <ele>562.13999999999999</ele>
        <time>2017-06-06T15:08:07Z</time>
      </trkpt>
      <trkpt lat="50.327341854572296" lon="6.450361562892795">
        <ele>565.00999999999999</ele>
        <time>2017-06-06T15:07:49Z</time>
      </trkpt>
      <trkpt lat="50.327342273667455" lon="6.450601620599628">
        <ele>568.14999999999998</ele>
        <time>2017-06-06T15:07:36Z</time>
      </trkpt>
      <trkpt lat="50.327360210940242" lon="6.450881324708462">
        <ele>571.29999999999995</ele>
        <time>2017-06-06T15:07:21Z</time>
      </trkpt>
      <trkpt lat="50.327362474054098" lon="6.450943937525153">
        <ele>572.75999999999999</ele>
        <time>2017-06-06T15:07:17Z</time>
      </trkpt>
      <trkpt lat="50.327362390235066" lon="6.450965479016304">
        <ele>573.14999999999998</ele>
        <time>2017-06-06T15:07:16Z</time>
      </trkpt>
      <trkpt lat="50.327363898977637" lon="6.450985092669725">
        <ele>573.44000000000005</ele>
        <time>2017-06-06T15:07:15Z</time>
      </trkpt>
      <trkpt lat="50.327364066615701" lon="6.451002694666386">
        <ele>573.46000000000004</ele>
        <time>2017-06-06T15:07:14Z</time>
      </trkpt>
      <trkpt lat="50.32736255787313" lon="6.451023062691093">
        <ele>573.45000000000005</ele>
        <time>2017-06-06T15:07:13Z</time>
      </trkpt>
      <trkpt lat="50.327360881492496" lon="6.451041167601943">
        <ele>573.64999999999998</ele>
        <time>2017-06-06T15:07:12Z</time>
      </trkpt>
      <trkpt lat="50.327354427427053" lon="6.451060362160206">
        <ele>573.48000000000002</ele>
        <time>2017-06-06T15:07:11Z</time>
      </trkpt>
      <trkpt lat="50.327357947826385" lon="6.451171506196261">
        <ele>575.27999999999997</ele>
        <time>2017-06-06T15:07:06Z</time>
      </trkpt>
      <trkpt lat="50.32738502137363" lon="6.451462525874376">
        <ele>578.32000000000005</ele>
        <time>2017-06-06T15:06:53Z</time>
      </trkpt>
      <trkpt lat="50.327407401055098" lon="6.451660506427288">
        <ele>580.63999999999999</ele>
        <time>2017-06-06T15:06:41Z</time>
      </trkpt>
      <trkpt lat="50.327416369691491" lon="6.45200265571475">
        <ele>582.69000000000005</ele>
        <time>2017-06-06T15:05:59Z</time>
      </trkpt>
      <trkpt lat="50.327419219538569" lon="6.452200217172504">
        <ele>583.92999999999995</ele>
        <time>2017-06-06T15:05:47Z</time>
      </trkpt>
      <trkpt lat="50.327412681654096" lon="6.452236175537109">
        <ele>584.79999999999995</ele>
        <time>2017-06-06T15:05:45Z</time>
      </trkpt>
      <trkpt lat="50.327259795740247" lon="6.452399035915732">
        <ele>585.51999999999998</ele>
        <time>2017-06-06T15:05:29Z</time>
      </trkpt>
      <trkpt lat="50.327246803790331" lon="6.452403897419572">
        <ele>584.99000000000001</ele>
        <time>2017-06-06T15:05:28Z</time>
      </trkpt>
      <trkpt lat="50.327234314754605" lon="6.452407501637936">
        <ele>584.70000000000005</ele>
        <time>2017-06-06T15:05:27Z</time>
      </trkpt>
      <trkpt lat="50.327221909537911" lon="6.452408339828253">
        <ele>584.64999999999998</ele>
        <time>2017-06-06T15:05:26Z</time>
      </trkpt>
      <trkpt lat="50.327210174873471" lon="6.452406914904714">
        <ele>585.08000000000004</ele>
        <time>2017-06-06T15:05:25Z</time>
      </trkpt>
      <trkpt lat="50.327031388878822" lon="6.452406831085682">
        <ele>586.38</ele>
        <time>2017-06-06T15:05:10Z</time>
      </trkpt>
      <trkpt lat="50.326960813254118" lon="6.452403897419572">
        <ele>587.10000000000002</ele>
        <time>2017-06-06T15:05:04Z</time>
      </trkpt>
      <trkpt lat="50.326762497425079" lon="6.452406076714397">
        <ele>589.73000000000002</ele>
        <time>2017-06-06T15:04:48Z</time>
      </trkpt>
      <trkpt lat="50.326549261808395" lon="6.452461397275329">
        <ele>590.87</ele>
        <time>2017-06-06T15:04:31Z</time>
      </trkpt>
      <trkpt lat="50.326335523277521" lon="6.452596848830581">
        <ele>592.28999999999996</ele>
        <time>2017-06-06T15:04:13Z</time>
      </trkpt>
      <trkpt lat="50.325938556343317" lon="6.452849311754108">
        <ele>593.23000000000002</ele>
        <time>2017-06-06T15:03:39Z</time>
      </trkpt>
      <trkpt lat="50.32585121691227" lon="6.452897172421217">
        <ele>593.60000000000002</ele>
        <time>2017-06-06T15:03:33Z</time>
      </trkpt>
      <trkpt lat="50.325748454779387" lon="6.452999599277973">
        <ele>592.98000000000002</ele>
        <time>2017-06-06T15:03:24Z</time>
      </trkpt>
      <trkpt lat="50.325634544715285" lon="6.453199423849583">
        <ele>595.83000000000004</ele>
        <time>2017-06-06T15:03:10Z</time>
      </trkpt>
      <trkpt lat="50.325472857803106" lon="6.453240578994155">
        <ele>596.23000000000002</ele>
        <time>2017-06-06T15:02:59Z</time>
      </trkpt>
      <trkpt lat="50.325460620224476" lon="6.4532486256212">
        <ele>596.72000000000003</ele>
        <time>2017-06-06T15:02:58Z</time>
      </trkpt>
      <trkpt lat="50.325446454808116" lon="6.453265389427543">
        <ele>596.34000000000003</ele>
        <time>2017-06-06T15:02:57Z</time>
      </trkpt>
      <trkpt lat="50.325431115925312" lon="6.453276118263602">
        <ele>596.14999999999998</ele>
        <time>2017-06-06T15:02:56Z</time>
      </trkpt>
      <trkpt lat="50.325420722365379" lon="6.453287014737725">
        <ele>595.95000000000005</ele>
        <time>2017-06-06T15:02:55Z</time>
      </trkpt>
      <trkpt lat="50.325405048206449" lon="6.453305622562766">
        <ele>595.75999999999999</ele>
        <time>2017-06-06T15:02:54Z</time>
      </trkpt>
      <trkpt lat="50.32537680119276" lon="6.453330768272281">
        <ele>595.46000000000004</ele>
        <time>2017-06-06T15:02:51Z</time>
      </trkpt>
      <trkpt lat="50.325368922203779" lon="6.453344682231545">
        <ele>595.69000000000005</ele>
        <time>2017-06-06T15:02:50Z</time>
      </trkpt>
      <trkpt lat="50.32528686337173" lon="6.453439062461257">
        <ele>596.85000000000002</ele>
        <time>2017-06-06T15:02:38Z</time>
      </trkpt>
      <trkpt lat="50.325182927772403" lon="6.453743577003479">
        <ele>597.53999999999996</ele>
        <time>2017-06-06T15:02:21Z</time>
      </trkpt>
      <trkpt lat="50.325131714344025" lon="6.454027304425836">
        <ele>597.38999999999999</ele>
        <time>2017-06-06T15:02:20Z</time>
      </trkpt>
      <trkpt lat="50.32511880621314" lon="6.454373393207789">
        <ele>597.67999999999995</ele>
        <time>2017-06-06T15:02:19Z</time>
      </trkpt>
      <trkpt lat="50.325116794556379" lon="6.454547820612788">
        <ele>597.69000000000005</ele>
        <time>2017-06-06T15:02:10Z</time>
      </trkpt>
      <trkpt lat="50.325176976621151" lon="6.455144360661507">
        <ele>595.14999999999998</ele>
        <time>2017-06-06T15:01:19Z</time>
      </trkpt>
      <trkpt lat="50.325113022699952" lon="6.455371677875519">
        <ele>593.99000000000001</ele>
        <time>2017-06-06T15:01:06Z</time>
      </trkpt>
      <trkpt lat="50.325106400996447" lon="6.455393889918923">
        <ele>593.82000000000005</ele>
        <time>2017-06-06T15:01:05Z</time>
      </trkpt>
      <trkpt lat="50.325064575299621" lon="6.455540740862489">
        <ele>593.41999999999996</ele>
        <time>2017-06-06T15:00:58Z</time>
      </trkpt>
      <trkpt lat="50.325023252516985" lon="6.45571424625814">
        <ele>592.33000000000004</ele>
        <time>2017-06-06T15:00:46Z</time>
      </trkpt>
      <trkpt lat="50.325019564479589" lon="6.45573427900672">
        <ele>592.22000000000003</ele>
        <time>2017-06-06T15:00:45Z</time>
      </trkpt>
      <trkpt lat="50.325017804279923" lon="6.45575137808919">
        <ele>592.16999999999996</ele>
        <time>2017-06-06T15:00:44Z</time>
      </trkpt>
      <trkpt lat="50.325012523680925" lon="6.455773003399372">
        <ele>592.13</ele>
        <time>2017-06-06T15:00:43Z</time>
      </trkpt>
      <trkpt lat="50.325007494539022" lon="6.456057233735919">
        <ele>590.88</ele>
        <time>2017-06-06T15:00:30Z</time>
      </trkpt>
      <trkpt lat="50.325082261115313" lon="6.456318078562617">
        <ele>589.75999999999999</ele>
        <time>2017-06-06T15:00:19Z</time>
      </trkpt>
      <trkpt lat="50.325197512283921" lon="6.456924928352237">
        <ele>588.57000000000005</ele>
        <time>2017-06-06T14:59:50Z</time>
      </trkpt>
      <trkpt lat="50.325327096506953" lon="6.457260623574257">
        <ele>586.90999999999997</ele>
        <time>2017-06-06T14:59:29Z</time>
      </trkpt>
      <trkpt lat="50.325454333797097" lon="6.457461537793279">
        <ele>584.17999999999995</ele>
        <time>2017-06-06T14:59:13Z</time>
      </trkpt>
      <trkpt lat="50.325544606894255" lon="6.457680724561214">
        <ele>582.90999999999997</ele>
        <time>2017-06-06T14:58:58Z</time>
      </trkpt>
      <trkpt lat="50.325552066788077" lon="6.457702266052365">
        <ele>582.94000000000005</ele>
        <time>2017-06-06T14:58:57Z</time>
      </trkpt>
      <trkpt lat="50.325556509196758" lon="6.457721292972565">
        <ele>583.07000000000005</ele>
        <time>2017-06-06T14:58:56Z</time>
      </trkpt>
      <trkpt lat="50.325563466176391" lon="6.457741996273398">
        <ele>583.09000000000003</ele>
        <time>2017-06-06T14:58:55Z</time>
      </trkpt>
      <trkpt lat="50.325581654906273" lon="6.457791533321142">
        <ele>582.5</ele>
        <time>2017-06-06T14:58:52Z</time>
      </trkpt>
      <trkpt lat="50.325586013495922" lon="6.457806536927819">
        <ele>582.27999999999997</ele>
        <time>2017-06-06T14:58:51Z</time>
      </trkpt>
      <trkpt lat="50.32569489441812" lon="6.458056820556521">
        <ele>581.96000000000004</ele>
        <time>2017-06-06T14:58:39Z</time>
      </trkpt>
      <trkpt lat="50.325715932995081" lon="6.458142232149839">
        <ele>581.94000000000005</ele>
        <time>2017-06-06T14:58:36Z</time>
      </trkpt>
      <trkpt lat="50.325731607154012" lon="6.458320263773203">
        <ele>580.02999999999997</ele>
        <time>2017-06-06T14:58:30Z</time>
      </trkpt>
      <trkpt lat="50.325695564970374" lon="6.458493936806917">
        <ele>579.41999999999996</ele>
        <time>2017-06-06T14:58:22Z</time>
      </trkpt>
      <trkpt lat="50.325654409825802" lon="6.458631986752152">
        <ele>579.59000000000003</ele>
        <time>2017-06-06T14:58:17Z</time>
      </trkpt>
      <trkpt lat="50.325456261634827" lon="6.458955444395542">
        <ele>578.72000000000003</ele>
        <time>2017-06-06T14:58:07Z</time>
      </trkpt>
      <trkpt lat="50.32537923194468" lon="6.459046974778175">
        <ele>578.01999999999998</ele>
        <time>2017-06-06T14:58:05Z</time>
      </trkpt>
      <trkpt lat="50.325175551697612" lon="6.459301449358463">
        <ele>574.70000000000005</ele>
        <time>2017-06-06T14:58:00Z</time>
      </trkpt>
      <trkpt lat="50.325029455125332" lon="6.459451988339424">
        <ele>574.10000000000002</ele>
        <time>2017-06-06T14:57:57Z</time>
      </trkpt>
      <trkpt lat="50.324734579771757" lon="6.459647370502353">
        <ele>572</ele>
        <time>2017-06-06T14:57:49Z</time>
      </trkpt>
      <trkpt lat="50.32464137300849" lon="6.459775445982814">
        <ele>570.75999999999999</ele>
        <time>2017-06-06T14:57:46Z</time>
      </trkpt>
      <trkpt lat="50.324371727183461" lon="6.460162354633212">
        <ele>567.60000000000002</ele>
        <time>2017-06-06T14:57:36Z</time>
      </trkpt>
      <trkpt lat="50.32435555011034" lon="6.460201917216182">
        <ele>567.58000000000004</ele>
        <time>2017-06-06T14:57:35Z</time>
      </trkpt>
      <trkpt lat="50.324338115751743" lon="6.460244162008166">
        <ele>567.66999999999996</ele>
        <time>2017-06-06T14:57:34Z</time>
      </trkpt>
      <trkpt lat="50.32433451153338" lon="6.460328148677945">
        <ele>567.65999999999997</ele>
        <time>2017-06-06T14:57:33Z</time>
      </trkpt>
      <trkpt lat="50.324318585917354" lon="6.460368297994137">
        <ele>567.52999999999997</ele>
        <time>2017-06-06T14:57:32Z</time>
      </trkpt>
      <trkpt lat="50.324307102710009" lon="6.46041096188128">
        <ele>567.71000000000004</ele>
        <time>2017-06-06T14:57:31Z</time>
      </trkpt>
      <trkpt lat="50.324297798797488" lon="6.460455553606153">
        <ele>567.88</ele>
        <time>2017-06-06T14:57:30Z</time>
      </trkpt>
      <trkpt lat="50.324286818504333" lon="6.460491009056568">
        <ele>567.95000000000005</ele>
        <time>2017-06-06T14:57:29Z</time>
      </trkpt>
      <trkpt lat="50.324274748563766" lon="6.46051162853837">
        <ele>568.22000000000003</ele>
        <time>2017-06-06T14:57:28Z</time>
      </trkpt>
      <trkpt lat="50.324241975322366" lon="6.46053115837276">
        <ele>568.35000000000002</ele>
        <time>2017-06-06T14:57:26Z</time>
      </trkpt>
      <trkpt lat="50.324103087186813" lon="6.460658730939031">
        <ele>569.57000000000005</ele>
        <time>2017-06-06T14:57:16Z</time>
      </trkpt>
      <trkpt lat="50.324086574837565" lon="6.46066258661449">
        <ele>569.54999999999995</ele>
        <time>2017-06-06T14:57:15Z</time>
      </trkpt>
      <trkpt lat="50.324031924828887" lon="6.460684211924672">
        <ele>569.75999999999999</ele>
        <time>2017-06-06T14:57:11Z</time>
      </trkpt>
      <trkpt lat="50.323855988681316" lon="6.460750261321664">
        <ele>571.61000000000001</ele>
        <time>2017-06-06T14:56:59Z</time>
      </trkpt>
      <trkpt lat="50.323758674785495" lon="6.460865344852209">
        <ele>572.88</ele>
        <time>2017-06-06T14:56:47Z</time>
      </trkpt>
      <trkpt lat="50.323748784139752" lon="6.460875319316983">
        <ele>573.04999999999995</ele>
        <time>2017-06-06T14:56:46Z</time>
      </trkpt>
      <trkpt lat="50.323739647865295" lon="6.460887640714645">
        <ele>573.12</ele>
        <time>2017-06-06T14:56:45Z</time>
      </trkpt>
      <trkpt lat="50.323384841904044" lon="6.461113281548023">
        <ele>578.28999999999996</ele>
        <time>2017-06-06T14:56:07Z</time>
      </trkpt>
      <trkpt lat="50.323157859966159" lon="6.461257534101605">
        <ele>578.67999999999995</ele>
        <time>2017-06-06T14:56:01Z</time>
      </trkpt>
      <trkpt lat="50.322785368189216" lon="6.46147521212697">
        <ele>581.16999999999996</ele>
        <time>2017-06-06T14:55:44Z</time>
      </trkpt>
      <trkpt lat="50.322461994364858" lon="6.461977204307914">
        <ele>586.40999999999997</ele>
        <time>2017-06-06T14:55:04Z</time>
      </trkpt>
      <trkpt lat="50.322472220286727" lon="6.462242743000388">
        <ele>586.60000000000002</ele>
        <time>2017-06-06T14:55:02Z</time>
      </trkpt>
      <trkpt lat="50.322430897504091" lon="6.462755296379328">
        <ele>588.32000000000005</ele>
        <time>2017-06-06T14:54:52Z</time>
      </trkpt>
      <trkpt lat="50.322442715987563" lon="6.463203560560942">
        <ele>588.49000000000001</ele>
        <time>2017-06-06T14:54:51Z</time>
      </trkpt>
      <trkpt lat="50.322386054322124" lon="6.463573118671775">
        <ele>588.95000000000005</ele>
        <time>2017-06-06T14:54:46Z</time>
      </trkpt>
      <trkpt lat="50.322274239733815" lon="6.463984670117497">
        <ele>593.76999999999998</ele>
        <time>2017-06-06T14:53:26Z</time>
      </trkpt>
      <trkpt lat="50.322108529508114" lon="6.464584395289421">
        <ele>594.82000000000005</ele>
        <time>2017-06-06T14:53:03Z</time>
      </trkpt>
      <trkpt lat="50.321993445977569" lon="6.465024193748832">
        <ele>595.42999999999995</ele>
        <time>2017-06-06T14:52:58Z</time>
      </trkpt>
      <trkpt lat="50.322028649970889" lon="6.465231394395232">
        <ele>596.37</ele>
        <time>2017-06-06T14:52:44Z</time>
      </trkpt>
      <trkpt lat="50.322044240310788" lon="6.465804632753134">
        <ele>598.16999999999996</ele>
        <time>2017-06-06T14:51:43Z</time>
      </trkpt>
      <trkpt lat="50.321767218410969" lon="6.46611082367599">
        <ele>598.11000000000001</ele>
        <time>2017-06-06T14:51:28Z</time>
      </trkpt>
      <trkpt lat="50.321757914498448" lon="6.466117948293686">
        <ele>598.08000000000004</ele>
        <time>2017-06-06T14:51:27Z</time>
      </trkpt>
      <trkpt lat="50.321746431291103" lon="6.466129180043936">
        <ele>597.88999999999999</ele>
        <time>2017-06-06T14:51:26Z</time>
      </trkpt>
      <trkpt lat="50.321731260046363" lon="6.4661362208426">
        <ele>598.02999999999997</ele>
        <time>2017-06-06T14:51:25Z</time>
      </trkpt>
      <trkpt lat="50.321717681363225" lon="6.466140914708376">
        <ele>598.13999999999999</ele>
        <time>2017-06-06T14:51:24Z</time>
      </trkpt>
      <trkpt lat="50.321698570623994" lon="6.466146446764469">
        <ele>598.03999999999996</ele>
        <time>2017-06-06T14:51:23Z</time>
      </trkpt>
      <trkpt lat="50.321683567017317" lon="6.466152733191848">
        <ele>597.59000000000003</ele>
        <time>2017-06-06T14:51:22Z</time>
      </trkpt>
      <trkpt lat="50.321664791554213" lon="6.466200761497021">
        <ele>599.21000000000004</ele>
        <time>2017-06-06T14:50:56Z</time>
      </trkpt>
      <trkpt lat="50.321186939254403" lon="6.466498402878642">
        <ele>600.22000000000003</ele>
        <time>2017-06-06T14:50:23Z</time>
      </trkpt>
      <trkpt lat="50.320860212668777" lon="6.466911965981126">
        <ele>600.98000000000002</ele>
        <time>2017-06-06T14:50:15Z</time>
      </trkpt>
      <trkpt lat="50.320567851886153" lon="6.467539770528674">
        <ele>602.16999999999996</ele>
        <time>2017-06-06T14:50:02Z</time>
      </trkpt>
      <trkpt lat="50.32033659517765" lon="6.467974372208118">
        <ele>605.25</ele>
        <time>2017-06-06T14:49:50Z</time>
      </trkpt>
      <trkpt lat="50.320114558562636" lon="6.468274360522628">
        <ele>606.99000000000001</ele>
        <time>2017-06-06T14:49:40Z</time>
      </trkpt>
      <trkpt lat="50.319940466433764" lon="6.468491954728961">
        <ele>608.19000000000005</ele>
        <time>2017-06-06T14:49:30Z</time>
      </trkpt>
      <trkpt lat="50.319743324071169" lon="6.468674009665847">
        <ele>609.38</ele>
        <time>2017-06-06T14:49:13Z</time>
      </trkpt>
      <trkpt lat="50.319566801190376" lon="6.468819016590715">
        <ele>610.54999999999995</ele>
        <time>2017-06-06T14:48:59Z</time>
      </trkpt>
      <trkpt lat="50.319383824244142" lon="6.469090087339282">
        <ele>612.35000000000002</ele>
        <time>2017-06-06T14:48:41Z</time>
      </trkpt>
      <trkpt lat="50.319190118461847" lon="6.469356883317232">
        <ele>613.65999999999997</ele>
        <time>2017-06-06T14:48:22Z</time>
      </trkpt>
      <trkpt lat="50.319077717140317" lon="6.469679921865463">
        <ele>615.90999999999997</ele>
        <time>2017-06-06T14:48:06Z</time>
      </trkpt>
      <trkpt lat="50.31899138353765" lon="6.469994494691491">
        <ele>616.91999999999996</ele>
        <time>2017-06-06T14:47:51Z</time>
      </trkpt>
      <trkpt lat="50.318985600024462" lon="6.470011509954929">
        <ele>616.80999999999995</ele>
        <time>2017-06-06T14:47:50Z</time>
      </trkpt>
      <trkpt lat="50.318979313597083" lon="6.470027016475797">
        <ele>616.75</ele>
        <time>2017-06-06T14:47:49Z</time>
      </trkpt>
      <trkpt lat="50.318975625559688" lon="6.470044702291489">
        <ele>616.53999999999996</ele>
        <time>2017-06-06T14:47:48Z</time>
      </trkpt>
      <trkpt lat="50.318971937522292" lon="6.470059789717197">
        <ele>616.96000000000004</ele>
        <time>2017-06-06T14:47:47Z</time>
      </trkpt>
      <trkpt lat="50.318966489285231" lon="6.470076469704509">
        <ele>617.71000000000004</ele>
        <time>2017-06-06T14:47:46Z</time>
      </trkpt>
      <trkpt lat="50.318961460143328" lon="6.470089042559266">
        <ele>617.82000000000005</ele>
        <time>2017-06-06T14:47:45Z</time>
      </trkpt>
      <trkpt lat="50.318956514820457" lon="6.470102118328214">
        <ele>617.42999999999995</ele>
        <time>2017-06-06T14:47:44Z</time>
      </trkpt>
      <trkpt lat="50.318950396031141" lon="6.470119217410684">
        <ele>617.61000000000001</ele>
        <time>2017-06-06T14:47:43Z</time>
      </trkpt>
      <trkpt lat="50.318943187594414" lon="6.470134304836392">
        <ele>617.83000000000004</ele>
        <time>2017-06-06T14:47:42Z</time>
      </trkpt>
      <trkpt lat="50.318938326090574" lon="6.47015081718564">
        <ele>618.17999999999995</ele>
        <time>2017-06-06T14:47:41Z</time>
      </trkpt>
      <trkpt lat="50.318935727700591" lon="6.470170011743903">
        <ele>618.39999999999998</ele>
        <time>2017-06-06T14:47:40Z</time>
      </trkpt>
      <trkpt lat="50.318931369110942" lon="6.470188703387976">
        <ele>618.85000000000002</ele>
        <time>2017-06-06T14:47:39Z</time>
      </trkpt>
      <trkpt lat="50.318926088511944" lon="6.470206640660763">
        <ele>618.77999999999997</ele>
        <time>2017-06-06T14:47:38Z</time>
      </trkpt>
      <trkpt lat="50.318920472636819" lon="6.47022994235158">
        <ele>619.10000000000002</ele>
        <time>2017-06-06T14:47:37Z</time>
      </trkpt>
      <trkpt lat="50.31891418620944" lon="6.470246287062764">
        <ele>619.21000000000004</ele>
        <time>2017-06-06T14:47:36Z</time>
      </trkpt>
      <trkpt lat="50.318910162895918" lon="6.470264894887805">
        <ele>619.42999999999995</ele>
        <time>2017-06-06T14:47:35Z</time>
      </trkpt>
      <trkpt lat="50.318889040499926" lon="6.470332453027368">
        <ele>619.66999999999996</ele>
        <time>2017-06-06T14:47:31Z</time>
      </trkpt>
      <trkpt lat="50.318868169561028" lon="6.470484081655741">
        <ele>620.73000000000002</ele>
        <time>2017-06-06T14:47:23Z</time>
      </trkpt>
      <trkpt lat="50.318794827908278" lon="6.470827488228679">
        <ele>621.57000000000005</ele>
        <time>2017-06-06T14:47:05Z</time>
      </trkpt>
      <trkpt lat="50.318727437406778" lon="6.471149437129498">
        <ele>623.37</ele>
        <time>2017-06-06T14:46:48Z</time>
      </trkpt>
      <trkpt lat="50.318639343604445" lon="6.471401061862707">
        <ele>625.74000000000001</ele>
        <time>2017-06-06T14:46:31Z</time>
      </trkpt>
      <trkpt lat="50.318580670282245" lon="6.471688309684396">
        <ele>627.12</ele>
        <time>2017-06-06T14:46:14Z</time>
      </trkpt>
      <trkpt lat="50.318575138226151" lon="6.471702894195914">
        <ele>626.96000000000004</ele>
        <time>2017-06-06T14:46:13Z</time>
      </trkpt>
      <trkpt lat="50.318561140447855" lon="6.471835244446993">
        <ele>630.00999999999999</ele>
        <time>2017-06-06T14:46:08Z</time>
      </trkpt>
      <trkpt lat="50.318538090214133" lon="6.47203934378922">
        <ele>626.64999999999998</ele>
        <time>2017-06-06T14:45:59Z</time>
      </trkpt>
      <trkpt lat="50.318536413833499" lon="6.472053173929453">
        <ele>626.86000000000001</ele>
        <time>2017-06-06T14:45:58Z</time>
      </trkpt>
      <trkpt lat="50.318484697490931" lon="6.472267163917422">
        <ele>630.19000000000005</ele>
        <time>2017-06-06T14:45:43Z</time>
      </trkpt>
      <trkpt lat="50.318425521254539" lon="6.47260763682425">
        <ele>630.80999999999995</ele>
        <time>2017-06-06T14:45:31Z</time>
      </trkpt>
      <trkpt lat="50.318316975608468" lon="6.473191017284989">
        <ele>632.11000000000001</ele>
        <time>2017-06-06T14:45:18Z</time>
      </trkpt>
      <trkpt lat="50.318284286186099" lon="6.473342394456267">
        <ele>634.23000000000002</ele>
        <time>2017-06-06T14:45:15Z</time>
      </trkpt>
      <trkpt lat="50.318071050569415" lon="6.473800716921687">
        <ele>633.50999999999999</ele>
        <time>2017-06-06T14:45:04Z</time>
      </trkpt>
      <trkpt lat="50.317716244608164" lon="6.47399777546525">
        <ele>637.61000000000001</ele>
        <time>2017-06-06T14:44:52Z</time>
      </trkpt>
      <trkpt lat="50.317309135571122" lon="6.47404563613236">
        <ele>637.35000000000002</ele>
        <time>2017-06-06T14:44:39Z</time>
      </trkpt>
      <trkpt lat="50.317031526938081" lon="6.474030632525682">
        <ele>639.04999999999995</ele>
        <time>2017-06-06T14:44:28Z</time>
      </trkpt>
      <trkpt lat="50.316827511414886" lon="6.473965421319008">
        <ele>638.71000000000004</ele>
        <time>2017-06-06T14:44:14Z</time>
      </trkpt>
      <trkpt lat="50.316818961873651" lon="6.473959302529693">
        <ele>638.84000000000003</ele>
        <time>2017-06-06T14:44:13Z</time>
      </trkpt>
      <trkpt lat="50.316808400675654" lon="6.473950669169426">
        <ele>639.03999999999996</ele>
        <time>2017-06-06T14:44:12Z</time>
      </trkpt>
      <trkpt lat="50.316796917468309" lon="6.47394890896976">
        <ele>638.97000000000003</ele>
        <time>2017-06-06T14:44:11Z</time>
      </trkpt>
      <trkpt lat="50.31678325496614" lon="6.473954189568758">
        <ele>638.77999999999997</ele>
        <time>2017-06-06T14:44:10Z</time>
      </trkpt>
      <trkpt lat="50.316772777587175" lon="6.473949244245887">
        <ele>638.80999999999995</ele>
        <time>2017-06-06T14:44:09Z</time>
      </trkpt>
      <trkpt lat="50.316623579710722" lon="6.473896270617843">
        <ele>639.86000000000001</ele>
        <time>2017-06-06T14:43:55Z</time>
      </trkpt>
      <trkpt lat="50.316610671579838" lon="6.473888559266925">
        <ele>639.87</ele>
        <time>2017-06-06T14:43:54Z</time>
      </trkpt>
      <trkpt lat="50.316552501171827" lon="6.473871124908328">
        <ele>640.07000000000005</ele>
        <time>2017-06-06T14:43:50Z</time>
      </trkpt>
      <trkpt lat="50.316539006307721" lon="6.473866263404489">
        <ele>640.29999999999995</ele>
        <time>2017-06-06T14:43:49Z</time>
      </trkpt>
      <trkpt lat="50.31652769073844" lon="6.473860396072269">
        <ele>640.45000000000005</ele>
        <time>2017-06-06T14:43:48Z</time>
      </trkpt>
      <trkpt lat="50.316516878083348" lon="6.4738536067307">
        <ele>640.64999999999998</ele>
        <time>2017-06-06T14:43:47Z</time>
      </trkpt>
      <trkpt lat="50.316502880305052" lon="6.473846482113004">
        <ele>640.67999999999995</ele>
        <time>2017-06-06T14:43:46Z</time>
      </trkpt>
      <trkpt lat="50.316487876698375" lon="6.473838603124023">
        <ele>640.71000000000004</ele>
        <time>2017-06-06T14:43:45Z</time>
      </trkpt>
      <trkpt lat="50.316476225852966" lon="6.473826030269265">
        <ele>640.96000000000004</ele>
        <time>2017-06-06T14:43:44Z</time>
      </trkpt>
      <trkpt lat="50.316462814807892" lon="6.473812786862254">
        <ele>641.05999999999995</ele>
        <time>2017-06-06T14:43:43Z</time>
      </trkpt>
      <trkpt lat="50.316448397934437" lon="6.473800297826529">
        <ele>640.84000000000003</ele>
        <time>2017-06-06T14:43:42Z</time>
      </trkpt>
      <trkpt lat="50.316434567794204" lon="6.473787724971771">
        <ele>640.76999999999998</ele>
        <time>2017-06-06T14:43:41Z</time>
      </trkpt>
      <trkpt lat="50.316422414034605" lon="6.47377448156476">
        <ele>640.78999999999996</ele>
        <time>2017-06-06T14:43:40Z</time>
      </trkpt>
      <trkpt lat="50.316406488418579" lon="6.473762160167098">
        <ele>640.85000000000002</ele>
        <time>2017-06-06T14:43:39Z</time>
      </trkpt>
      <trkpt lat="50.31639089807868" lon="6.473751347512007">
        <ele>640.92999999999995</ele>
        <time>2017-06-06T14:43:38Z</time>
      </trkpt>
      <trkpt lat="50.316378241404891" lon="6.473738690838218">
        <ele>641.13</ele>
        <time>2017-06-06T14:43:37Z</time>
      </trkpt>
      <trkpt lat="50.316367680206895" lon="6.473723603412509">
        <ele>641.25</ele>
        <time>2017-06-06T14:43:36Z</time>
      </trkpt>
      <trkpt lat="50.316360387951136" lon="6.473707258701325">
        <ele>641.22000000000003</ele>
        <time>2017-06-06T14:43:35Z</time>
      </trkpt>
      <trkpt lat="50.316290063783526" lon="6.473561581224203">
        <ele>640.64999999999998</ele>
        <time>2017-06-06T14:43:26Z</time>
      </trkpt>
      <trkpt lat="50.316117480397224" lon="6.473289923742414">
        <ele>641.28999999999996</ele>
        <time>2017-06-06T14:43:07Z</time>
      </trkpt>
      <trkpt lat="50.315924528986216" lon="6.47304592654109">
        <ele>641.51999999999998</ele>
        <time>2017-06-06T14:42:49Z</time>
      </trkpt>
      <trkpt lat="50.315913716331124" lon="6.473033018410206">
        <ele>641.37</ele>
        <time>2017-06-06T14:42:48Z</time>
      </trkpt>
      <trkpt lat="50.315904077142477" lon="6.473019355908036">
        <ele>641.27999999999997</ele>
        <time>2017-06-06T14:42:47Z</time>
      </trkpt>
      <trkpt lat="50.315895024687052" lon="6.473006531596184">
        <ele>641.21000000000004</ele>
        <time>2017-06-06T14:42:46Z</time>
      </trkpt>
      <trkpt lat="50.315885720774531" lon="6.472994377836585">
        <ele>641.34000000000003</ele>
        <time>2017-06-06T14:42:45Z</time>
      </trkpt>
      <trkpt lat="50.315877255052328" lon="6.472979374229908">
        <ele>641.16999999999996</ele>
        <time>2017-06-06T14:42:44Z</time>
      </trkpt>
      <trkpt lat="50.315868034958839" lon="6.472964538261294">
        <ele>641.20000000000005</ele>
        <time>2017-06-06T14:42:43Z</time>
      </trkpt>
      <trkpt lat="50.315856887027621" lon="6.472951294854283">
        <ele>641.28999999999996</ele>
        <time>2017-06-06T14:42:42Z</time>
      </trkpt>
      <trkpt lat="50.315846409648657" lon="6.472937716171145">
        <ele>641.34000000000003</ele>
        <time>2017-06-06T14:42:41Z</time>
      </trkpt>
      <trkpt lat="50.315676173195243" lon="6.472765132784843">
        <ele>641.72000000000003</ele>
        <time>2017-06-06T14:42:27Z</time>
      </trkpt>
      <trkpt lat="50.315662091597915" lon="6.472755325958133">
        <ele>641.74000000000001</ele>
        <time>2017-06-06T14:42:26Z</time>
      </trkpt>
      <trkpt lat="50.315649015828967" lon="6.472748117521405">
        <ele>641.73000000000002</ele>
        <time>2017-06-06T14:42:25Z</time>
      </trkpt>
      <trkpt lat="50.315583301708102" lon="6.472692545503378">
        <ele>641.78999999999996</ele>
        <time>2017-06-06T14:42:20Z</time>
      </trkpt>
      <trkpt lat="50.315374759957194" lon="6.472502024844289">
        <ele>643.82000000000005</ele>
        <time>2017-06-06T14:42:03Z</time>
      </trkpt>
      <trkpt lat="50.315193794667721" lon="6.472335644066334">
        <ele>644.62</ele>
        <time>2017-06-06T14:41:48Z</time>
      </trkpt>
      <trkpt lat="50.315022133290768" lon="6.472089886665344">
        <ele>642.94000000000005</ele>
        <time>2017-06-06T14:41:30Z</time>
      </trkpt>
      <trkpt lat="50.314707309007645" lon="6.471804734319449">
        <ele>643.40999999999997</ele>
        <time>2017-06-06T14:41:08Z</time>
      </trkpt>
      <trkpt lat="50.314425677061081" lon="6.471567107364535">
        <ele>640.41999999999996</ele>
        <time>2017-06-06T14:40:58Z</time>
      </trkpt>
      <trkpt lat="50.314276563003659" lon="6.472319047898054">
        <ele>643.49000000000001</ele>
        <time>2017-06-06T14:40:49Z</time>
      </trkpt>
      <trkpt lat="50.313785299658775" lon="6.473816726356745">
        <ele>645.59000000000003</ele>
        <time>2017-06-06T14:40:04Z</time>
      </trkpt>
      <trkpt lat="50.313760070130229" lon="6.473855283111334">
        <ele>645.27999999999997</ele>
        <time>2017-06-06T14:40:01Z</time>
      </trkpt>
      <trkpt lat="50.313751185312867" lon="6.473867353051901">
        <ele>644.96000000000004</ele>
        <time>2017-06-06T14:40:00Z</time>
      </trkpt>
      <trkpt lat="50.31374204903841" lon="6.473883362486959">
        <ele>644.86000000000001</ele>
        <time>2017-06-06T14:39:59Z</time>
      </trkpt>
      <trkpt lat="50.313689997419715" lon="6.474020825698972">
        <ele>645.41999999999996</ele>
        <time>2017-06-06T14:39:50Z</time>
      </trkpt>
      <trkpt lat="50.313682621344924" lon="6.474040858447552">
        <ele>645.36000000000001</ele>
        <time>2017-06-06T14:39:49Z</time>
      </trkpt>
      <trkpt lat="50.31365211121738" lon="6.474105818197131">
        <ele>645.05999999999995</ele>
        <time>2017-06-06T14:39:44Z</time>
      </trkpt>
      <trkpt lat="50.313644148409367" lon="6.474119396880269">
        <ele>645.51999999999998</ele>
        <time>2017-06-06T14:39:43Z</time>
      </trkpt>
      <trkpt lat="50.313592432066798" lon="6.474208077415824">
        <ele>644.51999999999998</ele>
        <time>2017-06-06T14:39:36Z</time>
      </trkpt>
      <trkpt lat="50.313584888353944" lon="6.474223081022501">
        <ele>644.96000000000004</ele>
        <time>2017-06-06T14:39:35Z</time>
      </trkpt>
      <trkpt lat="50.313566783443093" lon="6.474279742687941">
        <ele>644.89999999999998</ele>
        <time>2017-06-06T14:39:31Z</time>
      </trkpt>
      <trkpt lat="50.313560664653778" lon="6.474296841770411">
        <ele>644.72000000000003</ele>
        <time>2017-06-06T14:39:30Z</time>
      </trkpt>
      <trkpt lat="50.313525712117553" lon="6.474425252526999">
        <ele>647.27999999999997</ele>
        <time>2017-06-06T14:39:17Z</time>
      </trkpt>
      <trkpt lat="50.313522275537252" lon="6.474432796239853">
        <ele>644.57000000000005</ele>
        <time>2017-06-06T14:39:08Z</time>
      </trkpt>
      <trkpt lat="50.313498638570309" lon="6.474540671333671">
        <ele>644.14999999999998</ele>
        <time>2017-06-06T14:38:56Z</time>
      </trkpt>
      <trkpt lat="50.313498554751277" lon="6.474556094035506">
        <ele>644.13999999999999</ele>
        <time>2017-06-06T14:38:55Z</time>
      </trkpt>
      <trkpt lat="50.313496207818389" lon="6.474575288593769">
        <ele>644.29999999999995</ele>
        <time>2017-06-06T14:38:54Z</time>
      </trkpt>
      <trkpt lat="50.313465613871813" lon="6.474658856168389">
        <ele>644.13</ele>
        <time>2017-06-06T14:38:42Z</time>
      </trkpt>
      <trkpt lat="50.313402162864804" lon="6.474753068760037">
        <ele>643.69000000000005</ele>
        <time>2017-06-06T14:12:06Z</time>
      </trkpt>
      <trkpt lat="50.313300406560302" lon="6.474734796211124">
        <ele>643.45000000000005</ele>
        <time>2017-06-06T14:11:50Z</time>
      </trkpt>
      <trkpt lat="50.313072502613068" lon="6.474613007158041">
        <ele>641.75</ele>
        <time>2017-06-06T14:11:32Z</time>
      </trkpt>
      <trkpt lat="50.312847783789039" lon="6.474483422935009">
        <ele>644.07000000000005</ele>
        <time>2017-06-06T14:11:12Z</time>
      </trkpt>
      <trkpt lat="50.312824817374349" lon="6.474470095708966">
        <ele>641.34000000000003</ele>
        <time>2017-06-06T14:11:10Z</time>
      </trkpt>
      <trkpt lat="50.312706464901567" lon="6.474426090717316">
        <ele>638.27999999999997</ele>
        <time>2017-06-06T14:11:00Z</time>
      </trkpt>
      <trkpt lat="50.312520302832127" lon="6.474366579204798">
        <ele>637.62</ele>
        <time>2017-06-06T14:10:44Z</time>
      </trkpt>
      <trkpt lat="50.312387449666858" lon="6.474297679960728">
        <ele>637.14999999999998</ele>
        <time>2017-06-06T14:10:32Z</time>
      </trkpt>
      <trkpt lat="50.312266750261188" lon="6.474225092679262">
        <ele>635.22000000000003</ele>
        <time>2017-06-06T14:10:21Z</time>
      </trkpt>
      <trkpt lat="50.312122749164701" lon="6.474140603095293">
        <ele>633.73000000000002</ele>
        <time>2017-06-06T14:10:07Z</time>
      </trkpt>
      <trkpt lat="50.312006995081902" lon="6.474056700244546">
        <ele>633.05999999999995</ele>
        <time>2017-06-06T14:09:54Z</time>
      </trkpt>
      <trkpt lat="50.311833070591092" lon="6.474021999165416">
        <ele>631.57000000000005</ele>
        <time>2017-06-06T14:09:41Z</time>
      </trkpt>
      <trkpt lat="50.311740785837173" lon="6.473995512351394">
        <ele>630.48000000000002</ele>
        <time>2017-06-06T14:09:33Z</time>
      </trkpt>
      <trkpt lat="50.311711700633168" lon="6.473967432975769">
        <ele>630.09000000000003</ele>
        <time>2017-06-06T14:09:30Z</time>
      </trkpt>
      <trkpt lat="50.311704156920314" lon="6.473949244245887">
        <ele>630.05999999999995</ele>
        <time>2017-06-06T14:09:29Z</time>
      </trkpt>
      <trkpt lat="50.311680100858212" lon="6.473799543455243">
        <ele>629.19000000000005</ele>
        <time>2017-06-06T14:09:21Z</time>
      </trkpt>
      <trkpt lat="50.311670461669564" lon="6.473745815455914">
        <ele>627.83000000000004</ele>
        <time>2017-06-06T14:09:18Z</time>
      </trkpt>
      <trkpt lat="50.311659062281251" lon="6.473473990336061">
        <ele>627.15999999999997</ele>
        <time>2017-06-06T14:09:03Z</time>
      </trkpt>
      <trkpt lat="50.311622768640518" lon="6.473090099170804">
        <ele>626.12</ele>
        <time>2017-06-06T14:08:44Z</time>
      </trkpt>
      <trkpt lat="50.311594270169735" lon="6.472685756161809">
        <ele>625.64999999999998</ele>
        <time>2017-06-06T14:08:24Z</time>
      </trkpt>
      <trkpt lat="50.311562502756715" lon="6.472410410642624">
        <ele>625.25999999999999</ele>
        <time>2017-06-06T14:08:08Z</time>
      </trkpt>
      <trkpt lat="50.311559066176414" lon="6.472392054274678">
        <ele>625.47000000000003</ele>
        <time>2017-06-06T14:08:07Z</time>
      </trkpt>
      <trkpt lat="50.311558311805129" lon="6.472369423136115">
        <ele>625.37</ele>
        <time>2017-06-06T14:08:06Z</time>
      </trkpt>
      <trkpt lat="50.311558730900288" lon="6.472347797825933">
        <ele>625.28999999999996</ele>
        <time>2017-06-06T14:08:05Z</time>
      </trkpt>
      <trkpt lat="50.31156032346189" lon="6.472326340153813">
        <ele>625.34000000000003</ele>
        <time>2017-06-06T14:08:04Z</time>
      </trkpt>
      <trkpt lat="50.311512630432844" lon="6.4720852766186">
        <ele>625.26999999999998</ele>
        <time>2017-06-06T14:07:50Z</time>
      </trkpt>
      <trkpt lat="50.311475666239858" lon="6.471873801201582">
        <ele>622.75999999999999</ele>
        <time>2017-06-06T14:07:39Z</time>
      </trkpt>
      <trkpt lat="50.311465356498957" lon="6.471837423741818">
        <ele>622.14999999999998</ele>
        <time>2017-06-06T14:07:37Z</time>
      </trkpt>
      <trkpt lat="50.311360750347376" lon="6.471692584455013">
        <ele>620.88</ele>
        <time>2017-06-06T14:07:23Z</time>
      </trkpt>
      <trkpt lat="50.311300484463573" lon="6.471726866438985">
        <ele>620.65999999999997</ele>
        <time>2017-06-06T14:07:18Z</time>
      </trkpt>
      <trkpt lat="50.31128958798945" lon="6.471736170351505">
        <ele>620.67999999999995</ele>
        <time>2017-06-06T14:07:17Z</time>
      </trkpt>
      <trkpt lat="50.311252037063241" lon="6.471786880865693">
        <ele>620.85000000000002</ele>
        <time>2017-06-06T14:07:13Z</time>
      </trkpt>
      <trkpt lat="50.311150113120675" lon="6.471964241936803">
        <ele>620.24000000000001</ele>
        <time>2017-06-06T14:07:01Z</time>
      </trkpt>
      <trkpt lat="50.31094316393137" lon="6.472221650183201">
        <ele>618.90999999999997</ele>
        <time>2017-06-06T14:06:43Z</time>
      </trkpt>
      <trkpt lat="50.31081466935575" lon="6.472333129495382">
        <ele>617.77999999999997</ele>
        <time>2017-06-06T14:06:29Z</time>
      </trkpt>
      <trkpt lat="50.310670165345073" lon="6.472454918548465">
        <ele>616.10000000000002</ele>
        <time>2017-06-06T14:06:16Z</time>
      </trkpt>
      <trkpt lat="50.310536222532392" lon="6.47255633957684">
        <ele>615.50999999999999</ele>
        <time>2017-06-06T14:06:02Z</time>
      </trkpt>
      <trkpt lat="50.310388701036572" lon="6.472718445584178">
        <ele>614.41999999999996</ele>
        <time>2017-06-06T14:05:47Z</time>
      </trkpt>
      <trkpt lat="50.310241682454944" lon="6.472776280716062">
        <ele>613.37</ele>
        <time>2017-06-06T14:05:35Z</time>
      </trkpt>
      <trkpt lat="50.310047641396523" lon="6.472841994836927">
        <ele>611.42999999999995</ele>
        <time>2017-06-06T14:05:19Z</time>
      </trkpt>
      <trkpt lat="50.309824263677001" lon="6.472913911566138">
        <ele>610.36000000000001</ele>
        <time>2017-06-06T14:04:59Z</time>
      </trkpt>
      <trkpt lat="50.309593006968498" lon="6.472982307896018">
        <ele>607.25999999999999</ele>
        <time>2017-06-06T14:04:40Z</time>
      </trkpt>
      <trkpt lat="50.309423441067338" lon="6.472924053668976">
        <ele>605</ele>
        <time>2017-06-06T14:04:24Z</time>
      </trkpt>
      <trkpt lat="50.309257144108415" lon="6.472918521612883">
        <ele>603.99000000000001</ele>
        <time>2017-06-06T14:04:09Z</time>
      </trkpt>
      <trkpt lat="50.309065282344818" lon="6.473001921549439">
        <ele>601.86000000000001</ele>
        <time>2017-06-06T14:03:51Z</time>
      </trkpt>
      <trkpt lat="50.308898231014609" lon="6.473067468032241">
        <ele>599.80999999999995</ele>
        <time>2017-06-06T14:03:37Z</time>
      </trkpt>
      <trkpt lat="50.308826984837651" lon="6.473097642883658">
        <ele>598.42999999999995</ele>
        <time>2017-06-06T14:03:31Z</time>
      </trkpt>
      <trkpt lat="50.30864174477756" lon="6.473215911537409">
        <ele>597.25</ele>
        <time>2017-06-06T14:03:17Z</time>
      </trkpt>
      <trkpt lat="50.308490870520473" lon="6.47329562343657">
        <ele>597.50999999999999</ele>
        <time>2017-06-06T14:03:03Z</time>
      </trkpt>
      <trkpt lat="50.308380983769894" lon="6.473340801894665">
        <ele>595.19000000000005</ele>
        <time>2017-06-06T14:02:54Z</time>
      </trkpt>
      <trkpt lat="50.308365728706121" lon="6.473347088322043">
        <ele>595.20000000000005</ele>
        <time>2017-06-06T14:02:53Z</time>
      </trkpt>
      <trkpt lat="50.308135561645031" lon="6.473381537944078">
        <ele>593.61000000000001</ele>
        <time>2017-06-06T14:02:36Z</time>
      </trkpt>
      <trkpt lat="50.307952919974923" lon="6.473264191299677">
        <ele>593.15999999999997</ele>
        <time>2017-06-06T14:02:19Z</time>
      </trkpt>
      <trkpt lat="50.307757370173931" lon="6.473147096112371">
        <ele>590.75999999999999</ele>
        <time>2017-06-06T14:01:59Z</time>
      </trkpt>
      <trkpt lat="50.307577326893806" lon="6.473054811358452">
        <ele>588.75</ele>
        <time>2017-06-06T14:01:40Z</time>
      </trkpt>
      <trkpt lat="50.307434666901827" lon="6.472975183278322">
        <ele>586.45000000000005</ele>
        <time>2017-06-06T14:01:24Z</time>
      </trkpt>
      <trkpt lat="50.307295778766274" lon="6.472898488864303">
        <ele>585.47000000000003</ele>
        <time>2017-06-06T14:01:11Z</time>
      </trkpt>
      <trkpt lat="50.307096792384982" lon="6.472954228520393">
        <ele>583.82000000000005</ele>
        <time>2017-06-06T14:00:53Z</time>
      </trkpt>
      <trkpt lat="50.306897889822721" lon="6.472996892407537">
        <ele>584.5</ele>
        <time>2017-06-06T14:00:35Z</time>
      </trkpt>
      <trkpt lat="50.306858494877815" lon="6.473018601536751">
        <ele>585.77999999999997</ele>
        <time>2017-06-06T14:00:32Z</time>
      </trkpt>
      <trkpt lat="50.306765288114548" lon="6.473085656762123">
        <ele>586.52999999999997</ele>
        <time>2017-06-06T14:00:25Z</time>
      </trkpt>
      <trkpt lat="50.306751960888505" lon="6.473095379769802">
        <ele>586.33000000000004</ele>
        <time>2017-06-06T14:00:24Z</time>
      </trkpt>
      <trkpt lat="50.306704100221395" lon="6.473142486065626">
        <ele>582.94000000000005</ele>
        <time>2017-06-06T14:00:20Z</time>
      </trkpt>
      <trkpt lat="50.306676272302866" lon="6.473164949566126">
        <ele>581.98000000000002</ele>
        <time>2017-06-06T14:00:18Z</time>
      </trkpt>
      <trkpt lat="50.30651181936264" lon="6.473295204341412">
        <ele>579.5</ele>
        <time>2017-06-06T14:00:13Z</time>
      </trkpt>
      <trkpt lat="50.306466221809387" lon="6.473321188241243">
        <ele>579.49000000000001</ele>
        <time>2017-06-06T14:00:12Z</time>
      </trkpt>
      <trkpt lat="50.306412158533931" lon="6.47334348410368">
        <ele>579.52999999999997</ele>
        <time>2017-06-06T14:00:11Z</time>
      </trkpt>
      <trkpt lat="50.306016113609076" lon="6.473351614549756">
        <ele>581.77999999999997</ele>
        <time>2017-06-06T14:00:00Z</time>
      </trkpt>
      <trkpt lat="50.305673545226455" lon="6.47329512052238">
        <ele>582.5</ele>
        <time>2017-06-06T13:59:48Z</time>
      </trkpt>
      <trkpt lat="50.305428290739655" lon="6.473313141614199">
        <ele>579.12</ele>
        <time>2017-06-06T13:59:39Z</time>
      </trkpt>
      <trkpt lat="50.30538939870894" lon="6.473317919299007">
        <ele>578.86000000000001</ele>
        <time>2017-06-06T13:59:38Z</time>
      </trkpt>
      <trkpt lat="50.305350255221128" lon="6.473324373364449">
        <ele>578.59000000000003</ele>
        <time>2017-06-06T13:59:37Z</time>
      </trkpt>
      <trkpt lat="50.305268196389079" lon="6.473339460790157">
        <ele>577.97000000000003</ele>
        <time>2017-06-06T13:59:35Z</time>
      </trkpt>
      <trkpt lat="50.304999807849526" lon="6.473291516304016">
        <ele>575.78999999999996</ele>
        <time>2017-06-06T13:59:29Z</time>
      </trkpt>
      <trkpt lat="50.304565038532019" lon="6.473417663946748">
        <ele>574.32000000000005</ele>
        <time>2017-06-06T13:59:14Z</time>
      </trkpt>
      <trkpt lat="50.304447775706649" lon="6.473555713891983">
        <ele>573.63</ele>
        <time>2017-06-06T13:59:10Z</time>
      </trkpt>
      <trkpt lat="50.304281814023852" lon="6.473868107423186">
        <ele>572.50999999999999</ele>
        <time>2017-06-06T13:59:05Z</time>
      </trkpt>
      <trkpt lat="50.304201347753406" lon="6.474074721336365">
        <ele>571.07000000000005</ele>
        <time>2017-06-06T13:59:02Z</time>
      </trkpt>
      <trkpt lat="50.304176034405828" lon="6.474137082695961">
        <ele>571.03999999999996</ele>
        <time>2017-06-06T13:59:01Z</time>
      </trkpt>
      <trkpt lat="50.303990626707673" lon="6.474467162042856">
        <ele>569.52999999999997</ele>
        <time>2017-06-06T13:58:55Z</time>
      </trkpt>
      <trkpt lat="50.303681502118707" lon="6.474830769002438">
        <ele>569.82000000000005</ele>
        <time>2017-06-06T13:58:44Z</time>
      </trkpt>
      <trkpt lat="50.303275566548109" lon="6.475138384848833">
        <ele>568.83000000000004</ele>
        <time>2017-06-06T13:58:31Z</time>
      </trkpt>
      <trkpt lat="50.3029047511518" lon="6.475334940478206">
        <ele>568.29999999999995</ele>
        <time>2017-06-06T13:58:19Z</time>
      </trkpt>
      <trkpt lat="50.302733508870006" lon="6.475458405911923">
        <ele>568.69000000000005</ele>
        <time>2017-06-06T13:58:06Z</time>
      </trkpt>
      <trkpt lat="50.302592273801565" lon="6.475550187751651">
        <ele>567.52999999999997</ele>
        <time>2017-06-06T13:57:53Z</time>
      </trkpt>
      <trkpt lat="50.302579114213586" lon="6.475559826940298">
        <ele>567.77999999999997</ele>
        <time>2017-06-06T13:57:52Z</time>
      </trkpt>
      <trkpt lat="50.302569475024939" lon="6.475572735071182">
        <ele>567.97000000000003</ele>
        <time>2017-06-06T13:57:51Z</time>
      </trkpt>
      <trkpt lat="50.302557153627276" lon="6.475581536069512">
        <ele>568.09000000000003</ele>
        <time>2017-06-06T13:57:50Z</time>
      </trkpt>
      <trkpt lat="50.302546927705407" lon="6.475589331239462">
        <ele>568.00999999999999</ele>
        <time>2017-06-06T13:57:49Z</time>
      </trkpt>
      <trkpt lat="50.30245372094214" lon="6.475664349272847">
        <ele>565.46000000000004</ele>
        <time>2017-06-06T13:57:41Z</time>
      </trkpt>
      <trkpt lat="50.302441651001573" lon="6.475670635700226">
        <ele>565.75</ele>
        <time>2017-06-06T13:57:40Z</time>
      </trkpt>
      <trkpt lat="50.302431341260672" lon="6.475681364536285">
        <ele>565.86000000000001</ele>
        <time>2017-06-06T13:57:39Z</time>
      </trkpt>
      <trkpt lat="50.302418097853661" lon="6.475688740611076">
        <ele>565.79999999999995</ele>
        <time>2017-06-06T13:57:38Z</time>
      </trkpt>
      <trkpt lat="50.302404016256332" lon="6.475687986239791">
        <ele>565.90999999999997</ele>
        <time>2017-06-06T13:57:37Z</time>
      </trkpt>
      <trkpt lat="50.302392533048987" lon="6.475693350657821">
        <ele>565.67999999999995</ele>
        <time>2017-06-06T13:57:36Z</time>
      </trkpt>
      <trkpt lat="50.302371829748154" lon="6.475703325122595">
        <ele>565.32000000000005</ele>
        <time>2017-06-06T13:57:34Z</time>
      </trkpt>
      <trkpt lat="50.302362190559506" lon="6.475712796673179">
        <ele>565.40999999999997</ele>
        <time>2017-06-06T13:57:33Z</time>
      </trkpt>
      <trkpt lat="50.302352048456669" lon="6.475722352042794">
        <ele>565.38999999999999</ele>
        <time>2017-06-06T13:57:32Z</time>
      </trkpt>
      <trkpt lat="50.302339307963848" lon="6.475726207718253">
        <ele>565.35000000000002</ele>
        <time>2017-06-06T13:57:31Z</time>
      </trkpt>
      <trkpt lat="50.302326232194901" lon="6.475734589621425">
        <ele>565.21000000000004</ele>
        <time>2017-06-06T13:57:30Z</time>
      </trkpt>
      <trkpt lat="50.302189355716109" lon="6.475781193003058">
        <ele>564.45000000000005</ele>
        <time>2017-06-06T13:57:18Z</time>
      </trkpt>
      <trkpt lat="50.302179045975208" lon="6.475790916010737">
        <ele>564.39999999999998</ele>
        <time>2017-06-06T13:57:17Z</time>
      </trkpt>
      <trkpt lat="50.302169322967529" lon="6.475800471380353">
        <ele>564.38</ele>
        <time>2017-06-06T13:57:16Z</time>
      </trkpt>
      <trkpt lat="50.302156917750835" lon="6.475813295692205">
        <ele>564.37</ele>
        <time>2017-06-06T13:57:15Z</time>
      </trkpt>
      <trkpt lat="50.302144093438983" lon="6.475820504128933">
        <ele>564.37</ele>
        <time>2017-06-06T13:57:14Z</time>
      </trkpt>
      <trkpt lat="50.302134705707431" lon="6.475830813869834">
        <ele>564.41999999999996</ele>
        <time>2017-06-06T13:57:13Z</time>
      </trkpt>
      <trkpt lat="50.302028423175216" lon="6.475931145250797">
        <ele>564.59000000000003</ele>
        <time>2017-06-06T13:57:04Z</time>
      </trkpt>
      <trkpt lat="50.302017359063029" lon="6.475935084745288">
        <ele>564.52999999999997</ele>
        <time>2017-06-06T13:57:03Z</time>
      </trkpt>
      <trkpt lat="50.302006043493748" lon="6.475946484133601">
        <ele>564.37</ele>
        <time>2017-06-06T13:57:02Z</time>
      </trkpt>
      <trkpt lat="50.301943346858025" lon="6.476018484681845">
        <ele>563.72000000000003</ele>
        <time>2017-06-06T13:56:56Z</time>
      </trkpt>
      <trkpt lat="50.301931779831648" lon="6.476032650098205">
        <ele>563.66999999999996</ele>
        <time>2017-06-06T13:56:55Z</time>
      </trkpt>
      <trkpt lat="50.301920548081398" lon="6.476042373105884">
        <ele>563.54999999999995</ele>
        <time>2017-06-06T13:56:54Z</time>
      </trkpt>
      <trkpt lat="50.301909819245338" lon="6.476055616512895">
        <ele>563.38999999999999</ele>
        <time>2017-06-06T13:56:53Z</time>
      </trkpt>
      <trkpt lat="50.301899006590247" lon="6.476068021729589">
        <ele>563.09000000000003</ele>
        <time>2017-06-06T13:56:52Z</time>
      </trkpt>
      <trkpt lat="50.301889283582568" lon="6.476082606241107">
        <ele>563.14999999999998</ele>
        <time>2017-06-06T13:56:51Z</time>
      </trkpt>
      <trkpt lat="50.301875872537494" lon="6.47611353546381">
        <ele>563.08000000000004</ele>
        <time>2017-06-06T13:56:49Z</time>
      </trkpt>
      <trkpt lat="50.301866820082068" lon="6.476124348118901">
        <ele>563.28999999999996</ele>
        <time>2017-06-06T13:56:48Z</time>
      </trkpt>
      <trkpt lat="50.301858773455024" lon="6.476137172430754">
        <ele>563.25</ele>
        <time>2017-06-06T13:56:47Z</time>
      </trkpt>
      <trkpt lat="50.301849134266376" lon="6.476149326190352">
        <ele>563.33000000000004</ele>
        <time>2017-06-06T13:56:46Z</time>
      </trkpt>
      <trkpt lat="50.301838992163539" lon="6.476163240149617">
        <ele>563.26999999999998</ele>
        <time>2017-06-06T13:56:45Z</time>
      </trkpt>
      <trkpt lat="50.301830945536494" lon="6.4761848654598">
        <ele>563.38</ele>
        <time>2017-06-06T13:56:44Z</time>
      </trkpt>
      <trkpt lat="50.301821976900101" lon="6.476202299818397">
        <ele>563.46000000000004</ele>
        <time>2017-06-06T13:56:43Z</time>
      </trkpt>
      <trkpt lat="50.301814349368215" lon="6.476218979805708">
        <ele>563.54999999999995</ele>
        <time>2017-06-06T13:56:42Z</time>
      </trkpt>
      <trkpt lat="50.301804542541504" lon="6.476228451356292">
        <ele>563.62</ele>
        <time>2017-06-06T13:56:41Z</time>
      </trkpt>
      <trkpt lat="50.301795825362206" lon="6.476244209334254">
        <ele>563.75999999999999</ele>
        <time>2017-06-06T13:56:40Z</time>
      </trkpt>
      <trkpt lat="50.301766656339169" lon="6.476276144385338">
        <ele>563.98000000000002</ele>
        <time>2017-06-06T13:56:37Z</time>
      </trkpt>
      <trkpt lat="50.301757771521807" lon="6.476290728896856">
        <ele>564.13999999999999</ele>
        <time>2017-06-06T13:56:36Z</time>
      </trkpt>
      <trkpt lat="50.301748467609286" lon="6.476305313408375">
        <ele>564.01999999999998</ele>
        <time>2017-06-06T13:56:35Z</time>
      </trkpt>
      <trkpt lat="50.301728686317801" lon="6.476324591785669">
        <ele>564.00999999999999</ele>
        <time>2017-06-06T13:56:33Z</time>
      </trkpt>
      <trkpt lat="50.30170027166605" lon="6.47638376802206">
        <ele>564.26999999999998</ele>
        <time>2017-06-06T13:56:29Z</time>
      </trkpt>
      <trkpt lat="50.301606226712465" lon="6.476483847945929">
        <ele>564.62</ele>
        <time>2017-06-06T13:56:17Z</time>
      </trkpt>
      <trkpt lat="50.301536908373237" lon="6.476532965898514">
        <ele>562</ele>
        <time>2017-06-06T13:56:09Z</time>
      </trkpt>
      <trkpt lat="50.301527185365558" lon="6.476540509611368">
        <ele>561.73000000000002</ele>
        <time>2017-06-06T13:56:08Z</time>
      </trkpt>
      <trkpt lat="50.301518635824323" lon="6.476551741361618">
        <ele>561.74000000000001</ele>
        <time>2017-06-06T13:56:07Z</time>
      </trkpt>
      <trkpt lat="50.301463818177581" lon="6.476614689454436">
        <ele>562.15999999999997</ele>
        <time>2017-06-06T13:56:01Z</time>
      </trkpt>
      <trkpt lat="50.301328869536519" lon="6.476825242862105">
        <ele>562.19000000000005</ele>
        <time>2017-06-06T13:55:45Z</time>
      </trkpt>
      <trkpt lat="50.301320403814316" lon="6.476839492097497">
        <ele>562.30999999999995</ele>
        <time>2017-06-06T13:55:44Z</time>
      </trkpt>
      <trkpt lat="50.301270615309477" lon="6.476952396333218">
        <ele>562.54999999999995</ele>
        <time>2017-06-06T13:55:36Z</time>
      </trkpt>
      <trkpt lat="50.301257455721498" lon="6.477021379396319">
        <ele>562.23000000000002</ele>
        <time>2017-06-06T13:55:26Z</time>
      </trkpt>
      <trkpt lat="50.30115838162601" lon="6.477339137345552">
        <ele>562.27999999999997</ele>
        <time>2017-06-06T13:55:11Z</time>
      </trkpt>
      <trkpt lat="50.30113541521132" lon="6.477564694359899">
        <ele>561.76999999999998</ele>
        <time>2017-06-06T13:55:00Z</time>
      </trkpt>
      <trkpt lat="50.301136001944542" lon="6.477817995473743">
        <ele>562.34000000000003</ele>
        <time>2017-06-06T13:54:47Z</time>
      </trkpt>
      <trkpt lat="50.30113491229713" lon="6.477974317967892">
        <ele>560.72000000000003</ele>
        <time>2017-06-06T13:54:40Z</time>
      </trkpt>
      <trkpt lat="50.301134241744876" lon="6.477996530011296">
        <ele>560.99000000000001</ele>
        <time>2017-06-06T13:54:39Z</time>
      </trkpt>
      <trkpt lat="50.301131894811988" lon="6.478021843358874">
        <ele>561.69000000000005</ele>
        <time>2017-06-06T13:54:38Z</time>
      </trkpt>
      <trkpt lat="50.301127703860402" lon="6.478044642135501">
        <ele>561.71000000000004</ele>
        <time>2017-06-06T13:54:37Z</time>
      </trkpt>
      <trkpt lat="50.301120998337865" lon="6.47806509397924">
        <ele>561.60000000000002</ele>
        <time>2017-06-06T13:54:36Z</time>
      </trkpt>
      <trkpt lat="50.301099959760904" lon="6.478245556354523">
        <ele>564.13999999999999</ele>
        <time>2017-06-06T13:54:27Z</time>
      </trkpt>
      <trkpt lat="50.300976242870092" lon="6.478904122486711">
        <ele>566.50999999999999</ele>
        <time>2017-06-06T13:53:56Z</time>
      </trkpt>
      <trkpt lat="50.300955539569259" lon="6.478917533531785">
        <ele>566.75999999999999</ele>
        <time>2017-06-06T13:53:55Z</time>
      </trkpt>
      <trkpt lat="50.30093852430582" lon="6.478931615129113">
        <ele>566.58000000000004</ele>
        <time>2017-06-06T13:53:54Z</time>
      </trkpt>
      <trkpt lat="50.300924861803651" lon="6.478940835222602">
        <ele>565.92999999999995</ele>
        <time>2017-06-06T13:53:53Z</time>
      </trkpt>
      <trkpt lat="50.300921089947224" lon="6.478956509381533">
        <ele>565.63999999999999</ele>
        <time>2017-06-06T13:53:52Z</time>
      </trkpt>
      <trkpt lat="50.300908517092466" lon="6.478968160226941">
        <ele>565.78999999999996</ele>
        <time>2017-06-06T13:53:51Z</time>
      </trkpt>
      <trkpt lat="50.30090038664639" lon="6.479024151340127">
        <ele>567.38999999999999</ele>
        <time>2017-06-06T13:53:47Z</time>
      </trkpt>
      <trkpt lat="50.300875827670097" lon="6.479135546833277">
        <ele>566.54999999999995</ele>
        <time>2017-06-06T13:53:40Z</time>
      </trkpt>
      <trkpt lat="50.300738280639052" lon="6.479503847658634">
        <ele>567.71000000000004</ele>
        <time>2017-06-06T13:53:18Z</time>
      </trkpt>
      <trkpt lat="50.300613306462765" lon="6.4797542989254">
        <ele>568.12</ele>
        <time>2017-06-06T13:52:59Z</time>
      </trkpt>
      <trkpt lat="50.300608528777957" lon="6.479768799617887">
        <ele>567.91999999999996</ele>
        <time>2017-06-06T13:52:58Z</time>
      </trkpt>
      <trkpt lat="50.300540467724204" lon="6.47993023507297">
        <ele>565.79999999999995</ele>
        <time>2017-06-06T13:52:47Z</time>
      </trkpt>
      <trkpt lat="50.300462516024709" lon="6.480065099895001">
        <ele>564.13</ele>
        <time>2017-06-06T13:52:36Z</time>
      </trkpt>
      <trkpt lat="50.300375260412693" lon="6.480265511199832">
        <ele>564.87</ele>
        <time>2017-06-06T13:52:22Z</time>
      </trkpt>
      <trkpt lat="50.300285406410694" lon="6.480552172288299">
        <ele>562.84000000000003</ele>
        <time>2017-06-06T13:52:06Z</time>
      </trkpt>
      <trkpt lat="50.300273755565286" lon="6.480578072369099">
        <ele>561.72000000000003</ele>
        <time>2017-06-06T13:52:04Z</time>
      </trkpt>
      <trkpt lat="50.300266966223717" lon="6.480736825615168">
        <ele>559.46000000000004</ele>
        <time>2017-06-06T13:51:55Z</time>
      </trkpt>
      <trkpt lat="50.300248274579644" lon="6.481034886091948">
        <ele>561.29999999999995</ele>
        <time>2017-06-06T13:51:39Z</time>
      </trkpt>
      <trkpt lat="50.300253890454769" lon="6.481269579380751">
        <ele>561.45000000000005</ele>
        <time>2017-06-06T13:51:27Z</time>
      </trkpt>
      <trkpt lat="50.30025196261704" lon="6.481286594644189">
        <ele>561.65999999999997</ele>
        <time>2017-06-06T13:51:26Z</time>
      </trkpt>
      <trkpt lat="50.300251459702849" lon="6.481307381764054">
        <ele>561.72000000000003</ele>
        <time>2017-06-06T13:51:25Z</time>
      </trkpt>
      <trkpt lat="50.300249867141247" lon="6.481326576322317">
        <ele>561.75</ele>
        <time>2017-06-06T13:51:24Z</time>
      </trkpt>
      <trkpt lat="50.300246682018042" lon="6.481348117813468">
        <ele>561.90999999999997</ele>
        <time>2017-06-06T13:51:23Z</time>
      </trkpt>
      <trkpt lat="50.300243832170963" lon="6.481395727023482">
        <ele>560.53999999999996</ele>
        <time>2017-06-06T13:51:21Z</time>
      </trkpt>
      <trkpt lat="50.300247939303517" lon="6.4814483653754">
        <ele>559.88</ele>
        <time>2017-06-06T13:51:19Z</time>
      </trkpt>
      <trkpt lat="50.300218099728227" lon="6.481782970950007">
        <ele>559.34000000000003</ele>
        <time>2017-06-06T13:51:02Z</time>
      </trkpt>
      <trkpt lat="50.300177447497845" lon="6.482068542391062">
        <ele>557.54999999999995</ele>
        <time>2017-06-06T13:50:44Z</time>
      </trkpt>
      <trkpt lat="50.300156660377979" lon="6.482367943972349">
        <ele>557.28999999999996</ele>
        <time>2017-06-06T13:50:29Z</time>
      </trkpt>
      <trkpt lat="50.30015473254025" lon="6.482385210692883">
        <ele>557.41999999999996</ele>
        <time>2017-06-06T13:50:28Z</time>
      </trkpt>
      <trkpt lat="50.300151379778981" lon="6.482404237613082">
        <ele>557.13999999999999</ele>
        <time>2017-06-06T13:50:27Z</time>
      </trkpt>
      <trkpt lat="50.300149284303188" lon="6.482449751347303">
        <ele>556.79999999999995</ele>
        <time>2017-06-06T13:50:25Z</time>
      </trkpt>
      <trkpt lat="50.300124306231737" lon="6.482738256454468">
        <ele>555.48000000000002</ele>
        <time>2017-06-06T13:50:11Z</time>
      </trkpt>
      <trkpt lat="50.300103854387999" lon="6.483020894229412">
        <ele>555.03999999999996</ele>
        <time>2017-06-06T13:49:58Z</time>
      </trkpt>
      <trkpt lat="50.300088850781322" lon="6.483370000496507">
        <ele>555.46000000000004</ele>
        <time>2017-06-06T13:49:42Z</time>
      </trkpt>
      <trkpt lat="50.300089521333575" lon="6.483390117064118">
        <ele>555.09000000000003</ele>
        <time>2017-06-06T13:49:41Z</time>
      </trkpt>
      <trkpt lat="50.300085749477148" lon="6.483408557251096">
        <ele>554.78999999999996</ele>
        <time>2017-06-06T13:49:40Z</time>
      </trkpt>
      <trkpt lat="50.300059514120221" lon="6.483654398471117">
        <ele>552.63999999999999</ele>
        <time>2017-06-06T13:49:28Z</time>
      </trkpt>
      <trkpt lat="50.300018861889839" lon="6.483939802274108">
        <ele>550.39999999999998</ele>
        <time>2017-06-06T13:49:14Z</time>
      </trkpt>
      <trkpt lat="50.299999751150608" lon="6.484061172232032">
        <ele>550.42999999999995</ele>
        <time>2017-06-06T13:49:08Z</time>
      </trkpt>
      <trkpt lat="50.299962032586336" lon="6.484218500554562">
        <ele>550.63</ele>
        <time>2017-06-06T13:48:58Z</time>
      </trkpt>
      <trkpt lat="50.299919787794352" lon="6.484411032870412">
        <ele>549.46000000000004</ele>
        <time>2017-06-06T13:48:47Z</time>
      </trkpt>
      <trkpt lat="50.299872681498528" lon="6.484705489128828">
        <ele>550.45000000000005</ele>
        <time>2017-06-06T13:48:32Z</time>
      </trkpt>
      <trkpt lat="50.299870502203703" lon="6.484732897952199">
        <ele>550.38999999999999</ele>
        <time>2017-06-06T13:48:31Z</time>
      </trkpt>
      <trkpt lat="50.299867065623403" lon="6.484756032004952">
        <ele>550.77999999999997</ele>
        <time>2017-06-06T13:48:30Z</time>
      </trkpt>
      <trkpt lat="50.299864215776324" lon="6.484782099723816">
        <ele>550.63999999999999</ele>
        <time>2017-06-06T13:48:29Z</time>
      </trkpt>
      <trkpt lat="50.299864718690515" lon="6.484802719205618">
        <ele>550</ele>
        <time>2017-06-06T13:48:28Z</time>
      </trkpt>
      <trkpt lat="50.299865556880832" lon="6.484829876571894">
        <ele>549.28999999999996</ele>
        <time>2017-06-06T13:48:27Z</time>
      </trkpt>
      <trkpt lat="50.299862874671817" lon="6.484851250424981">
        <ele>548.88999999999999</ele>
        <time>2017-06-06T13:48:26Z</time>
      </trkpt>
      <trkpt lat="50.299830436706543" lon="6.48503833450377">
        <ele>549.55999999999995</ele>
        <time>2017-06-06T13:48:06Z</time>
      </trkpt>
      <trkpt lat="50.299828592687845" lon="6.485032634809613">
        <ele>550.86000000000001</ele>
        <time>2017-06-06T13:48:00Z</time>
      </trkpt>
      <trkpt lat="50.299826748669147" lon="6.48504420183599">
        <ele>550.47000000000003</ele>
        <time>2017-06-06T13:47:30Z</time>
      </trkpt>
      <trkpt lat="50.299831693992019" lon="6.485122237354517">
        <ele>551.85000000000002</ele>
        <time>2017-06-06T13:47:21Z</time>
      </trkpt>
      <trkpt lat="50.299827000126243" lon="6.485176803544164">
        <ele>548.74000000000001</ele>
        <time>2017-06-06T13:47:10Z</time>
      </trkpt>
      <trkpt lat="50.299806045368314" lon="6.485294820740819">
        <ele>549.91999999999996</ele>
        <time>2017-06-06T13:47:00Z</time>
      </trkpt>
      <trkpt lat="50.299771511927247" lon="6.485504116863012">
        <ele>550.20000000000005</ele>
        <time>2017-06-06T13:46:46Z</time>
      </trkpt>
      <trkpt lat="50.299767153337598" lon="6.485522305592895">
        <ele>550.38999999999999</ele>
        <time>2017-06-06T13:46:45Z</time>
      </trkpt>
      <trkpt lat="50.299763632938266" lon="6.485541919246316">
        <ele>550.30999999999995</ele>
        <time>2017-06-06T13:46:44Z</time>
      </trkpt>
      <trkpt lat="50.299758687615395" lon="6.485558431595564">
        <ele>549.94000000000005</ele>
        <time>2017-06-06T13:46:43Z</time>
      </trkpt>
      <trkpt lat="50.299692302942276" lon="6.485899155959487">
        <ele>550.01999999999998</ele>
        <time>2017-06-06T13:46:24Z</time>
      </trkpt>
      <trkpt lat="50.299652572721243" lon="6.485972832888365">
        <ele>548.92999999999995</ele>
        <time>2017-06-06T13:46:19Z</time>
      </trkpt>
      <trkpt lat="50.299615943804383" lon="6.486211633309722">
        <ele>549.09000000000003</ele>
        <time>2017-06-06T13:46:06Z</time>
      </trkpt>
      <trkpt lat="50.299614351242781" lon="6.486229570582509">
        <ele>548.66999999999996</ele>
        <time>2017-06-06T13:46:05Z</time>
      </trkpt>
      <trkpt lat="50.299612255766988" lon="6.48624817840755">
        <ele>548.03999999999996</ele>
        <time>2017-06-06T13:46:04Z</time>
      </trkpt>
      <trkpt lat="50.299608316272497" lon="6.486265109851956">
        <ele>548.04999999999995</ele>
        <time>2017-06-06T13:46:03Z</time>
      </trkpt>
      <trkpt lat="50.299606220796704" lon="6.486283801496029">
        <ele>547.97000000000003</ele>
        <time>2017-06-06T13:46:02Z</time>
      </trkpt>
      <trkpt lat="50.299604376778007" lon="6.48630048148334">
        <ele>548</ele>
        <time>2017-06-06T13:46:01Z</time>
      </trkpt>
      <trkpt lat="50.299602029845119" lon="6.486317412927747">
        <ele>545.20000000000005</ele>
        <time>2017-06-06T13:46:00Z</time>
      </trkpt>
      <trkpt lat="50.299600521102548" lon="6.486333925276995">
        <ele>546.01999999999998</ele>
        <time>2017-06-06T13:45:59Z</time>
      </trkpt>
      <trkpt lat="50.2995649818331" lon="6.486424701288343">
        <ele>545.58000000000004</ele>
        <time>2017-06-06T13:45:53Z</time>
      </trkpt>
      <trkpt lat="50.29955618083477" lon="6.48643484339118">
        <ele>545.65999999999997</ele>
        <time>2017-06-06T13:45:52Z</time>
      </trkpt>
      <trkpt lat="50.29954687692225" lon="6.486446745693684">
        <ele>546.36000000000001</ele>
        <time>2017-06-06T13:45:51Z</time>
      </trkpt>
      <trkpt lat="50.299537153914571" lon="6.486459653824568">
        <ele>546.09000000000003</ele>
        <time>2017-06-06T13:45:50Z</time>
      </trkpt>
      <trkpt lat="50.299531370401382" lon="6.486475244164467">
        <ele>545.13999999999999</ele>
        <time>2017-06-06T13:45:49Z</time>
      </trkpt>
      <trkpt lat="50.29952634125948" lon="6.486493349075317">
        <ele>545.40999999999997</ele>
        <time>2017-06-06T13:45:48Z</time>
      </trkpt>
      <trkpt lat="50.299518378451467" lon="6.486511370167136">
        <ele>545.30999999999995</ele>
        <time>2017-06-06T13:45:47Z</time>
      </trkpt>
      <trkpt lat="50.299509661272168" lon="6.486527882516384">
        <ele>545.58000000000004</ele>
        <time>2017-06-06T13:45:46Z</time>
      </trkpt>
      <trkpt lat="50.299502788111567" lon="6.486544897779822">
        <ele>545.77999999999997</ele>
        <time>2017-06-06T13:45:45Z</time>
      </trkpt>
      <trkpt lat="50.299496753141284" lon="6.486566942185164">
        <ele>545.10000000000002</ele>
        <time>2017-06-06T13:45:44Z</time>
      </trkpt>
      <trkpt lat="50.299491388723254" lon="6.486587980762124">
        <ele>545.20000000000005</ele>
        <time>2017-06-06T13:45:43Z</time>
      </trkpt>
      <trkpt lat="50.299485353752971" lon="6.486606672406197">
        <ele>545.22000000000003</ele>
        <time>2017-06-06T13:45:42Z</time>
      </trkpt>
      <trkpt lat="50.299476804211736" lon="6.486625615507364">
        <ele>545.90999999999997</ele>
        <time>2017-06-06T13:45:41Z</time>
      </trkpt>
      <trkpt lat="50.299469511955976" lon="6.486645312979817">
        <ele>545.87</ele>
        <time>2017-06-06T13:45:40Z</time>
      </trkpt>
      <trkpt lat="50.299463560804725" lon="6.486664591357112">
        <ele>545</ele>
        <time>2017-06-06T13:45:39Z</time>
      </trkpt>
      <trkpt lat="50.299456184729934" lon="6.486684875562787">
        <ele>545.59000000000003</ele>
        <time>2017-06-06T13:45:38Z</time>
      </trkpt>
      <trkpt lat="50.299450904130936" lon="6.486706584692001">
        <ele>546.59000000000003</ele>
        <time>2017-06-06T13:45:37Z</time>
      </trkpt>
      <trkpt lat="50.299437996000051" lon="6.486748745664954">
        <ele>546.66999999999996</ele>
        <time>2017-06-06T13:45:23Z</time>
      </trkpt>
      <trkpt lat="50.299405306577682" lon="6.486879168078303">
        <ele>546.66999999999996</ele>
        <time>2017-06-06T13:45:15Z</time>
      </trkpt>
      <trkpt lat="50.299400025978684" lon="6.486903391778469">
        <ele>546.64999999999998</ele>
        <time>2017-06-06T13:45:14Z</time>
      </trkpt>
      <trkpt lat="50.299335233867168" lon="6.487144120037556">
        <ele>543.51999999999998</ele>
        <time>2017-06-06T13:45:00Z</time>
      </trkpt>
      <trkpt lat="50.299325175583363" lon="6.48717655800283">
        <ele>543.00999999999999</ele>
        <time>2017-06-06T13:44:58Z</time>
      </trkpt>
      <trkpt lat="50.299302209168673" lon="6.487253336235881">
        <ele>544.04999999999995</ele>
        <time>2017-06-06T13:44:49Z</time>
      </trkpt>
      <trkpt lat="50.299261892214417" lon="6.487459111958742">
        <ele>544.05999999999995</ele>
        <time>2017-06-06T13:44:33Z</time>
      </trkpt>
      <trkpt lat="50.299257282167673" lon="6.487480653449893">
        <ele>543.11000000000001</ele>
        <time>2017-06-06T13:44:32Z</time>
      </trkpt>
      <trkpt lat="50.299250157549977" lon="6.487498339265585">
        <ele>543.04999999999995</ele>
        <time>2017-06-06T13:44:31Z</time>
      </trkpt>
      <trkpt lat="50.299242781475186" lon="6.487512337043881">
        <ele>543.54999999999995</ele>
        <time>2017-06-06T13:44:30Z</time>
      </trkpt>
      <trkpt lat="50.299237500876188" lon="6.487528597936034">
        <ele>543.70000000000005</ele>
        <time>2017-06-06T13:44:29Z</time>
      </trkpt>
      <trkpt lat="50.29916918836534" lon="6.487693637609482">
        <ele>543.03999999999996</ele>
        <time>2017-06-06T13:44:19Z</time>
      </trkpt>
      <trkpt lat="50.299114873632789" lon="6.487817689776421">
        <ele>544.62</ele>
        <time>2017-06-06T13:44:11Z</time>
      </trkpt>
      <trkpt lat="50.299064749851823" lon="6.487968731671572">
        <ele>543.08000000000004</ele>
        <time>2017-06-06T13:44:03Z</time>
      </trkpt>
      <trkpt lat="50.29905972070992" lon="6.487985830754042">
        <ele>542.01999999999998</ele>
        <time>2017-06-06T13:44:02Z</time>
      </trkpt>
      <trkpt lat="50.299055697396398" lon="6.488004270941019">
        <ele>543.75</ele>
        <time>2017-06-06T13:44:01Z</time>
      </trkpt>
      <trkpt lat="50.299051757901907" lon="6.488023046404123">
        <ele>543.64999999999998</ele>
        <time>2017-06-06T13:44:00Z</time>
      </trkpt>
      <trkpt lat="50.299046812579036" lon="6.488040396943688">
        <ele>542.42999999999995</ele>
        <time>2017-06-06T13:43:59Z</time>
      </trkpt>
      <trkpt lat="50.299040526151657" lon="6.48805757984519">
        <ele>542.00999999999999</ele>
        <time>2017-06-06T13:43:58Z</time>
      </trkpt>
      <trkpt lat="50.2990348264575" lon="6.488073086366057">
        <ele>541.41999999999996</ele>
        <time>2017-06-06T13:43:57Z</time>
      </trkpt>
      <trkpt lat="50.299026612192392" lon="6.488089766353369">
        <ele>541.48000000000002</ele>
        <time>2017-06-06T13:43:56Z</time>
      </trkpt>
      <trkpt lat="50.299018146470189" lon="6.48810837417841">
        <ele>541.90999999999997</ele>
        <time>2017-06-06T13:43:55Z</time>
      </trkpt>
      <trkpt lat="50.298979422077537" lon="6.488202502951026">
        <ele>542.95000000000005</ele>
        <time>2017-06-06T13:43:49Z</time>
      </trkpt>
      <trkpt lat="50.298929465934634" lon="6.488362262025476">
        <ele>541.41999999999996</ele>
        <time>2017-06-06T13:43:40Z</time>
      </trkpt>
      <trkpt lat="50.298925526440144" lon="6.488391682505608">
        <ele>539.13</ele>
        <time>2017-06-06T13:43:38Z</time>
      </trkpt>
      <trkpt lat="50.298922173678875" lon="6.488404590636492">
        <ele>537.02999999999997</ele>
        <time>2017-06-06T13:43:37Z</time>
      </trkpt>
      <trkpt lat="50.298902476206422" lon="6.488458067178726">
        <ele>541.90999999999997</ele>
        <time>2017-06-06T13:43:33Z</time>
      </trkpt>
      <trkpt lat="50.298896944150329" lon="6.488471897318959">
        <ele>540.94000000000005</ele>
        <time>2017-06-06T13:43:32Z</time>
      </trkpt>
      <trkpt lat="50.298891915008426" lon="6.488487152382731">
        <ele>541.21000000000004</ele>
        <time>2017-06-06T13:43:31Z</time>
      </trkpt>
      <trkpt lat="50.298884874209762" lon="6.488503748551011">
        <ele>541.44000000000005</ele>
        <time>2017-06-06T13:43:30Z</time>
      </trkpt>
      <trkpt lat="50.298877833411098" lon="6.488520093262196">
        <ele>541.38</ele>
        <time>2017-06-06T13:43:29Z</time>
      </trkpt>
      <trkpt lat="50.298870792612433" lon="6.488538617268205">
        <ele>541.37</ele>
        <time>2017-06-06T13:43:28Z</time>
      </trkpt>
      <trkpt lat="50.298864170908928" lon="6.488556722179055">
        <ele>541.44000000000005</ele>
        <time>2017-06-06T13:43:27Z</time>
      </trkpt>
      <trkpt lat="50.298859477043152" lon="6.488575665280223">
        <ele>540.73000000000002</ele>
        <time>2017-06-06T13:43:26Z</time>
      </trkpt>
      <trkpt lat="50.298754619434476" lon="6.488816058263183">
        <ele>540.49000000000001</ele>
        <time>2017-06-06T13:43:12Z</time>
      </trkpt>
      <trkpt lat="50.298721343278885" lon="6.488940194249153">
        <ele>542.13</ele>
        <time>2017-06-06T13:43:08Z</time>
      </trkpt>
      <trkpt lat="50.298537109047174" lon="6.48950538598001">
        <ele>541.32000000000005</ele>
        <time>2017-06-06T13:42:35Z</time>
      </trkpt>
      <trkpt lat="50.298533253371716" lon="6.48952198214829">
        <ele>540.98000000000002</ele>
        <time>2017-06-06T13:42:34Z</time>
      </trkpt>
      <trkpt lat="50.298528643324971" lon="6.489537404850125">
        <ele>541.21000000000004</ele>
        <time>2017-06-06T13:42:33Z</time>
      </trkpt>
      <trkpt lat="50.298522859811783" lon="6.489554084837437">
        <ele>540.85000000000002</ele>
        <time>2017-06-06T13:42:32Z</time>
      </trkpt>
      <trkpt lat="50.298518668860197" lon="6.489569758996368">
        <ele>540.62</ele>
        <time>2017-06-06T13:42:31Z</time>
      </trkpt>
      <trkpt lat="50.298509197309613" lon="6.489603286609054">
        <ele>539.90999999999997</ele>
        <time>2017-06-06T13:42:29Z</time>
      </trkpt>
      <trkpt lat="50.298505593091249" lon="6.489614518359304">
        <ele>540.86000000000001</ele>
        <time>2017-06-06T13:42:28Z</time>
      </trkpt>
      <trkpt lat="50.298474244773388" lon="6.489694649353623">
        <ele>542.36000000000001</ele>
        <time>2017-06-06T13:42:21Z</time>
      </trkpt>
      <trkpt lat="50.298371985554695" lon="6.489964378997684">
        <ele>539.34000000000003</ele>
        <time>2017-06-06T13:42:04Z</time>
      </trkpt>
      <trkpt lat="50.298366202041507" lon="6.489983908832073">
        <ele>539.39999999999998</ele>
        <time>2017-06-06T13:42:03Z</time>
      </trkpt>
      <trkpt lat="50.29825790785253" lon="6.490357406437397">
        <ele>540.65999999999997</ele>
        <time>2017-06-06T13:41:43Z</time>
      </trkpt>
      <trkpt lat="50.298237456008792" lon="6.490472238510847">
        <ele>540.00999999999999</ele>
        <time>2017-06-06T13:41:37Z</time>
      </trkpt>
      <trkpt lat="50.298233013600111" lon="6.490492438897491">
        <ele>539.99000000000001</ele>
        <time>2017-06-06T13:41:36Z</time>
      </trkpt>
      <trkpt lat="50.298227900639176" lon="6.490514734759927">
        <ele>540.26999999999998</ele>
        <time>2017-06-06T13:41:35Z</time>
      </trkpt>
      <trkpt lat="50.298222787678242" lon="6.4905368629843">
        <ele>540.62</ele>
        <time>2017-06-06T13:41:34Z</time>
      </trkpt>
      <trkpt lat="50.298217674717307" lon="6.490554381161928">
        <ele>540.98000000000002</ele>
        <time>2017-06-06T13:41:33Z</time>
      </trkpt>
      <trkpt lat="50.29821339994669" lon="6.490571899339557">
        <ele>539.84000000000003</ele>
        <time>2017-06-06T13:41:32Z</time>
      </trkpt>
      <trkpt lat="50.29820853844285" lon="6.490590507164598">
        <ele>539.75999999999999</ele>
        <time>2017-06-06T13:41:31Z</time>
      </trkpt>
      <trkpt lat="50.298202922567725" lon="6.490610204637051">
        <ele>539.63</ele>
        <time>2017-06-06T13:41:30Z</time>
      </trkpt>
      <trkpt lat="50.298197558149695" lon="6.490630237385631">
        <ele>539.41999999999996</ele>
        <time>2017-06-06T13:41:29Z</time>
      </trkpt>
      <trkpt lat="50.298190768808126" lon="6.490649096667767">
        <ele>540.04999999999995</ele>
        <time>2017-06-06T13:41:28Z</time>
      </trkpt>
      <trkpt lat="50.298174088820815" lon="6.490698382258415">
        <ele>539.10000000000002</ele>
        <time>2017-06-06T13:41:25Z</time>
      </trkpt>
      <trkpt lat="50.298126647248864" lon="6.490855542942882">
        <ele>540.40999999999997</ele>
        <time>2017-06-06T13:41:15Z</time>
      </trkpt>
      <trkpt lat="50.298063196241856" lon="6.491225603967905">
        <ele>540.98000000000002</ele>
        <time>2017-06-06T13:40:56Z</time>
      </trkpt>
      <trkpt lat="50.298010557889938" lon="6.491657607257366">
        <ele>541.52999999999997</ele>
        <time>2017-06-06T13:40:35Z</time>
      </trkpt>
      <trkpt lat="50.297966636717319" lon="6.492042168974876">
        <ele>540.91999999999996</ele>
        <time>2017-06-06T13:40:15Z</time>
      </trkpt>
      <trkpt lat="50.297941323369741" lon="6.492273258045316">
        <ele>541.13999999999999</ele>
        <time>2017-06-06T13:40:02Z</time>
      </trkpt>
      <trkpt lat="50.297936880961061" lon="6.492291698232293">
        <ele>540.94000000000005</ele>
        <time>2017-06-06T13:40:01Z</time>
      </trkpt>
      <trkpt lat="50.29792707413435" lon="6.492320783436298">
        <ele>540.74000000000001</ele>
        <time>2017-06-06T13:39:59Z</time>
      </trkpt>
      <trkpt lat="50.297879800200462" lon="6.492340816184878">
        <ele>539.99000000000001</ele>
        <time>2017-06-06T13:39:51Z</time>
      </trkpt>
      <trkpt lat="50.297740325331688" lon="6.492090197280049">
        <ele>539.97000000000003</ele>
        <time>2017-06-06T13:39:33Z</time>
      </trkpt>
      <trkpt lat="50.297577045857906" lon="6.491767996922135">
        <ele>540.13</ele>
        <time>2017-06-06T13:39:14Z</time>
      </trkpt>
      <trkpt lat="50.297422064468265" lon="6.491427188739181">
        <ele>542.12</ele>
        <time>2017-06-06T13:38:54Z</time>
      </trkpt>
      <trkpt lat="50.297250738367438" lon="6.491066683083773">
        <ele>544.73000000000002</ele>
        <time>2017-06-06T13:38:31Z</time>
      </trkpt>
      <trkpt lat="50.297205476090312" lon="6.490975571796298">
        <ele>546.19000000000005</ele>
        <time>2017-06-06T13:38:25Z</time>
      </trkpt>
      <trkpt lat="50.297070275992155" lon="6.490700729191303">
        <ele>548.03999999999996</ele>
        <time>2017-06-06T13:38:07Z</time>
      </trkpt>
      <trkpt lat="50.296956114470959" lon="6.490451451390982">
        <ele>550.30999999999995</ele>
        <time>2017-06-06T13:37:52Z</time>
      </trkpt>
      <trkpt lat="50.296812700107694" lon="6.490292195230722">
        <ele>552.59000000000003</ele>
        <time>2017-06-06T13:37:38Z</time>
      </trkpt>
      <trkpt lat="50.296762743964791" lon="6.490307031199336">
        <ele>550.60000000000002</ele>
        <time>2017-06-06T13:37:34Z</time>
      </trkpt>
      <trkpt lat="50.296750590205193" lon="6.490312479436398">
        <ele>550.75</ele>
        <time>2017-06-06T13:37:33Z</time>
      </trkpt>
      <trkpt lat="50.296626454219222" lon="6.490450277924538">
        <ele>552.04999999999995</ele>
        <time>2017-06-06T13:37:21Z</time>
      </trkpt>
      <trkpt lat="50.296478681266308" lon="6.490625292062759">
        <ele>551.78999999999996</ele>
        <time>2017-06-06T13:37:06Z</time>
      </trkpt>
      <trkpt lat="50.296469796448946" lon="6.490639792755246">
        <ele>551.88999999999999</ele>
        <time>2017-06-06T13:37:05Z</time>
      </trkpt>
      <trkpt lat="50.296391425654292" lon="6.490717325359583">
        <ele>552.32000000000005</ele>
        <time>2017-06-06T13:36:58Z</time>
      </trkpt>
      <trkpt lat="50.296381199732423" lon="6.490725120529532">
        <ele>552.33000000000004</ele>
        <time>2017-06-06T13:36:57Z</time>
      </trkpt>
      <trkpt lat="50.296194534748793" lon="6.49089795537293">
        <ele>553.88</ele>
        <time>2017-06-06T13:36:40Z</time>
      </trkpt>
      <trkpt lat="50.296017928048968" lon="6.491180760785937">
        <ele>553.30999999999995</ele>
        <time>2017-06-06T13:35:22Z</time>
      </trkpt>
      <trkpt lat="50.295759094879031" lon="6.491552414372563">
        <ele>550.66999999999996</ele>
        <time>2017-06-06T13:34:46Z</time>
      </trkpt>
      <trkpt lat="50.295619871467352" lon="6.491651237010956">
        <ele>550.04999999999995</ele>
        <time>2017-06-06T13:34:33Z</time>
      </trkpt>
      <trkpt lat="50.295419208705425" lon="6.49154394865036">
        <ele>549.75</ele>
        <time>2017-06-06T13:34:16Z</time>
      </trkpt>
      <trkpt lat="50.295408982783556" lon="6.491534896194935">
        <ele>549.74000000000001</ele>
        <time>2017-06-06T13:34:15Z</time>
      </trkpt>
      <trkpt lat="50.295359781011939" lon="6.491501871496439">
        <ele>550.04999999999995</ele>
        <time>2017-06-06T13:34:10Z</time>
      </trkpt>
      <trkpt lat="50.295174876227975" lon="6.49137731641531">
        <ele>549.25</ele>
        <time>2017-06-06T13:33:54Z</time>
      </trkpt>
      <trkpt lat="50.294880839064717" lon="6.491171037778258">
        <ele>544.88999999999999</ele>
        <time>2017-06-06T13:26:04Z</time>
      </trkpt>
      <trkpt lat="50.29480523429811" lon="6.490961406379938">
        <ele>544.29999999999995</ele>
        <time>2017-06-06T13:25:49Z</time>
      </trkpt>
      <trkpt lat="50.294864159077406" lon="6.490607941523194">
        <ele>546.47000000000003</ele>
        <time>2017-06-06T13:25:35Z</time>
      </trkpt>
      <trkpt lat="50.294898441061378" lon="6.490297894924879">
        <ele>547.10000000000002</ele>
        <time>2017-06-06T13:25:19Z</time>
      </trkpt>
      <trkpt lat="50.29490053653717" lon="6.490278113633394">
        <ele>547.09000000000003</ele>
        <time>2017-06-06T13:25:18Z</time>
      </trkpt>
      <trkpt lat="50.294905733317137" lon="6.490232851356268">
        <ele>547.37</ele>
        <time>2017-06-06T13:25:15Z</time>
      </trkpt>
      <trkpt lat="50.294905314221978" lon="6.490074601024389">
        <ele>546.85000000000002</ele>
        <time>2017-06-06T13:25:07Z</time>
      </trkpt>
      <trkpt lat="50.294926771894097" lon="6.490001259371638">
        <ele>547.95000000000005</ele>
        <time>2017-06-06T13:25:02Z</time>
      </trkpt>
      <trkpt lat="50.294928280636668" lon="6.489983573555946">
        <ele>547.98000000000002</ele>
        <time>2017-06-06T13:25:01Z</time>
      </trkpt>
      <trkpt lat="50.29494202695787" lon="6.489911321550608">
        <ele>548.40999999999997</ele>
        <time>2017-06-06T13:24:57Z</time>
      </trkpt>
      <trkpt lat="50.29496499337256" lon="6.489635305479169">
        <ele>548.69000000000005</ele>
        <time>2017-06-06T13:24:43Z</time>
      </trkpt>
      <trkpt lat="50.294964406639338" lon="6.489614937454462">
        <ele>548.52999999999997</ele>
        <time>2017-06-06T13:24:42Z</time>
      </trkpt>
      <trkpt lat="50.294968346133828" lon="6.489577302709222">
        <ele>548.72000000000003</ele>
        <time>2017-06-06T13:24:40Z</time>
      </trkpt>
      <trkpt lat="50.29493423178792" lon="6.489546876400709">
        <ele>548.66999999999996</ele>
        <time>2017-06-06T13:24:35Z</time>
      </trkpt>
      <trkpt lat="50.294869858771563" lon="6.489449478685856">
        <ele>548.34000000000003</ele>
        <time>2017-06-06T13:24:34Z</time>
      </trkpt>
      <trkpt lat="50.294822165742517" lon="6.487814085558057">
        <ele>543.46000000000004</ele>
        <time>2017-06-06T13:24:00Z</time>
      </trkpt>
      <trkpt lat="50.294027728959918" lon="6.487925481051207">
        <ele>542.47000000000003</ele>
        <time>2017-06-06T13:23:43Z</time>
      </trkpt>
      <trkpt lat="50.293586840853095" lon="6.488123293966055">
        <ele>540.96000000000004</ele>
        <time>2017-06-06T13:23:41Z</time>
      </trkpt>
      <trkpt lat="50.293522384017706" lon="6.488478854298592">
        <ele>540.11000000000001</ele>
        <time>2017-06-06T13:23:22Z</time>
      </trkpt>
      <trkpt lat="50.293475948274136" lon="6.48929625749588">
        <ele>539.62</ele>
        <time>2017-06-06T13:23:21Z</time>
      </trkpt>
      <trkpt lat="50.293450634926558" lon="6.489494573324919">
        <ele>539.08000000000004</ele>
        <time>2017-06-06T13:23:20Z</time>
      </trkpt>
      <trkpt lat="50.293298671022058" lon="6.489984998479486">
        <ele>539.44000000000005</ele>
        <time>2017-06-06T13:23:19Z</time>
      </trkpt>
      <trkpt lat="50.293083339929581" lon="6.490420941263437">
        <ele>539.73000000000002</ele>
        <time>2017-06-06T13:23:18Z</time>
      </trkpt>
      <trkpt lat="50.293031455948949" lon="6.49049973115325" />
      <trkpt lat="50.293318955227733" lon="6.492305947467685" />
      <trkpt lat="50.29193552210927" lon="6.494642570614815" />
      <trkpt lat="50.292357718572021" lon="6.49619079194963" />
      <trkpt lat="50.290884515270591" lon="6.497332407161593" />
      <trkpt lat="50.291153993457556" lon="6.499554365873337" />
      <trkpt lat="50.289535112679005" lon="6.501526460051537" />
      <trkpt lat="50.28800792992115" lon="6.506472118198872" />
      <trkpt lat="50.287019787356257" lon="6.50740385055542" />
      <trkpt lat="50.285950843244791" lon="6.509883888065815" />
      <trkpt lat="50.285627469420433" lon="6.511202696710825" />
      <trkpt lat="50.287064714357257" lon="6.51257892139256" />
      <trkpt lat="50.288196606561542" lon="6.515273870900273" />
      <trkpt lat="50.289005124941468" lon="6.519230380654335" />
      <trkpt lat="50.291322721168399" lon="6.516822092235088" />
      <trkpt lat="50.291574262082577" lon="6.517210509628058" />
      <trkpt lat="50.291545344516635" lon="6.517497254535556" />
      <trkpt lat="50.291689094156027" lon="6.517726583406329" />
      <trkpt lat="50.294527793303132" lon="6.520421616733074" />
      <trkpt lat="50.295336227864027" lon="6.521138353273273" />
      <trkpt lat="50.296277515590191" lon="6.521023688837886" />
      <trkpt lat="50.297678885981441" lon="6.519647464156151" />
      <trkpt lat="50.298864590004086" lon="6.520106205716729" />
      <trkpt lat="50.299565317109227" lon="6.521052354946733" />
      <trkpt lat="50.300883539021015" lon="6.521242959424853" />
      <trkpt lat="50.303147323429585" lon="6.52399524115026" />
      <trkpt lat="50.302931657060981" lon="6.525543462485075" />
      <trkpt lat="50.3037940710783" lon="6.524998722597957" />
      <trkpt lat="50.304566631093621" lon="6.525830123573542" />
      <trkpt lat="50.306632770225406" lon="6.526632942259312" />
      <trkpt lat="50.308034140616655" lon="6.526804938912392" />
      <trkpt lat="50.309489406645298" lon="6.528439158573747" />
      <trkpt lat="50.309471469372511" lon="6.529388073831797" />
      <trkpt lat="50.309848738834262" lon="6.529388073831797" />
      <trkpt lat="50.310074966400862" lon="6.528528006747365" />
      <trkpt lat="50.312195001170039" lon="6.526435045525432" />
      <trkpt lat="50.310829589143395" lon="6.522793946787715" />
      <trkpt lat="50.310739735141397" lon="6.521704467013478" />
      <trkpt lat="50.310218716040254" lon="6.521331807598472" />
      <trkpt lat="50.30978755094111" lon="6.51958292350173" />
      <trkpt lat="50.309967175126076" lon="6.51622848585248" />
    </trkseg>
  </trk>

</gpx>